Provisional Data: Choconut Creek near Vestal Center, NY


Please select a monitoring station.
Please select start date.
Please select start date.

Toggle Unit: C/F Toggle Unit: C/F
Sample Time Temperature (C) Temperature (F) Specific Conductivity (mS/cm) pH   Turbidity (NTU+) DO (mg/L)
3/23/2021 12:00:00 AM 5.21 41.378 0.069 7.1 14.86 12.15
3/23/2021 12:15:00 AM 5.09 41.162 0.069 7.09 16.44 12.18
3/23/2021 12:30:00 AM 4.97 40.946 0.07 7.09 15.07 12.22
3/23/2021 12:45:00 AM 4.85 40.73 0.069 7.07 15.13 12.25
3/23/2021 1:00:00 AM 4.74 40.532 0.07 7.06 15.04 12.29
3/23/2021 1:15:00 AM 4.64 40.352 0.07 7.1 15.63 12.32
3/23/2021 1:30:00 AM 4.53 40.154 0.07 7.08 16.65 12.35
3/23/2021 1:45:00 AM 4.44 39.992 0.069 7.08 16.57 12.38
3/23/2021 2:00:00 AM 4.34 39.812 0.07 7.09 14.86 12.41
3/23/2021 2:15:00 AM 4.26 39.668 0.069 7.1 15.41 12.44
3/23/2021 2:30:00 AM 4.17 39.506 0.071 7.1 14.98 12.46
3/23/2021 2:45:00 AM 4.08 39.344 0.07 7.09 15.15 12.49
3/23/2021 3:00:00 AM 4 39.2 0.07 7.06 14.85 12.52
3/23/2021 3:15:00 AM 3.92 39.056 0.07 7.08 14.32 12.54
3/23/2021 3:30:00 AM 3.84 38.912 0.07 7.07 14.9 12.57
3/23/2021 3:45:00 AM 3.76 38.768 0.069 7.06 14.19 12.59
3/23/2021 4:00:00 AM 3.69 38.642 0.07 7.04 14.43 12.62
3/23/2021 4:15:00 AM 3.61 38.498 0.07 7.08 14.24 12.65
3/23/2021 4:30:00 AM 3.55 38.39 0.07 7.07 13.9 12.66
3/23/2021 4:45:00 AM 3.48 38.264 0.07 7.09 14.24 12.69
3/23/2021 5:00:00 AM 3.42 38.156 0.07 7.07 14.24 12.71
3/23/2021 5:15:00 AM 3.35 38.03 0.069 7.08 14.56 12.74
3/23/2021 5:30:00 AM 3.29 37.922 0.07 7.05 13.94 12.75
3/23/2021 5:45:00 AM 3.22 37.796 0.07 7.07 14.4 12.78
3/23/2021 6:00:00 AM 3.16 37.688 0.07 7.07 13.84 12.79
3/23/2021 6:15:00 AM 3.1 37.58 0.07 7.09 13.89 12.82
3/23/2021 6:30:00 AM 3.04 37.472 0.07 7.08 14.1 12.83
3/23/2021 6:45:00 AM 2.98 37.364 0.07 7.09 13.59 12.86
3/23/2021 7:00:00 AM 2.93 37.274 0.069 7.09 13.73 12.87
3/23/2021 7:15:00 AM 2.88 37.184 0.07 7.09 13.51 12.9
3/23/2021 7:30:00 AM 2.83 37.094 0.07 7.07 14.2 12.93
3/23/2021 7:45:00 AM 2.78 37.004 0.071 7.09 13.83 12.96
3/23/2021 8:00:00 AM 2.74 36.932 0.07 7.08 13.88 13
3/23/2021 8:15:00 AM 2.71 36.878 0.071 7.09 13.27 13.02
3/23/2021 8:30:00 AM 2.69 36.842 0.07 7.09 13.59 13.07
3/23/2021 8:45:00 AM 2.69 36.842 0.07 7.11 13.86 13.1
3/23/2021 9:00:00 AM 2.69 36.842 0.07 7.1 13.56 13.14
3/23/2021 9:15:00 AM 2.72 36.896 0.07 7.08 16.73 13.17
3/23/2021 9:30:00 AM 2.77 36.986 0.071 7.1 15.11 13.19
3/23/2021 9:45:00 AM 2.85 37.13 0.071 7.13 14.53 13.22
3/23/2021 10:00:00 AM 2.96 37.328 0.07 7.14 13.48 13.23
3/23/2021 10:15:00 AM 3.09 37.562 0.07 7.12 13.04 13.25
3/23/2021 10:30:00 AM 3.23 37.814 0.07 7.1 13.45 13.25
3/23/2021 10:45:00 AM 3.4 38.12 0.07 7.15 13.11 13.25
3/23/2021 11:00:00 AM 3.59 38.462 0.07 7.15 13.28 13.24
3/23/2021 11:15:00 AM 3.78 38.804 0.07 7.17 12.9 13.23
3/23/2021 11:30:00 AM 4 39.2 0.07 7.17 13.16 13.21
3/23/2021 11:45:00 AM 4.22 39.596 0.07 7.18 13.94 13.19
3/23/2021 12:00:00 PM 4.45 40.01 0.071 7.19 14.14 13.17
3/23/2021 12:15:00 PM 4.69 40.442 0.07 7.18 14.72 13.14
3/23/2021 12:30:00 PM 4.92 40.856 0.07 7.17 14.76 13.11
3/23/2021 12:45:00 PM 5.16 41.288 0.07 7.2 13.63 13.07
3/23/2021 1:00:00 PM 5.4 41.72 0.07 7.2 14.04 13.02
3/23/2021 1:15:00 PM 5.6 42.08 0.07 7.2 13.59 12.97
3/23/2021 1:30:00 PM 5.84 42.512 0.07 7.21 14.57 12.93
3/23/2021 1:45:00 PM 6.07 42.926 0.069 7.22 13.41 12.88
3/23/2021 2:00:00 PM 6.3 43.34 0.07 7.22 14.28 12.81
3/23/2021 2:15:00 PM 6.53 43.754 0.07 7.22 13.83 12.75
3/23/2021 2:30:00 PM 6.71 44.078 0.069 7.21 15.3 12.7
3/23/2021 2:45:00 PM 6.89 44.402 0.07 7.23 13.54 12.64
3/23/2021 3:00:00 PM 7.05 44.69 0.069 7.23 13.79 12.57
3/23/2021 3:15:00 PM 7.17 44.906 0.069 7.23 14.07 12.51
3/23/2021 3:30:00 PM 7.31 45.158 0.069 7.24 13.51 12.45
3/23/2021 3:45:00 PM 7.43 45.374 0.07 7.25 13.56 12.38
3/23/2021 4:00:00 PM 7.56 45.608 0.07 7.23 13.29 12.33
3/23/2021 4:15:00 PM 7.69 45.842 0.069 7.21 13.98 12.26
3/23/2021 4:30:00 PM 7.8 46.04 0.07 7.21 14.87 12.2
3/23/2021 4:45:00 PM 7.85 46.13 0.07 7.24 14.68 12.15
3/23/2021 5:00:00 PM 7.93 46.274 0.07 7.23 13.88 12.1
3/23/2021 5:15:00 PM 8 46.4 0.069 7.24 15.25 12.06
3/23/2021 5:30:00 PM 8.03 46.454 0.069 7.22 15.57 12.01
3/23/2021 5:45:00 PM 8.05 46.49 0.069 7.22 16.32 11.97
3/23/2021 6:00:00 PM 8.06 46.508 0.068 7.22 18.33 11.94
3/23/2021 6:15:00 PM 8.07 46.526 0.069 7.25 14.88 11.89
3/23/2021 6:30:00 PM 8.06 46.508 0.069 7.24 15.01 11.85
3/23/2021 6:45:00 PM 8.04 46.472 0.069 7.24 14.61 11.81
3/23/2021 7:00:00 PM 8.01 46.418 0.068 7.23 15.53 11.77
3/23/2021 7:15:00 PM 7.96 46.328 0.068 7.22 18.42 11.74
3/23/2021 7:30:00 PM 7.9 46.22 0.069 7.21 15.51 11.71
3/23/2021 7:45:00 PM 7.83 46.094 0.069 7.2 16.58 11.68
3/23/2021 8:00:00 PM 7.76 45.968 0.069 7.2 17.82 11.66
3/23/2021 8:15:00 PM 7.68 45.824 0.069 7.17 17.5 11.65
3/23/2021 8:30:00 PM 7.58 45.644 0.069 7.18 19.28 11.64
3/23/2021 8:45:00 PM 7.49 45.482 0.069 7.17 18.19 11.63
3/23/2021 9:00:00 PM 7.4 45.32 0.068 7.16 20.48 11.64
3/23/2021 9:15:00 PM 7.3 45.14 0.069 7.16 19.35 11.64
3/23/2021 9:30:00 PM 7.21 44.978 0.07 7.14 17.75 11.65
3/23/2021 9:45:00 PM 7.12 44.816 0.069 7.15 17.28 11.65
3/23/2021 10:00:00 PM 7.02 44.636 0.069 7.13 19.89 11.67
3/23/2021 10:15:00 PM 6.92 44.456 0.069 7.11 19.5 11.68
3/23/2021 10:30:00 PM 6.82 44.276 0.07 7.09 17.26 11.7
3/23/2021 10:45:00 PM 6.72 44.096 0.069 7.12 18.95 11.71
3/23/2021 11:00:00 PM 6.62 43.916 0.069 7.12 24.95 11.74
3/23/2021 11:15:00 PM 6.52 43.736 0.069 7.12 18.96 11.75
3/23/2021 11:30:00 PM 6.42 43.556 0.069 7.1 18.57 11.77
3/23/2021 11:45:00 PM 6.32 43.376 0.068 7.11 18.05 11.8
3/24/2021 12:00:00 AM 6.23 43.214 0.069 7.11 18.06 11.82
3/24/2021 12:15:00 AM 6.14 43.052 0.069 7.09 18.7 11.84
3/24/2021 12:30:00 AM 6.06 42.908 0.069 7.08 17.64 11.87
3/24/2021 12:45:00 AM 5.98 42.764 0.069 7.1 18.16 11.89
3/24/2021 1:00:00 AM 5.9 42.62 0.069 7.09 17.9 11.9
3/24/2021 1:15:00 AM 5.83 42.494 0.069 7.09 19.65 11.92
3/24/2021 1:30:00 AM 5.78 42.404 0.069 7.1 19.66 11.94
3/24/2021 1:45:00 AM 5.74 42.332 0.069 7.1 18.65 11.96
3/24/2021 2:00:00 AM 5.69 42.242 0.068 7.09 18.62 11.97
3/24/2021 2:15:00 AM 5.65 42.17 0.069 7.1 18.64 11.99
3/24/2021 2:30:00 AM 5.59 42.062 0.069 7.09 18.91 12.01
3/24/2021 2:45:00 AM 5.55 41.99 0.069 7.09 19.42 12.02
3/24/2021 3:00:00 AM 5.51 41.918 0.069 7.1 18.97 12.03
3/24/2021 3:15:00 AM 5.46 41.828 0.069 7.1 19.25 12.05
3/24/2021 3:30:00 AM 5.41 41.738 0.068 7.1 17.1 12.06
3/24/2021 3:45:00 AM 5.37 41.666 0.069 7.08 18.38 12.07
3/24/2021 4:00:00 AM 5.34 41.612 0.069 7.1 18.14 12.09
3/24/2021 4:15:00 AM 5.32 41.576 0.069 7.1 18.21 12.09
3/24/2021 4:30:00 AM 5.3 41.54 0.068 7.09 17.51 12.1
3/24/2021 4:45:00 AM 5.28 41.504 0.069 7.1 17.51 12.11
3/24/2021 5:00:00 AM 5.25 41.45 0.069 7.08 18.24 12.12
3/24/2021 5:15:00 AM 5.23 41.414 0.069 7.09 17.4 12.12
3/24/2021 5:30:00 AM 5.22 41.396 0.069 7.09 18.07 12.13
3/24/2021 5:45:00 AM 5.2 41.36 0.069 7.08 16.52 12.13
3/24/2021 6:00:00 AM 5.18 41.324 0.068 7.06 16.88 12.14
3/24/2021 6:15:00 AM 5.17 41.306 0.069 7.09 17.25 12.15
3/24/2021 6:30:00 AM 5.15 41.27 0.069 7.09 17.66 12.15
3/24/2021 6:45:00 AM 5.14 41.252 0.069 7.08 17.13 12.16
3/24/2021 7:00:00 AM 5.13 41.234 0.069 7.09 17.99 12.16
3/24/2021 7:15:00 AM 5.12 41.216 0.068 7.06 19.87 12.16
3/24/2021 7:30:00 AM 5.11 41.198 0.068 7.09 19.03 12.18
3/24/2021 7:45:00 AM 5.1 41.18 0.068 7.1 17.97 12.19
3/24/2021 8:00:00 AM 5.09 41.162 0.068 7.08 18.61 12.2
3/24/2021 8:15:00 AM 5.09 41.162 0.069 7.1 17.77 12.22
3/24/2021 8:30:00 AM 5.09 41.162 0.068 7.09 17.94 12.23
3/24/2021 8:45:00 AM 5.09 41.162 0.069 7.1 19.08 12.25
3/24/2021 9:00:00 AM 5.1 41.18 0.068 7.08 18.96 12.26
3/24/2021 9:15:00 AM 5.12 41.216 0.069 7.11 19.1 12.29
3/24/2021 9:30:00 AM 5.13 41.234 0.069 7.11 19.13 12.3
3/24/2021 9:45:00 AM 5.15 41.27 0.069 7.11 20.27 12.31
3/24/2021 10:00:00 AM 5.17 41.306 0.069 7.13 20.72 12.32
3/24/2021 10:15:00 AM 5.19 41.342 0.068 7.11 21.02 12.33
3/24/2021 10:30:00 AM 5.23 41.414 0.068 7.11 21.84 12.35
3/24/2021 10:45:00 AM 5.26 41.468 0.068 7.14 27.8 12.36
3/24/2021 11:00:00 AM 5.3 41.54 0.07 7.14 23.81 12.38
3/24/2021 11:15:00 AM 5.35 41.63 0.069 7.15 24.12 12.39
3/24/2021 11:30:00 AM 5.39 41.702 0.069 7.14 25.44 12.39
3/24/2021 11:45:00 AM 5.44 41.792 0.068 7.15 36.37 12.4
3/24/2021 12:00:00 PM 5.5 41.9 0.068 7.14 24.32 12.4
3/24/2021 12:15:00 PM 5.56 42.008 0.069 7.14 28.36 12.41
3/24/2021 12:30:00 PM 5.63 42.134 0.07 7.17 22.81 12.41
3/24/2021 12:45:00 PM 5.69 42.242 0.07 7.18 27.41 12.41
3/24/2021 1:00:00 PM 5.75 42.35 0.07 7.17 33.85 12.4
3/24/2021 1:15:00 PM 5.8 42.44 0.071 7.17 31.82 12.39
3/24/2021 1:30:00 PM 5.87 42.566 0.072 7.2 32.47 12.39
3/24/2021 1:45:00 PM 5.93 42.674 0.074 7.18 44.05 12.38
3/24/2021 2:00:00 PM 5.99 42.782 0.075 7.19 28.18 12.37
3/24/2021 2:15:00 PM 6.06 42.908 0.075 7.19 39.3 12.36
3/24/2021 2:30:00 PM 6.11 42.998 0.077 7.19 33.13 12.33
3/24/2021 2:45:00 PM 6.17 43.106 0.076 7.22 33.79 12.3
3/24/2021 3:00:00 PM 6.22 43.196 0.077 7.18 40.59 12.3
3/24/2021 3:15:00 PM 6.28 43.304 0.076 7.2 37.56 12.27
3/24/2021 3:30:00 PM 6.34 43.412 0.075 7.21 40.33 12.22
3/24/2021 3:45:00 PM 6.4 43.52 0.076 7.2 35.49 12.19
3/24/2021 4:00:00 PM 6.47 43.646 0.077 7.21 45.79 12.16
3/24/2021 4:15:00 PM 6.52 43.736 0.076 7.2 44.09 12.13
3/24/2021 4:30:00 PM 6.58 43.844 0.075 7.21 46.64 12.09
3/24/2021 4:45:00 PM 6.62 43.916 0.076 7.18 39.15 12.06
3/24/2021 5:00:00 PM 6.66 43.988 0.076 7.18 43.87 12.02
3/24/2021 5:15:00 PM 6.7 44.06 0.075 7.19 39.15 11.99
3/24/2021 5:30:00 PM 6.74 44.132 0.075 7.19 53.9 11.97
3/24/2021 5:45:00 PM 6.78 44.204 0.075 7.15 45.07 11.95
3/24/2021 6:00:00 PM 6.82 44.276 0.075 7.19 61.65 11.92
3/24/2021 6:15:00 PM 6.85 44.33 0.075 7.18 56.4 11.9
3/24/2021 6:30:00 PM 6.86 44.348 0.075 7.16 49.61 11.88
3/24/2021 6:45:00 PM 6.88 44.384 0.075 7.17 51.03 11.86
3/24/2021 7:00:00 PM 6.88 44.384 0.076 7.17 41.42 11.84
3/24/2021 7:15:00 PM 6.88 44.384 0.075 7.16 49.87 11.82
3/24/2021 7:30:00 PM 6.88 44.384 0.075 7.16 46.96 11.8
3/24/2021 7:45:00 PM 6.88 44.384 0.075 7.15 47.01 11.8
3/24/2021 8:00:00 PM 6.88 44.384 0.075 7.12 48.13 11.78
3/24/2021 8:15:00 PM 6.88 44.384 0.076 7.13 53 11.77
3/24/2021 8:30:00 PM 6.87 44.366 0.075 7.13 39.62 11.74
3/24/2021 8:45:00 PM 6.87 44.366 0.074 7.13 42.83 11.75
3/24/2021 9:00:00 PM 6.86 44.348 0.074 7.1 46.41 11.73
3/24/2021 9:15:00 PM 6.86 44.348 0.074 7.12 42.39 11.73
3/24/2021 9:30:00 PM 6.85 44.33 0.075 7.09 41.78 11.72
3/24/2021 9:45:00 PM 6.85 44.33 0.074 7.12 40.07 11.72
3/24/2021 10:00:00 PM 6.83 44.294 0.075 7.11 46.48 11.7
3/24/2021 10:15:00 PM 6.83 44.294 0.075 7.11 44.86 11.7
3/24/2021 10:30:00 PM 6.82 44.276 0.074 7.11 36.58 11.69
3/24/2021 10:45:00 PM 6.81 44.258 0.074 7.1 56.8 11.7
3/24/2021 11:00:00 PM 6.8 44.24 0.073 7.08 52.9 11.68
3/24/2021 11:15:00 PM 6.79 44.222 0.074 7.09 41.08 11.69
3/24/2021 11:30:00 PM 6.77 44.186 0.074 7.1 34.9 11.69
3/24/2021 11:45:00 PM 6.75 44.15 0.073 7.08 28.67 11.7
3/25/2021 12:00:00 AM 6.73 44.114 0.073 7.06 39.14 11.7
3/25/2021 12:15:00 AM 6.71 44.078 0.073 7.09 42.31 11.7
3/25/2021 12:30:00 AM 6.7 44.06 0.073 7.09 38.3 11.7
3/25/2021 12:45:00 AM 6.68 44.024 0.075 7.07 35.99 11.69
3/25/2021 1:00:00 AM 6.67 44.006 0.071 7.02 31.39 11.7
3/25/2021 1:15:00 AM 6.66 43.988 0.072 7.08 37.12 11.7
3/25/2021 1:30:00 AM 6.65 43.97 0.072 7.08 47.49 11.7
3/25/2021 1:45:00 AM 6.64 43.952 0.072 7.08 28.07 11.71
3/25/2021 2:00:00 AM 6.64 43.952 0.071 7.04 32.65 11.71
3/25/2021 2:15:00 AM 6.64 43.952 0.071 7.07 39.3 11.7
3/25/2021 2:30:00 AM 6.63 43.934 0.071 7.08 26.46 11.7
3/25/2021 2:45:00 AM 6.62 43.916 0.072 7.08 31.8 11.71
3/25/2021 3:00:00 AM 6.62 43.916 0.071 7.07 29.5 11.71
3/25/2021 3:15:00 AM 6.61 43.898 0.071 7.07 27.48 11.71
3/25/2021 3:30:00 AM 6.6 43.88 0.071 7.07 35.24 11.7
3/25/2021 3:45:00 AM 6.6 43.88 0.07 7.07 26.65 11.71
3/25/2021 4:00:00 AM 6.6 43.88 0.07 7.07 27.32 11.7
3/25/2021 4:15:00 AM 6.59 43.862 0.07 7.07 23.23 11.71
3/25/2021 4:30:00 AM 6.59 43.862 0.071 7.07 26.22 11.71
3/25/2021 4:45:00 AM 6.58 43.844 0.071 7.07 30.74 11.71
3/25/2021 5:00:00 AM 6.57 43.826 0.071 7.07 27.43 11.71
3/25/2021 5:15:00 AM 6.56 43.808 0.071 7.07 24.94 11.71
3/25/2021 5:30:00 AM 6.55 43.79 0.071 7.07 21.89 11.72
3/25/2021 5:45:00 AM 6.54 43.772 0.071 7.07 44.04 11.71
3/25/2021 6:00:00 AM 6.53 43.754 0.07 7.07 23 11.72
3/25/2021 6:15:00 AM 6.53 43.754 0.07 7.07 28.4 11.72
3/25/2021 6:30:00 AM 6.52 43.736 0.069 7.07 25.26 11.72
3/25/2021 6:45:00 AM 6.51 43.718 0.07 7.04 29.16 11.73
3/25/2021 7:00:00 AM 6.5 43.7 0.071 7.01 29.91 11.74
3/25/2021 7:15:00 AM 6.49 43.682 0.07 7.07 30.54 11.74
3/25/2021 7:30:00 AM 6.49 43.682 0.069 7.07 22.64 11.76
3/25/2021 7:45:00 AM 6.49 43.682 0.07 7.07 23.97 11.76
3/25/2021 8:00:00 AM 6.49 43.682 0.07 7.08 23.1 11.77
3/25/2021 8:15:00 AM 6.5 43.7 0.07 7.08 23.04 11.79
3/25/2021 8:30:00 AM 6.52 43.736 0.069 7.08 24.05 11.82
3/25/2021 8:45:00 AM 6.54 43.772 0.07 7.09 22.95 11.84
3/25/2021 9:00:00 AM 6.56 43.808 0.069 7.1 22.83 11.86
3/25/2021 9:15:00 AM 6.59 43.862 0.069 7.1 19.78 11.88
3/25/2021 9:30:00 AM 6.66 43.988 0.069 7.11 22 11.91
3/25/2021 9:45:00 AM 6.72 44.096 0.069 7.12 21.28 11.93
3/25/2021 10:00:00 AM 6.82 44.276 0.069 7.13 21.36 11.95
3/25/2021 10:15:00 AM 6.91 44.438 0.07 7.14 21.24 11.96
3/25/2021 10:30:00 AM 7 44.6 0.069 7.14 22.03 11.98
3/25/2021 10:45:00 AM 7.09 44.762 0.069 7.15 22.52 11.98
3/25/2021 11:00:00 AM 7.17 44.906 0.068 7.15 24 11.99
3/25/2021 11:15:00 AM 7.31 45.158 0.068 7.16 21 11.99
3/25/2021 11:30:00 AM 7.5 45.5 0.068 7.17 22.05 11.98
3/25/2021 11:45:00 AM 7.68 45.824 0.069 7.18 19.49 11.97
3/25/2021 12:00:00 PM 7.93 46.274 0.069 7.19 21.08 11.95
3/25/2021 12:15:00 PM 8.19 46.742 0.069 7.19 22.48 11.92
3/25/2021 12:30:00 PM 8.43 47.174 0.069 7.2 20.86 11.9
3/25/2021 12:45:00 PM 8.64 47.552 0.068 7.2 29.03 11.87
3/25/2021 1:00:00 PM 8.87 47.966 0.067 7.18 20.73 11.84
3/25/2021 1:15:00 PM 9.11 48.398 0.069 7.2 19.14 11.79
3/25/2021 1:30:00 PM 9.35 48.83 0.068 7.22 19.92 11.75
3/25/2021 1:45:00 PM 9.55 49.19 0.067 7.23 19.16 11.71
3/25/2021 2:00:00 PM 9.73 49.514 0.069 7.23 18.9 11.66
3/25/2021 2:15:00 PM 9.92 49.856 0.068 7.24 20.12 11.62
3/25/2021 2:30:00 PM 10.14 50.252 0.068 7.24 18.86 11.56
3/25/2021 2:45:00 PM 10.35 50.63 0.068 7.25 20.56 11.5
3/25/2021 3:00:00 PM 10.51 50.918 0.068 7.23 19.94 11.45
3/25/2021 3:15:00 PM 10.65 51.17 0.068 7.23 20.27 11.4
3/25/2021 3:30:00 PM 10.77 51.386 0.067 7.23 19.97 11.35
3/25/2021 3:45:00 PM 10.87 51.566 0.067 7.23 20.2 11.3
3/25/2021 4:00:00 PM 10.94 51.692 0.069 7.24 21.11 11.25
3/25/2021 4:15:00 PM 11.02 51.836 0.069 7.24 19.06 11.21
3/25/2021 4:30:00 PM 11.09 51.962 0.068 7.25 21.46 11.17
3/25/2021 4:45:00 PM 11.14 52.052 0.068 7.24 18.94 11.12
3/25/2021 5:00:00 PM 11.17 52.106 0.068 7.26 19.34 11.09
3/25/2021 5:15:00 PM 11.19 52.142 0.068 7.25 20.67 11.06
3/25/2021 5:30:00 PM 11.2 52.16 0.068 7.25 29.67 11.03
3/25/2021 5:45:00 PM 11.19 52.142 0.068 7.25 20.6 10.99
3/25/2021 6:00:00 PM 11.16 52.088 0.067 7.25 19.54 10.96
3/25/2021 6:15:00 PM 11.11 51.998 0.068 7.24 20.37 10.94
3/25/2021 6:30:00 PM 11.06 51.908 0.067 7.23 20.77 10.91
3/25/2021 6:45:00 PM 10.99 51.782 0.068 7.21 22.17 10.89
3/25/2021 7:00:00 PM 10.91 51.638 0.067 7.19 20.17 10.86
3/25/2021 7:15:00 PM 10.81 51.458 0.067 7.18 19.43 10.84
3/25/2021 7:30:00 PM 10.72 51.296 0.067 7.16 20.29 10.81
3/25/2021 7:45:00 PM 10.63 51.134 0.067 7.14 19.58 10.79
3/25/2021 8:00:00 PM 10.53 50.954 0.069 7.13 20.39 10.78
3/25/2021 8:15:00 PM 10.43 50.774 0.068 7.12 21.27 10.77
3/25/2021 8:30:00 PM 10.33 50.594 0.066 7.11 19.33 10.77
3/25/2021 8:45:00 PM 10.22 50.396 0.066 7.11 19.79 10.77
3/25/2021 9:00:00 PM 10.13 50.234 0.068 7.1 18.75 10.76
3/25/2021 9:15:00 PM 10.03 50.054 0.068 7.09 20.22 10.77
3/25/2021 9:30:00 PM 9.93 49.874 0.067 7.09 20.55 10.77
3/25/2021 9:45:00 PM 9.84 49.712 0.069 7.06 19.4 10.78
3/25/2021 10:00:00 PM 9.75 49.55 0.069 7.06 20.17 10.79
3/25/2021 10:15:00 PM 9.68 49.424 0.069 7.05 21.59 10.8
3/25/2021 10:30:00 PM 9.61 49.298 0.066 7.06 19.26 10.81
3/25/2021 10:45:00 PM 9.54 49.172 0.07 7.07 19.12 10.82
3/25/2021 11:00:00 PM 9.48 49.064 0.068 7.09 19.21 10.83
3/25/2021 11:15:00 PM 9.42 48.956 0.07 7.1 18.77 10.84
3/25/2021 11:30:00 PM 9.36 48.848 0.069 7.07 18.82 10.85
3/25/2021 11:45:00 PM 9.3 48.74 0.069 7.1 19.66 10.86
3/26/2021 12:00:00 AM 9.25 48.65 0.069 7.09 19.66 10.87
3/26/2021 12:15:00 AM 9.21 48.578 0.07 7.08 23.72 10.87
3/26/2021 12:30:00 AM 9.16 48.488 0.069 7.09 19.84 10.88
3/26/2021 12:45:00 AM 9.11 48.398 0.071 7.07 19.19 10.89
3/26/2021 1:00:00 AM 9.06 48.308 0.071 7.08 19.17 10.91
3/26/2021 1:15:00 AM 9.01 48.218 0.069 7.07 19.96 10.91
3/26/2021 1:30:00 AM 8.97 48.146 0.068 7.07 26.9 10.91
3/26/2021 1:45:00 AM 8.94 48.092 0.069 7.06 27.07 10.93
3/26/2021 2:00:00 AM 8.91 48.038 0.069 7.07 20 10.93
3/26/2021 2:15:00 AM 8.88 47.984 0.07 7.08 20.14 10.93
3/26/2021 2:30:00 AM 8.84 47.912 0.065 7.07 18.55 10.94
3/26/2021 2:45:00 AM 8.82 47.876 0.07 7.07 17.76 10.94
3/26/2021 3:00:00 AM 8.78 47.804 0.069 7.08 20.92 10.95
3/26/2021 3:15:00 AM 8.76 47.768 0.069 7.07 21.55 10.96
3/26/2021 3:30:00 AM 8.74 47.732 0.071 7.08 19.57 10.95
3/26/2021 3:45:00 AM 8.71 47.678 0.069 7.08 19.14 10.96
3/26/2021 4:00:00 AM 8.69 47.642 0.069 7.08 21.26 10.96
3/26/2021 4:15:00 AM 8.66 47.588 0.069 7.08 17.27 10.98
3/26/2021 4:30:00 AM 8.64 47.552 0.07 7.09 19.63 10.96
3/26/2021 4:45:00 AM 8.62 47.516 0.069 7.09 22.17 10.97
3/26/2021 5:00:00 AM 8.6 47.48 0.071 7.1 21.64 10.97
3/26/2021 5:15:00 AM 8.57 47.426 0.07 7.1 20.55 10.98
3/26/2021 5:30:00 AM 8.55 47.39 0.07 7.09 22.15 10.98
3/26/2021 5:45:00 AM 8.53 47.354 0.07 7.1 21.28 10.98
3/26/2021 6:00:00 AM 8.51 47.318 0.072 7.11 18.33 10.98
3/26/2021 6:15:00 AM 8.5 47.3 0.071 7.1 20.57 10.98
3/26/2021 6:30:00 AM 8.49 47.282 0.069 7.11 19.81 10.97
3/26/2021 6:45:00 AM 8.49 47.282 0.071 7.1 19.52 10.98
3/26/2021 7:00:00 AM 8.5 47.3 0.07 7.12 19.26 10.98
3/26/2021 7:15:00 AM 8.51 47.318 0.071 7.11 19.02 10.98
3/26/2021 7:30:00 AM 8.52 47.336 0.072 7.09 17.97 10.98
3/26/2021 7:45:00 AM 8.52 47.336 0.07 7.13 19.18 11
3/26/2021 8:00:00 AM 8.55 47.39 0.071 7.14 18.38 11.02
3/26/2021 8:15:00 AM 8.6 47.48 0.07 7.14 18.28 11.04
3/26/2021 8:30:00 AM 8.65 47.57 0.071 7.14 18.29 11.06
3/26/2021 8:45:00 AM 8.69 47.642 0.071 7.15 18.43 11.07
3/26/2021 9:00:00 AM 8.72 47.696 0.071 7.16 17.49 11.08
3/26/2021 9:15:00 AM 8.79 47.822 0.07 7.17 18.69 11.11
3/26/2021 9:30:00 AM 8.87 47.966 0.071 7.14 18.45 11.12
3/26/2021 9:45:00 AM 8.95 48.11 0.071 7.19 18.19 11.16
3/26/2021 10:00:00 AM 9.05 48.29 0.071 7.2 17.63 11.16
3/26/2021 10:15:00 AM 9.13 48.434 0.071 7.19 17.98 11.17
3/26/2021 10:30:00 AM 9.25 48.65 0.071 7.2 16.81 11.17
3/26/2021 10:45:00 AM 9.4 48.92 0.07 7.18 16.62 11.17
3/26/2021 11:00:00 AM 9.6 49.28 0.071 7.22 17.05 11.17
3/26/2021 11:15:00 AM 9.81 49.658 0.07 7.23 19.74 11.17
3/26/2021 11:30:00 AM 9.94 49.892 0.071 7.24 26.04 11.16
3/26/2021 11:45:00 AM 10.02 50.036 0.07 7.24 17.35 11.16
3/26/2021 12:00:00 PM 10.12 50.216 0.07 7.26 17.19 11.15
3/26/2021 12:15:00 PM 10.22 50.396 0.071 7.25 17.83 11.14
3/26/2021 12:30:00 PM 10.37 50.666 0.07 7.27 16.66 11.13
3/26/2021 12:45:00 PM 10.46 50.828 0.071 7.27 16.63 11.11
3/26/2021 1:00:00 PM 10.5 50.9 0.071 7.27 16.3 11.08
3/26/2021 1:15:00 PM 10.51 50.918 0.07 7.27 16.02 11.07
3/26/2021 1:30:00 PM 10.53 50.954 0.07 7.27 17.52 11.03
3/26/2021 1:45:00 PM 10.59 51.062 0.071 7.28 15.71 11.02
3/26/2021 2:00:00 PM 10.66 51.188 0.071 7.29 15.2 11.01
3/26/2021 2:15:00 PM 10.68 51.224 0.071 7.27 15.77 11.01
3/26/2021 2:30:00 PM 10.68 51.224 0.071 7.28 15.78 11
3/26/2021 2:45:00 PM 10.67 51.206 0.071 7.28 15.49 10.97
3/26/2021 3:00:00 PM 10.67 51.206 0.071 7.29 15.52 10.95
3/26/2021 3:15:00 PM 10.63 51.134 0.071 7.27 15.96 10.91
3/26/2021 3:30:00 PM 10.62 51.116 0.07 7.27 15.54 10.9
3/26/2021 3:45:00 PM 10.6 51.08 0.071 7.28 15.58 10.89
3/26/2021 4:00:00 PM 10.6 51.08 0.07 7.27 15.51 10.9
3/26/2021 4:15:00 PM 10.6 51.08 0.07 7.28 16.21 10.91
3/26/2021 4:30:00 PM 10.59 51.062 0.071 7.28 16.97 10.92
3/26/2021 4:45:00 PM 10.55 50.99 0.071 7.29 16.03 10.92
3/26/2021 5:00:00 PM 10.5 50.9 0.071 7.29 16.85 10.92
3/26/2021 5:15:00 PM 10.46 50.828 0.07 7.29 15.86 10.94
3/26/2021 5:30:00 PM 10.41 50.738 0.07 7.28 16.97 10.94
3/26/2021 5:45:00 PM 10.36 50.648 0.072 7.28 17.63 10.93
3/26/2021 6:00:00 PM 10.29 50.522 0.071 7.26 15.85 10.93
3/26/2021 6:15:00 PM 10.23 50.414 0.069 7.27 15.31 10.92
3/26/2021 6:30:00 PM 10.16 50.288 0.07 7.27 15.7 10.91
3/26/2021 6:45:00 PM 10.09 50.162 0.071 7.24 15.86 10.9
3/26/2021 7:00:00 PM 10.01 50.018 0.071 7.23 15.78 10.88
3/26/2021 7:15:00 PM 9.92 49.856 0.071 7.24 15.12 10.88
3/26/2021 7:30:00 PM 9.83 49.694 0.071 7.21 16.26 10.87
3/26/2021 7:45:00 PM 9.75 49.55 0.072 7.22 16.43 10.87
3/26/2021 8:00:00 PM 9.67 49.406 0.071 7.2 16.3 10.87
3/26/2021 8:15:00 PM 9.59 49.262 0.072 7.21 15.02 10.87
3/26/2021 8:30:00 PM 9.51 49.118 0.071 7.19 15.32 10.87
3/26/2021 8:45:00 PM 9.44 48.992 0.071 7.19 16.37 10.87
3/26/2021 9:00:00 PM 9.36 48.848 0.072 7.19 17.16 10.88
3/26/2021 9:15:00 PM 9.29 48.722 0.071 7.19 16.83 10.89
3/26/2021 9:30:00 PM 9.22 48.596 0.072 7.19 17.63 10.9
3/26/2021 9:45:00 PM 9.14 48.452 0.072 7.17 16.05 10.91
3/26/2021 10:00:00 PM 9.07 48.326 0.072 7.18 15.18 10.92
3/26/2021 10:15:00 PM 9 48.2 0.071 7.16 15.05 10.93
3/26/2021 10:30:00 PM 8.93 48.074 0.072 7.17 17.83 10.94
3/26/2021 10:45:00 PM 8.86 47.948 0.072 7.16 15.64 10.95
3/26/2021 11:00:00 PM 8.79 47.822 0.073 7.16 14.7 10.97
3/26/2021 11:15:00 PM 8.73 47.714 0.072 7.16 14.51 10.99
3/26/2021 11:30:00 PM 8.67 47.606 0.072 7.16 14.87 10.99
3/26/2021 11:45:00 PM 8.61 47.498 0.072 7.16 14.29 11.01
3/27/2021 12:00:00 AM 8.55 47.39 0.072 7.16 14.32 11.03
3/27/2021 12:15:00 AM 8.49 47.282 0.073 7.16 14.17 11.04
3/27/2021 12:30:00 AM 8.43 47.174 0.073 7.15 17.21 11.05
3/27/2021 12:45:00 AM 8.36 47.048 0.073 7.15 14.14 11.07
3/27/2021 1:00:00 AM 8.29 46.922 0.073 7.15 14.62 11.08
3/27/2021 1:15:00 AM 8.22 46.796 0.073 7.15 17.09 11.1
3/27/2021 1:30:00 AM 8.14 46.652 0.073 7.15 16.08 11.12
3/27/2021 1:45:00 AM 8.08 46.544 0.073 7.14 13.92 11.13
3/27/2021 2:00:00 AM 8 46.4 0.073 7.16 14.56 11.16
3/27/2021 2:15:00 AM 7.93 46.274 0.074 7.14 14.17 11.17
3/27/2021 2:30:00 AM 7.85 46.13 0.073 7.15 14.05 11.19
3/27/2021 2:45:00 AM 7.79 46.022 0.073 7.14 14.33 11.21
3/27/2021 3:00:00 AM 7.73 45.914 0.073 7.14 14.63 11.23
3/27/2021 3:15:00 AM 7.68 45.824 0.072 7.13 15.34 11.24
3/27/2021 3:30:00 AM 7.63 45.734 0.072 7.14 14.99 11.26
3/27/2021 3:45:00 AM 7.58 45.644 0.073 7.14 16.11 11.28
3/27/2021 4:00:00 AM 7.53 45.554 0.073 7.11 14.97 11.29
3/27/2021 4:15:00 AM 7.48 45.464 0.072 7.14 14.84 11.32
3/27/2021 4:30:00 AM 7.43 45.374 0.072 7.13 14.04 11.32
3/27/2021 4:45:00 AM 7.39 45.302 0.073 7.13 14.62 11.34
3/27/2021 5:00:00 AM 7.36 45.248 0.073 7.14 13.62 11.35
3/27/2021 5:15:00 AM 7.32 45.176 0.073 7.11 13.79 11.37
3/27/2021 5:30:00 AM 7.28 45.104 0.073 7.13 13.44 11.38
3/27/2021 5:45:00 AM 7.24 45.032 0.074 7.13 13.85 11.38
3/27/2021 6:00:00 AM 7.21 44.978 0.073 7.14 13.73 11.4
3/27/2021 6:15:00 AM 7.17 44.906 0.073 7.14 13.63 11.41
3/27/2021 6:30:00 AM 7.14 44.852 0.073 7.13 13.06 11.42
3/27/2021 6:45:00 AM 7.1 44.78 0.073 7.13 14.35 11.44
3/27/2021 7:00:00 AM 7.07 44.726 0.073 7.12 12.85 11.45
3/27/2021 7:15:00 AM 7.04 44.672 0.074 7.13 14.67 11.46
3/27/2021 7:30:00 AM 7.01 44.618 0.074 7.14 12.34 11.48
3/27/2021 7:45:00 AM 6.99 44.582 0.073 7.14 12.27 11.51
3/27/2021 8:00:00 AM 6.97 44.546 0.073 7.13 12.82 11.53
3/27/2021 8:15:00 AM 6.95 44.51 0.073 7.15 14.66 11.56
3/27/2021 8:30:00 AM 6.94 44.492 0.073 7.17 12.16 11.6
3/27/2021 8:45:00 AM 6.93 44.474 0.073 7.17 14.85 11.63
3/27/2021 9:00:00 AM 6.94 44.492 0.074 7.17 14.59 11.67
3/27/2021 9:15:00 AM 6.94 44.492 0.073 7.18 13.82 11.7
3/27/2021 9:30:00 AM 6.95 44.51 0.073 7.19 12.99 11.75
3/27/2021 9:45:00 AM 6.95 44.51 0.073 7.19 12.89 11.77
3/27/2021 10:00:00 AM 6.96 44.528 0.073 7.21 11.77 11.79
3/27/2021 10:15:00 AM 6.97 44.546 0.074 7.21 12.75 11.82
3/27/2021 10:30:00 AM 7.09 44.762 0.074 7.21 12.44 11.85
3/27/2021 10:45:00 AM 7.13 44.834 0.074 7.22 12.56 11.88
3/27/2021 11:00:00 AM 7.21 44.978 0.074 7.23 12.38 11.9
3/27/2021 11:15:00 AM 7.26 45.068 0.074 7.23 13.41 11.91
3/27/2021 11:30:00 AM 7.31 45.158 0.073 7.25 13.49 11.93
3/27/2021 11:45:00 AM 7.4 45.32 0.073 7.25 12.74 11.94
3/27/2021 12:00:00 PM 7.57 45.626 0.073 7.27 12.9 11.96
3/27/2021 12:15:00 PM 7.84 46.112 0.074 7.27 12.8 11.95
3/27/2021 12:30:00 PM 8.08 46.544 0.074 7.28 13.42 11.94
3/27/2021 12:45:00 PM 8.31 46.958 0.073 7.28 12.35 11.91
3/27/2021 1:00:00 PM 8.5 47.3 0.073 7.28 13.06 11.9
3/27/2021 1:15:00 PM 8.53 47.354 0.073 7.27 12.42 11.87
3/27/2021 1:30:00 PM 8.56 47.408 0.074 7.3 13.9 11.86
3/27/2021 1:45:00 PM 8.65 47.57 0.072 7.3 12.44 11.85
3/27/2021 2:00:00 PM 8.8 47.84 0.073 7.31 12.33 11.83
3/27/2021 2:15:00 PM 8.99 48.182 0.073 7.32 12.66 11.8
3/27/2021 2:30:00 PM 9.16 48.488 0.073 7.32 12.34 11.78
3/27/2021 2:45:00 PM 9.34 48.812 0.073 7.32 14.08 11.74
3/27/2021 3:00:00 PM 9.48 49.064 0.072 7.33 13.36 11.71
3/27/2021 3:15:00 PM 9.61 49.298 0.073 7.33 14.56 11.67
3/27/2021 3:30:00 PM 9.76 49.568 0.073 7.33 12.25 11.63
3/27/2021 3:45:00 PM 9.87 49.766 0.073 7.33 11.85 11.59
3/27/2021 4:00:00 PM 9.96 49.928 0.073 7.34 11.42 11.56
3/27/2021 4:15:00 PM 10.01 50.018 0.073 7.33 11.67 11.52
3/27/2021 4:30:00 PM 10.08 50.144 0.072 7.34 12.11 11.48
3/27/2021 4:45:00 PM 10.14 50.252 0.073 7.34 11.4 11.44
3/27/2021 5:00:00 PM 10.2 50.36 0.072 7.34 10.97 11.41
3/27/2021 5:15:00 PM 10.24 50.432 0.072 7.35 11.46 11.37
3/27/2021 5:30:00 PM 10.27 50.486 0.073 7.34 11.66 11.34
3/27/2021 5:45:00 PM 10.3 50.54 0.073 7.34 12.11 11.31
3/27/2021 6:00:00 PM 10.32 50.576 0.072 7.34 12.14 11.28
3/27/2021 6:15:00 PM 10.32 50.576 0.073 7.34 12.27 11.25
3/27/2021 6:30:00 PM 10.31 50.558 0.073 7.34 11.87 11.22
3/27/2021 6:45:00 PM 10.27 50.486 0.073 7.33 11.66 11.19
3/27/2021 7:00:00 PM 10.24 50.432 0.073 7.32 11.25 11.14
3/27/2021 7:15:00 PM 10.2 50.36 0.073 7.3 11.45 11.09
3/27/2021 7:30:00 PM 10.14 50.252 0.073 7.29 11.75 11.04
3/27/2021 7:45:00 PM 10.09 50.162 0.073 7.28 11.5 11
3/27/2021 8:00:00 PM 10.05 50.09 0.072 7.26 11.95 10.96
3/27/2021 8:15:00 PM 10 50 0.073 7.23 11.77 10.93
3/27/2021 8:30:00 PM 9.95 49.91 0.073 7.24 11.86 10.9
3/27/2021 8:45:00 PM 9.89 49.802 0.074 7.23 12.55 10.89
3/27/2021 9:00:00 PM 9.82 49.676 0.074 7.22 14.07 10.87
3/27/2021 9:15:00 PM 9.74 49.532 0.074 7.21 12.56 10.86
3/27/2021 9:30:00 PM 9.66 49.388 0.074 7.21 12.04 10.85
3/27/2021 9:45:00 PM 9.58 49.244 0.074 7.2 12.1 10.85
3/27/2021 10:00:00 PM 9.49 49.082 0.074 7.17 12.17 10.85
3/27/2021 10:15:00 PM 9.4 48.92 0.074 7.16 12.31 10.85
3/27/2021 10:30:00 PM 9.31 48.758 0.074 7.19 12.4 10.86
3/27/2021 10:45:00 PM 9.22 48.596 0.074 7.18 12.08 10.87
3/27/2021 11:00:00 PM 9.12 48.416 0.074 7.18 16.18 10.88
3/27/2021 11:15:00 PM 9.03 48.254 0.074 7.16 12.12 10.89
3/27/2021 11:30:00 PM 8.94 48.092 0.074 7.16 15.04 10.91
3/27/2021 11:45:00 PM 8.84 47.912 0.075 7.16 14.48 10.92
3/28/2021 12:00:00 AM 8.76 47.768 0.074 7.15 11.78 10.93
3/28/2021 12:15:00 AM 8.67 47.606 0.074 7.15 12.18 10.95
3/28/2021 12:30:00 AM 8.59 47.462 0.074 7.15 11.8 10.96
3/28/2021 12:45:00 AM 8.5 47.3 0.075 7.15 11.19 10.98
3/28/2021 1:00:00 AM 8.43 47.174 0.075 7.14 11.7 11
3/28/2021 1:15:00 AM 8.36 47.048 0.075 7.15 11.43 11.01
3/28/2021 1:30:00 AM 8.29 46.922 0.076 7.14 11.27 11.03
3/28/2021 1:45:00 AM 8.23 46.814 0.075 7.14 11.57 11.04
3/28/2021 2:00:00 AM 8.17 46.706 0.075 7.14 11.15 11.06
3/28/2021 2:15:00 AM 8.11 46.598 0.078 7.14 10.95 11.07
3/28/2021 2:30:00 AM 8.06 46.508 0.074 7.09 11.05 11.08
3/28/2021 2:45:00 AM 8.01 46.418 0.075 7.14 10.98 11.09
3/28/2021 3:00:00 AM 7.96 46.328 0.075 7.13 11.06 11.11
3/28/2021 3:15:00 AM 7.91 46.238 0.074 7.14 12.48 11.12
3/28/2021 3:30:00 AM 7.87 46.166 0.075 7.14 11.73 11.13
3/28/2021 3:45:00 AM 7.82 46.076 0.076 7.14 11.4 11.14
3/28/2021 4:00:00 AM 7.77 45.986 0.075 7.14 11.52 11.15
3/28/2021 4:15:00 AM 7.73 45.914 0.075 7.14 11.42 11.16
3/28/2021 4:30:00 AM 7.68 45.824 0.076 7.14 11.73 11.17
3/28/2021 4:45:00 AM 7.65 45.77 0.076 7.14 12.08 11.18
3/28/2021 5:00:00 AM 7.61 45.698 0.076 7.13 12.31 11.2
3/28/2021 5:15:00 AM 7.58 45.644 0.076 7.14 11.68 11.2
3/28/2021 5:30:00 AM 7.56 45.608 0.077 7.14 11.57 11.21
3/28/2021 5:45:00 AM 7.54 45.572 0.076 7.14 12.18 11.21
3/28/2021 6:00:00 AM 7.53 45.554 0.076 7.14 12.25 11.21
3/28/2021 6:15:00 AM 7.53 45.554 0.078 7.14 12.41 11.22
3/28/2021 6:30:00 AM 7.53 45.554 0.074 7.13 11.62 11.21
3/28/2021 6:45:00 AM 7.52 45.536 0.076 7.14 12.4 11.22
3/28/2021 7:00:00 AM 7.52 45.536 0.076 7.14 11.64 11.22
3/28/2021 7:15:00 AM 7.53 45.554 0.076 7.14 11.17 11.22
3/28/2021 7:30:00 AM 7.53 45.554 0.075 7.15 12.39 11.23
3/28/2021 7:45:00 AM 7.53 45.554 0.077 7.15 11.37 11.25
3/28/2021 8:00:00 AM 7.54 45.572 0.074 7.15 10.93 11.25
3/28/2021 8:15:00 AM 7.54 45.572 0.076 7.15 12.21 11.25
3/28/2021 8:30:00 AM 7.55 45.59 0.077 7.15 11 11.27
3/28/2021 8:45:00 AM 7.56 45.608 0.077 7.14 11.45 11.27
3/28/2021 9:00:00 AM 7.57 45.626 0.075 7.15 11.46 11.27
3/28/2021 9:15:00 AM 7.59 45.662 0.077 7.15 11.41 11.3
3/28/2021 9:30:00 AM 7.61 45.698 0.077 7.11 12.14 11.32
3/28/2021 9:45:00 AM 7.63 45.734 0.076 7.17 11.74 11.35
3/28/2021 10:00:00 AM 7.66 45.788 0.075 7.16 11.74 11.37
3/28/2021 10:15:00 AM 7.68 45.824 0.077 7.14 12.55 11.39
3/28/2021 10:30:00 AM 7.7 45.86 0.075 7.14 12.4 11.41
3/28/2021 10:45:00 AM 7.74 45.932 0.076 7.18 12.75 11.42
3/28/2021 11:00:00 AM 7.78 46.004 0.075 7.21 14.73 11.45
3/28/2021 11:15:00 AM 7.82 46.076 0.078 7.2 12.85 11.46
3/28/2021 11:30:00 AM 7.86 46.148 0.076 7.22 13.75 11.48
3/28/2021 11:45:00 AM 7.89 46.202 0.075 7.16 17.02 11.49
3/28/2021 12:00:00 PM 7.93 46.274 0.076 7.23 15.4 11.5
3/28/2021 12:15:00 PM 7.96 46.328 0.076 7.23 13.72 11.5
3/28/2021 12:30:00 PM 8.03 46.454 0.076 7.24 12.28 11.51
3/28/2021 12:45:00 PM 8.09 46.562 0.076 7.26 13.1 11.52
3/28/2021 1:00:00 PM 8.13 46.634 0.079 7.25 12.29 11.5
3/28/2021 1:15:00 PM 8.19 46.742 0.078 7.24 12.17 11.51
3/28/2021 1:30:00 PM 8.22 46.796 0.076 7.22 17.52 11.5
3/28/2021 1:45:00 PM 8.28 46.904 0.076 7.26 16.99 11.5
3/28/2021 2:00:00 PM 8.35 47.03 0.074 7.28 15.11 11.51
3/28/2021 2:15:00 PM 8.41 47.138 0.076 7.27 13.29 11.5
3/28/2021 2:30:00 PM 8.48 47.264 0.075 7.28 13.08 11.5
3/28/2021 2:45:00 PM 8.55 47.39 0.077 7.28 13.76 11.5
3/28/2021 3:00:00 PM 8.61 47.498 0.075 7.28 15.01 11.48
3/28/2021 3:15:00 PM 8.67 47.606 0.076 7.3 14.09 11.46
3/28/2021 3:30:00 PM 8.73 47.714 0.075 7.31 14.33 11.46
3/28/2021 3:45:00 PM 8.77 47.786 0.074 7.3 12.81 11.44
3/28/2021 4:00:00 PM 8.8 47.84 0.074 7.3 13.21 11.42
3/28/2021 4:15:00 PM 8.83 47.894 0.076 7.29 13.07 11.39
3/28/2021 4:30:00 PM 8.84 47.912 0.076 7.24 13.41 11.34
3/28/2021 4:45:00 PM 8.88 47.984 0.078 7.3 77.3 11.28
3/28/2021 5:00:00 PM 8.89 48.002 0.076 7.25 17.72 11.26
3/28/2021 5:15:00 PM 8.91 48.038 0.077 7.27 15.16 11.23
3/28/2021 5:30:00 PM 8.91 48.038 0.077 7.27 19.03 11.2
3/28/2021 5:45:00 PM 8.91 48.038 0.078 7.26 31.24 11.18
3/28/2021 6:00:00 PM 8.9 48.02 0.077 7.26 24.46 11.16
3/28/2021 6:15:00 PM 8.9 48.02 0.079 7.26 20.54 11.13
3/28/2021 6:30:00 PM 8.88 47.984 0.082 7.26 20.19 11.09
3/28/2021 6:45:00 PM 8.86 47.948 0.082 7.26 17.99 11.08
3/28/2021 7:00:00 PM 8.82 47.876 0.083 7.25 17.39 11.08
3/28/2021 7:15:00 PM 8.78 47.804 0.082 7.24 17.28 11.06
3/28/2021 7:30:00 PM 8.73 47.714 0.083 7.24 20.05 11.03
3/28/2021 7:45:00 PM 8.68 47.624 0.084 7.23 19.41 11.03
3/28/2021 8:00:00 PM 8.63 47.534 0.083 7.19 19.22 11.02
3/28/2021 8:15:00 PM 8.58 47.444 0.084 7.18 19.82 11.02
3/28/2021 8:30:00 PM 8.52 47.336 0.083 7.19 23.26 11.01
3/28/2021 8:45:00 PM 8.46 47.228 0.085 7.19 26.82 11.01
3/28/2021 9:00:00 PM 8.41 47.138 0.084 7.21 21.58 11
3/28/2021 9:15:00 PM 8.35 47.03 0.085 7.21 32.43 11
3/28/2021 9:30:00 PM 8.3 46.94 0.084 7.21 27.13 11
3/28/2021 9:45:00 PM 8.24 46.832 0.085 7.2 24.9 11.01
3/28/2021 10:00:00 PM 8.19 46.742 0.083 7.2 27.19 11.01
3/28/2021 10:15:00 PM 8.14 46.652 0.084 7.18 27 11.02
3/28/2021 10:30:00 PM 8.08 46.544 0.085 7.15 27.06 11.03
3/28/2021 10:45:00 PM 8 46.4 0.085 7.17 29.47 11.04
3/28/2021 11:00:00 PM 7.92 46.256 0.083 7.16 26.54 11.06
3/28/2021 11:15:00 PM 7.85 46.13 0.085 7.16 30.19 11.07
3/28/2021 11:30:00 PM 7.79 46.022 0.084 7.16 31.73 11.08
3/28/2021 11:45:00 PM 7.71 45.878 0.083 7.16 26.76 11.1
3/29/2021 12:00:00 AM 7.64 45.752 0.083 7.16 36.56 11.12
3/29/2021 12:15:00 AM 7.56 45.608 0.083 7.16 27.7 11.14
3/29/2021 12:30:00 AM 7.46 45.428 0.083 7.15 30.11 11.15
3/29/2021 12:45:00 AM 7.37 45.266 0.084 7.15 27.19 11.17
3/29/2021 1:00:00 AM 7.27 45.086 0.084 7.13 28.51 11.19
3/29/2021 1:15:00 AM 7.18 44.924 0.083 7.14 25.99 11.21
3/29/2021 1:30:00 AM 7.1 44.78 0.083 7.14 21.99 11.23
3/29/2021 1:45:00 AM 7.04 44.672 0.082 7.14 21.14 11.25
3/29/2021 2:00:00 AM 6.98 44.564 0.083 7.13 21.14 11.27
3/29/2021 2:15:00 AM 6.92 44.456 0.084 7.12 20.78 11.29
3/29/2021 2:30:00 AM 6.84 44.312 0.085 7.13 23.41 11.31
3/29/2021 2:45:00 AM 6.78 44.204 0.084 7.12 19.19 11.33
3/29/2021 3:00:00 AM 6.71 44.078 0.084 7.14 22.54 11.35
3/29/2021 3:15:00 AM 6.65 43.97 0.085 7.14 21.35 11.37
3/29/2021 3:30:00 AM 6.58 43.844 0.083 7.13 19.26 11.39
3/29/2021 3:45:00 AM 6.51 43.718 0.084 7.13 18.78 11.42
3/29/2021 4:00:00 AM 6.45 43.61 0.084 7.12 18.63 11.43
3/29/2021 4:15:00 AM 6.38 43.484 0.083 7.11 17.86 11.45
3/29/2021 4:30:00 AM 6.33 43.394 0.084 7.12 17.61 11.48
3/29/2021 4:45:00 AM 6.28 43.304 0.084 7.13 18.3 11.49
3/29/2021 5:00:00 AM 6.22 43.196 0.083 7.12 19.19 11.52
3/29/2021 5:15:00 AM 6.17 43.106 0.083 7.11 19.06 11.52
3/29/2021 5:30:00 AM 6.11 42.998 0.083 7.11 18.28 11.54
3/29/2021 5:45:00 AM 6.05 42.89 0.083 7.09 18.58 11.57
3/29/2021 6:00:00 AM 5.99 42.782 0.082 7.12 18.84 11.58
3/29/2021 6:15:00 AM 5.94 42.692 0.083 7.11 18.27 11.61
3/29/2021 6:30:00 AM 5.88 42.584 0.083 7.12 17.46 11.63
3/29/2021 6:45:00 AM 5.83 42.494 0.082 7.12 19.5 11.65
3/29/2021 7:00:00 AM 5.78 42.404 0.083 7.12 26.39 11.67
3/29/2021 7:15:00 AM 5.73 42.314 0.082 7.08 32.88 11.7
3/29/2021 7:30:00 AM 5.68 42.224 0.082 7.09 24.09 11.72
3/29/2021 7:45:00 AM 5.64 42.152 0.082 7.12 24.71 11.75
3/29/2021 8:00:00 AM 5.6 42.08 0.082 7.12 21.44 11.78
3/29/2021 8:15:00 AM 5.55 41.99 0.083 7.13 23.8 11.81
3/29/2021 8:30:00 AM 5.51 41.918 0.082 7.13 21.9 11.84
3/29/2021 8:45:00 AM 5.48 41.864 0.082 7.14 20.21 11.89
3/29/2021 9:00:00 AM 5.45 41.81 0.082 7.15 20.17 11.94
3/29/2021 9:15:00 AM 5.42 41.756 0.082 7.15 21 11.98
3/29/2021 9:30:00 AM 5.42 41.756 0.082 7.15 21.14 12.03
3/29/2021 9:45:00 AM 5.4 41.72 0.082 7.15 20.68 12.07
3/29/2021 10:00:00 AM 5.39 41.702 0.083 7.15 21.4 12.12
3/29/2021 10:15:00 AM 5.39 41.702 0.081 7.17 29.98 12.16
3/29/2021 10:30:00 AM 5.39 41.702 0.083 7.18 20.47 12.19
3/29/2021 10:45:00 AM 5.4 41.72 0.082 7.19 20.55 12.23
3/29/2021 11:00:00 AM 5.42 41.756 0.081 7.19 19.54 12.27
3/29/2021 11:15:00 AM 5.44 41.792 0.081 7.2 20.49 12.3
3/29/2021 11:30:00 AM 5.48 41.864 0.082 7.19 19.02 12.32
3/29/2021 11:45:00 AM 5.55 41.99 0.081 7.2 20.29 12.35
3/29/2021 12:00:00 PM 5.78 42.404 0.081 7.21 19.54 12.36
3/29/2021 12:15:00 PM 6 42.8 0.081 7.22 18.86 12.37
3/29/2021 12:30:00 PM 6.15 43.07 0.081 7.22 19.11 12.36
3/29/2021 12:45:00 PM 6.4 43.52 0.082 7.22 19.13 12.35
3/29/2021 1:00:00 PM 6.52 43.736 0.081 7.23 19.37 12.34
3/29/2021 1:15:00 PM 6.72 44.096 0.08 7.24 18.85 12.33
3/29/2021 1:30:00 PM 6.9 44.42 0.079 7.24 19.92 12.32
3/29/2021 1:45:00 PM 7.09 44.762 0.078 7.25 18.35 12.3
3/29/2021 2:00:00 PM 7.3 45.14 0.08 7.25 18.15 12.27
3/29/2021 2:15:00 PM 7.51 45.518 0.081 7.25 18.28 12.24
3/29/2021 2:30:00 PM 7.7 45.86 0.078 7.26 18.4 12.2
3/29/2021 2:45:00 PM 7.87 46.166 0.082 7.27 18.65 12.16
3/29/2021 3:00:00 PM 8.02 46.436 0.079 7.27 18.9 12.12
3/29/2021 3:15:00 PM 8.16 46.688 0.08 7.29 19.59 12.09
3/29/2021 3:30:00 PM 8.26 46.868 0.08 7.27 19.03 12.05
3/29/2021 3:45:00 PM 8.32 46.976 0.081 7.29 19.25 12.02
3/29/2021 4:00:00 PM 8.35 47.03 0.08 7.28 19.93 11.99
3/29/2021 4:15:00 PM 8.35 47.03 0.077 7.28 19.67 11.97
3/29/2021 4:30:00 PM 8.36 47.048 0.08 7.29 18.17 11.93
3/29/2021 4:45:00 PM 8.36 47.048 0.079 7.29 19.12 11.91
3/29/2021 5:00:00 PM 8.35 47.03 0.078 7.26 21.49 11.89
3/29/2021 5:15:00 PM 8.32 46.976 0.08 7.29 21.44 11.86
3/29/2021 5:30:00 PM 8.3 46.94 0.08 7.26 19.57 11.83
3/29/2021 5:45:00 PM 8.27 46.886 0.079 7.26 22.01 11.81
3/29/2021 6:00:00 PM 8.24 46.832 0.079 7.26 20.49 11.78
3/29/2021 6:15:00 PM 8.21 46.778 0.079 7.24 19.32 11.75
3/29/2021 6:30:00 PM 8.18 46.724 0.079 7.27 19.56 11.71
3/29/2021 6:45:00 PM 8.14 46.652 0.08 7.26 20.69 11.68
3/29/2021 7:00:00 PM 8.1 46.58 0.078 7.24 18.97 11.64
3/29/2021 7:15:00 PM 8.07 46.526 0.081 7.24 20.24 11.59
3/29/2021 7:30:00 PM 8.02 46.436 0.08 7.21 19.77 11.56
3/29/2021 7:45:00 PM 7.97 46.346 0.08 7.16 26.19 11.52
3/29/2021 8:00:00 PM 7.9 46.22 0.081 7.2 15724.94 11.5
3/29/2021 8:15:00 PM 7.83 46.094 0.08 7.15 7.37 11.49
3/29/2021 8:30:00 PM 7.74 45.932 0.081 7.15 77.9 11.48
3/29/2021 8:45:00 PM 7.65 45.77 0.079 7.16 350.29 11.48
3/29/2021 9:00:00 PM 7.55 45.59 0.078 7.13 128.32 11.48
3/29/2021 9:15:00 PM 7.45 45.41 0.081 7.14 82.05 11.48
3/29/2021 9:30:00 PM 7.34 45.212 0.079 7.14 709.01 11.49
3/29/2021 9:45:00 PM 7.23 45.014 0.08 7.13 13066.55 11.5
3/29/2021 10:00:00 PM 7.12 44.816 0.08 7.1 16.51 11.5
3/29/2021 10:15:00 PM 7.02 44.636 0.079 7.13 53.38 11.51
3/29/2021 10:30:00 PM 6.92 44.456 0.078 7.09 27.82 11.52
3/29/2021 10:45:00 PM 6.82 44.276 0.078 7.09 14.19 11.54
3/29/2021 11:00:00 PM 6.72 44.096 0.078 7.11 14.89 11.56
3/29/2021 11:15:00 PM 6.63 43.934 0.08 7.11 13.65 11.58
3/29/2021 11:30:00 PM 6.53 43.754 0.081 7.13 15.08 11.6
3/29/2021 11:45:00 PM 6.43 43.574 0.081 7.1 13.62 11.62
3/30/2021 12:00:00 AM 6.33 43.394 0.077 7.12 324.59 11.63
3/30/2021 12:15:00 AM 6.23 43.214 0.079 7.1 16.75 11.66
3/30/2021 12:30:00 AM 6.14 43.052 0.079 7.09 13.22 11.7
3/30/2021 12:45:00 AM 6.03 42.854 0.079 7.09 13.8 11.72
3/30/2021 1:00:00 AM 5.93 42.674 0.081 7.09 13.75 11.74
3/30/2021 1:15:00 AM 5.83 42.494 0.081 7.09 13.11 11.77
3/30/2021 1:30:00 AM 5.74 42.332 0.081 7.04 14.19 11.79
3/30/2021 1:45:00 AM 5.64 42.152 0.081 7.07 14.24 11.82
3/30/2021 2:00:00 AM 5.55 41.99 0.081 7.07 13.92 11.86
3/30/2021 2:15:00 AM 5.46 41.828 0.081 7.04 757.45 11.88
3/30/2021 2:30:00 AM 5.37 41.666 0.081 7.07 13.64 11.91
3/30/2021 2:45:00 AM 5.28 41.504 0.079 7.09 13.89 11.94
3/30/2021 3:00:00 AM 5.2 41.36 0.08 7.08 14.46 11.96
3/30/2021 3:15:00 AM 5.12 41.216 0.081 7.05 210.01 11.98
3/30/2021 3:30:00 AM 5.04 41.072 0.08 7.07 15.54 12.01
3/30/2021 3:45:00 AM 4.96 40.928 0.081 7.07 15.66 12.03
3/30/2021 4:00:00 AM 4.89 40.802 0.076 7.09 40.92 12.06
3/30/2021 4:15:00 AM 4.81 40.658 0.08 7.06 781.14 12.08
3/30/2021 4:30:00 AM 4.74 40.532 0.08 7.08 277.8 12.11
3/30/2021 4:45:00 AM 4.67 40.406 0.081 7.07 139.02 12.13
3/30/2021 5:00:00 AM 4.6 40.28 0.083 7.08 271.37 12.15
3/30/2021 5:15:00 AM 4.53 40.154 0.082 7.07 13.98 12.17
3/30/2021 5:30:00 AM 4.47 40.046 0.08 7.09 14.55 12.2
3/30/2021 5:45:00 AM 4.41 39.938 0.079 7.05 14.58 12.21
3/30/2021 6:00:00 AM 4.34 39.812 0.081 7.06 14.82 12.23
3/30/2021 6:15:00 AM 4.28 39.704 0.082 7.04 15 12.25
3/30/2021 6:30:00 AM 4.22 39.596 0.082 7.05 15.18 12.28
3/30/2021 6:45:00 AM 4.16 39.488 0.081 7.07 15.09 12.3
3/30/2021 7:00:00 AM 4.11 39.398 0.082 7.05 13.9 12.33
3/30/2021 7:15:00 AM 4.06 39.308 0.08 7.06 14.17 12.36
3/30/2021 7:30:00 AM 4.02 39.236 0.081 7.05 15.1 12.39
3/30/2021 7:45:00 AM 3.98 39.164 0.077 7.08 5.63 12.42
3/30/2021 8:00:00 AM 3.95 39.11 0.081 7.07 13.85 12.48
3/30/2021 8:15:00 AM 3.94 39.092 0.076 7.06 76.56 12.52
3/30/2021 8:30:00 AM 3.94 39.092 0.067 7.05 598.35 12.56
3/30/2021 8:45:00 AM 3.96 39.128 0.079 7.11 14.07 12.6
3/30/2021 9:00:00 AM 3.98 39.164 0.082 7.09 15.62 12.63
3/30/2021 9:15:00 AM 4.03 39.254 0.081 7.11 14.33 12.67
3/30/2021 9:30:00 AM 4.11 39.398 0.08 7.11 15.83 12.7
3/30/2021 9:45:00 AM 4.2 39.56 0.078 7.1 6.15 12.73
3/30/2021 10:00:00 AM 4.32 39.776 0.079 7.14 6.61 12.74
3/30/2021 10:15:00 AM 4.46 40.028 0.082 7.14 16.65 12.76
3/30/2021 10:30:00 AM 4.63 40.334 0.081 7.14 16.54 12.77
3/30/2021 10:45:00 AM 4.82 40.676 0.081 7.15 17.42 12.77
3/30/2021 11:00:00 AM 5.03 41.054 0.082 7.16 15.95 12.76
3/30/2021 11:15:00 AM 5.26 41.468 0.081 7.16 15.18 12.75
3/30/2021 11:30:00 AM 5.5 41.9 0.08 7.17 14.97 12.73
3/30/2021 11:45:00 AM 5.76 42.368 0.081 7.14 15.31 12.7
3/30/2021 12:00:00 PM 6.04 42.872 0.08 7.15 16.14 12.68
3/30/2021 12:15:00 PM 6.31 43.358 0.081 7.19 16.39 12.64
3/30/2021 12:30:00 PM 6.58 43.844 0.079 7.17 5.38 12.61
3/30/2021 12:45:00 PM 6.86 44.348 0.08 7.2 16.54 12.57
3/30/2021 1:00:00 PM 7.13 44.834 0.079 7.2 5.97 12.53
3/30/2021 1:15:00 PM 7.39 45.302 0.081 7.23 5.13 12.48
3/30/2021 1:30:00 PM 7.65 45.77 0.082 7.22 4.76 12.43
3/30/2021 1:45:00 PM 7.9 46.22 0.078 7.24 15.72 12.37
3/30/2021 2:00:00 PM 8.15 46.67 0.08 7.23 15.38 12.32
3/30/2021 2:15:00 PM 8.39 47.102 0.081 7.26 15.86 12.25
3/30/2021 2:30:00 PM 8.61 47.498 0.082 7.24 5.15 12.2
3/30/2021 2:45:00 PM 8.81 47.858 0.081 7.24 5.85 12.14
3/30/2021 3:00:00 PM 8.98 48.164 0.08 7.24 16.97 12.08
3/30/2021 3:15:00 PM 9.14 48.452 0.08 7.27 5.47 12.02
3/30/2021 3:30:00 PM 9.26 48.668 0.079 7.26 4.56 11.97
3/30/2021 3:45:00 PM 9.36 48.848 0.08 7.28 17.02 11.92
3/30/2021 4:00:00 PM 9.43 48.974 0.079 7.28 16.68 11.87
3/30/2021 4:15:00 PM 9.5 49.1 0.081 7.27 5.02 11.82
3/30/2021 4:30:00 PM 9.55 49.19 0.081 7.29 5.78 11.77
3/30/2021 4:45:00 PM 9.61 49.298 0.08 7.29 4.87 11.72
3/30/2021 5:00:00 PM 9.66 49.388 0.08 7.29 5.21 11.66
3/30/2021 5:15:00 PM 9.71 49.478 0.08 7.3 16.02 11.61
3/30/2021 5:30:00 PM 9.72 49.496 0.079 7.23 11.8 11.55
3/30/2021 5:45:00 PM 9.76 49.568 0.081 7.28 13.99 11.51
3/30/2021 6:00:00 PM 9.78 49.604 0.08 7.29 15.51 11.47
3/30/2021 6:15:00 PM 9.79 49.622 0.078 7.27 15.61 11.42
3/30/2021 6:30:00 PM 9.79 49.622 0.077 7.29 12.51 11.38
3/30/2021 6:45:00 PM 9.78 49.604 0.081 7.28 14.67 11.32
3/30/2021 7:00:00 PM 9.74 49.532 0.079 7.27 15.8 11.27
3/30/2021 7:15:00 PM 9.7 49.46 0.078 7.24 15.49 11.21
3/30/2021 7:30:00 PM 9.67 49.406 0.079 7.23 5.11 11.16
3/30/2021 7:45:00 PM 9.63 49.334 0.081 7.22 15.15 11.11
3/30/2021 8:00:00 PM 9.59 49.262 0.08 7.19 16.24 11.07
3/30/2021 8:15:00 PM 9.53 49.154 0.081 7.2 15.43 11.04
3/30/2021 8:30:00 PM 9.48 49.064 0.082 7.22 15.99 11.02
3/30/2021 8:45:00 PM 9.41 48.938 0.08 7.2 15.04 10.99
3/30/2021 9:00:00 PM 9.33 48.794 0.078 7.18 15.86 10.99
3/30/2021 9:15:00 PM 9.25 48.65 0.082 7.17 5.55 10.98
3/30/2021 9:30:00 PM 9.16 48.488 0.081 7.16 6.46 10.98
3/30/2021 9:45:00 PM 9.07 48.326 0.08 7.18 15.95 10.98
3/30/2021 10:00:00 PM 8.99 48.182 0.08 7.16 6.33 10.99
3/30/2021 10:15:00 PM 8.89 48.002 0.082 7.15 16.94 10.99
3/30/2021 10:30:00 PM 8.81 47.858 0.078 7.16 16.77 11
3/30/2021 10:45:00 PM 8.72 47.696 0.08 7.16 16.65 11.01
3/30/2021 11:00:00 PM 8.64 47.552 0.081 7.09 7133.9 11.01
3/30/2021 11:15:00 PM 8.56 47.408 0.082 7.15 780.79 11.03
3/30/2021 11:30:00 PM 8.49 47.282 0.08 7.12 5.12 11.04
3/30/2021 11:45:00 PM 8.42 47.156 0.08 7.13 87.95 11.05
3/31/2021 12:00:00 AM 8.34 47.012 0.082 7.09 7.73 11.06
3/31/2021 12:15:00 AM 8.27 46.886 0.082 7.11 9.61 11.08
3/31/2021 12:30:00 AM 8.2 46.76 0.079 7.13 9.87 11.09
3/31/2021 12:45:00 AM 8.13 46.634 0.08 7.13 12.03 11.1
3/31/2021 1:00:00 AM 8.05 46.49 0.081 7.12 12.33 11.12
3/31/2021 1:15:00 AM 7.98 46.364 0.081 7.13 15.94 11.13
3/31/2021 1:30:00 AM 7.9 46.22 0.082 7.09 296.93 11.15
3/31/2021 1:45:00 AM 7.84 46.112 0.081 7.1 2700.06 11.17
3/31/2021 2:00:00 AM 7.77 45.986 0.082 7.09 19.68 11.18
3/31/2021 2:15:00 AM 7.7 45.86 0.081 7.11 2112.79 11.2
3/31/2021 2:30:00 AM 7.64 45.752 0.082 7.1 3371.46 11.22
3/31/2021 2:45:00 AM 7.58 45.644 0.082 7.1 10.13 11.23
3/31/2021 3:00:00 AM 7.52 45.536 0.081 7.08 10.47 11.24
3/31/2021 3:15:00 AM 7.46 45.428 0.081 7.08 7.08 11.25
3/31/2021 3:30:00 AM 7.41 45.338 0.081 7.09 6.42 11.27
3/31/2021 3:45:00 AM 7.36 45.248 0.08 7.08 6.25 11.29
3/31/2021 4:00:00 AM 7.31 45.158 0.082 7.08 6.27 11.3
3/31/2021 4:15:00 AM 7.26 45.068 0.083 7.05 6.31 11.32
3/31/2021 4:30:00 AM 7.21 44.978 0.083 7.08 6.47 11.32
3/31/2021 4:45:00 AM 7.17 44.906 0.081 7.07 6.29 11.34
3/31/2021 5:00:00 AM 7.14 44.852 0.08 7.06 6.33 11.35
3/31/2021 5:15:00 AM 7.1 44.78 0.081 7.08 6.14 11.36
3/31/2021 5:30:00 AM 7.07 44.726 0.082 7.09 6.15 11.36
3/31/2021 5:45:00 AM 7.05 44.69 0.082 7.09 6.68 11.37
3/31/2021 6:00:00 AM 7.02 44.636 0.082 7.09 6.23 11.38
3/31/2021 6:15:00 AM 6.99 44.582 0.083 7.1 6.59 11.39
3/31/2021 6:30:00 AM 6.97 44.546 0.084 7.12 15.68 11.39
3/31/2021 6:45:00 AM 6.95 44.51 0.083 7.09 6.5 11.4
3/31/2021 7:00:00 AM 6.93 44.474 0.082 7.08 6.94 11.41
3/31/2021 7:15:00 AM 6.92 44.456 0.083 7.07 6.73 11.43
3/31/2021 7:30:00 AM 6.91 44.438 0.082 7.06 6.83 11.45
3/31/2021 7:45:00 AM 6.91 44.438 0.082 7.12 22.51 11.48
3/31/2021 8:00:00 AM 6.92 44.456 0.083 7.12 33.34 11.52
3/31/2021 8:15:00 AM 6.93 44.474 0.083 7.14 328.42 11.56
3/31/2021 8:30:00 AM 6.95 44.51 0.082 7.12 6.62 11.61
3/31/2021 8:45:00 AM 6.98 44.564 0.083 7.16 7.41 11.64
3/31/2021 9:00:00 AM 7.01 44.618 0.083 7.18 9.28 11.68
3/31/2021 9:15:00 AM 7.04 44.672 0.083 7.14 10.07 11.72
3/31/2021 9:30:00 AM 7.07 44.726 0.083 7.15 6.33 11.75
3/31/2021 9:45:00 AM 7.11 44.798 0.082 7.17 8.32 11.78
3/31/2021 10:00:00 AM 7.15 44.87 0.081 7.17 8.08 11.8
3/31/2021 10:15:00 AM 7.21 44.978 0.082 7.16 6.93 11.82
3/31/2021 10:30:00 AM 7.27 45.086 0.082 7.2 6.39 11.85
3/31/2021 10:45:00 AM 7.32 45.176 0.082 7.22 6.19 11.87
3/31/2021 11:00:00 AM 7.38 45.284 0.082 7.23 5.97 11.88
3/31/2021 11:15:00 AM 7.44 45.392 0.084 7.24 6.27 11.89
3/31/2021 11:30:00 AM 7.5 45.5 0.082 7.23 6.09 11.89
3/31/2021 11:45:00 AM 7.54 45.572 0.083 7.24 6.65 11.9
3/31/2021 12:00:00 PM 7.58 45.644 0.083 7.23 6.74 11.89
3/31/2021 12:15:00 PM 7.61 45.698 0.082 7.24 7.5 11.88
3/31/2021 12:30:00 PM 7.65 45.77 0.082 7.25 6.39 11.88
3/31/2021 12:45:00 PM 7.69 45.842 0.082 7.25 6.38 11.88
3/31/2021 1:00:00 PM 7.74 45.932 0.082 7.24 6.12 11.88
3/31/2021 1:15:00 PM 7.8 46.04 0.082 7.26 6.34 11.88
3/31/2021 1:30:00 PM 7.84 46.112 0.082 7.24 6.12 11.87
3/31/2021 1:45:00 PM 7.9 46.22 0.082 7.26 5.89 11.87
3/31/2021 2:00:00 PM 7.93 46.274 0.082 7.25 5.98 11.85
3/31/2021 2:15:00 PM 7.96 46.328 0.082 7.26 5.98 11.84
3/31/2021 2:30:00 PM 7.99 46.382 0.082 7.25 5.83 11.82
3/31/2021 2:45:00 PM 8.02 46.436 0.082 7.25 5.86 11.79
3/31/2021 3:00:00 PM 8.04 46.472 0.082 7.24 6.01 11.77
3/31/2021 3:15:00 PM 8.07 46.526 0.082 7.2 5.91 11.74
3/31/2021 3:30:00 PM 8.09 46.562 0.081 7.23 5.77 11.7
3/31/2021 3:45:00 PM 8.12 46.616 0.083 7.22 5.82 11.67
3/31/2021 4:00:00 PM 8.16 46.688 0.082 7.23 5.65 11.67
3/31/2021 4:15:00 PM 8.18 46.724 0.079 7.23 5.6 11.64
3/31/2021 4:30:00 PM 8.2 46.76 0.081 7.21 5.47 11.62
3/31/2021 4:45:00 PM 8.23 46.814 0.082 7.24 6.04 11.61
3/31/2021 5:00:00 PM 8.24 46.832 0.082 7.24 5.58 11.56
3/31/2021 5:15:00 PM 8.24 46.832 0.082 7.22 5.75 11.52
3/31/2021 5:30:00 PM 8.26 46.868 0.082 7.21 5.59 11.5
3/31/2021 5:45:00 PM 8.26 46.868 0.08 7.21 5.45 11.47
3/31/2021 6:00:00 PM 8.26 46.868 0.082 7.2 5.53 11.43
3/31/2021 6:15:00 PM 8.27 46.886 0.082 7.2 5.45 11.4
3/31/2021 6:30:00 PM 8.27 46.886 0.082 7.19 5.52 11.37
3/31/2021 6:45:00 PM 8.27 46.886 0.079 7.19 5.62 11.33
3/31/2021 7:00:00 PM 8.27 46.886 0.077 7.19 9.98 11.3
3/31/2021 7:15:00 PM 8.25 46.85 0.083 7.18 6.83 11.28
3/31/2021 7:30:00 PM 8.22 46.796 0.081 7.18 6.13 11.27
3/31/2021 7:45:00 PM 8.19 46.742 0.081 7.18 5.78 11.24
3/31/2021 8:00:00 PM 8.16 46.688 0.081 7.18 5.87 11.22
3/31/2021 8:15:00 PM 8.13 46.634 0.078 7.18 6.17 11.21
3/31/2021 8:30:00 PM 8.1 46.58 0.079 7.17 6.27 11.19
3/31/2021 8:45:00 PM 8.08 46.544 0.081 7.16 6.52 11.19
3/31/2021 9:00:00 PM 8.05 46.49 0.08 7.15 6.65 11.18
3/31/2021 9:15:00 PM 8.02 46.436 0.08 7.15 6.73 11.17
3/31/2021 9:30:00 PM 7.98 46.364 0.083 7.14 7.06 11.17
3/31/2021 9:45:00 PM 7.94 46.292 0.082 7.1 6.44 11.17
3/31/2021 10:00:00 PM 7.91 46.238 0.081 7.12 6.72 11.17
3/31/2021 10:15:00 PM 7.87 46.166 0.08 7.11 6.62 11.17
3/31/2021 10:30:00 PM 7.83 46.094 0.085 7.12 6.41 11.17
3/31/2021 10:45:00 PM 7.79 46.022 0.085 7.13 6.53 11.18
3/31/2021 11:00:00 PM 7.75 45.95 0.081 7.1 6.83 11.18
3/31/2021 11:15:00 PM 7.71 45.878 0.082 7.09 6.47 11.18
3/31/2021 11:30:00 PM 7.68 45.824 0.086 7.13 6.6 11.19
3/31/2021 11:45:00 PM 7.64 45.752 0.084 7.12 7 11.2
4/1/2021 12:00:00 AM 7.6 45.68 0.08 7.11 7.26 11.2
4/1/2021 12:15:00 AM 7.56 45.608 0.082 7.12 7.08 11.21
4/1/2021 12:30:00 AM 7.52 45.536 0.083 7.14 10.65 11.22
4/1/2021 12:45:00 AM 7.47 45.446 0.082 7.13 10.5 11.23
4/1/2021 1:00:00 AM 7.43 45.374 0.08 7.13 17.28 11.23
4/1/2021 1:15:00 AM 7.39 45.302 0.083 7.11 8.18 11.24
4/1/2021 1:30:00 AM 7.34 45.212 0.084 7.12 7.18 11.26
4/1/2021 1:45:00 AM 7.3 45.14 0.083 7.11 6.59 11.27
4/1/2021 2:00:00 AM 7.26 45.068 0.083 7.1 6.93 11.28
4/1/2021 2:15:00 AM 7.21 44.978 0.082 7.1 6.88 11.29
4/1/2021 2:30:00 AM 7.15 44.87 0.083 7.09 7.24 11.3
4/1/2021 2:45:00 AM 7.1 44.78 0.081 7.09 6.99 11.32
4/1/2021 3:00:00 AM 7.04 44.672 0.082 7.09 6.91 11.33
4/1/2021 3:15:00 AM 6.94 44.492 0.083 7.09 7.11 11.34
4/1/2021 3:30:00 AM 6.8 44.24 0.084 7.11 8.82 11.35
4/1/2021 3:45:00 AM 6.71 44.078 0.081 7.1 8.16 11.37
4/1/2021 4:00:00 AM 6.62 43.916 0.084 7.09 7.61 11.39
4/1/2021 4:15:00 AM 6.54 43.772 0.082 7.05 7.12 11.4
4/1/2021 4:30:00 AM 6.47 43.646 0.082 7.09 7.38 11.42
4/1/2021 4:45:00 AM 6.39 43.502 0.081 7.08 7.73 11.44
4/1/2021 5:00:00 AM 6.31 43.358 0.082 6.99 7.57 11.46
4/1/2021 5:15:00 AM 6.21 43.178 0.082 7.01 7.9 11.49
4/1/2021 5:30:00 AM 6.11 42.998 0.082 7.08 7.8 11.51
4/1/2021 5:45:00 AM 5.96 42.728 0.083 7.1 8.97 11.53
4/1/2021 6:00:00 AM 5.87 42.566 0.083 7.09 8.08 11.55
4/1/2021 6:15:00 AM 5.76 42.368 0.083 7.08 7.94 11.58
4/1/2021 6:30:00 AM 5.63 42.134 0.085 7.09 8.44 11.61
4/1/2021 6:45:00 AM 5.49 41.882 0.083 7.08 7.98 11.64
4/1/2021 7:00:00 AM 5.41 41.738 0.084 7.1 7.63 11.66
4/1/2021 7:15:00 AM 5.34 41.612 0.084 7.08 8.55 11.7
4/1/2021 7:30:00 AM 5.27 41.486 0.086 7.11 7.69 11.74
4/1/2021 7:45:00 AM 5.25 41.45 0.089 7.11 7.52 11.79
4/1/2021 8:00:00 AM 5.24 41.432 0.089 7.12 7.07 11.85
4/1/2021 8:15:00 AM 5.19 41.342 0.088 7.12 7.22 11.91
4/1/2021 8:30:00 AM 5.15 41.27 0.087 7.14 7.28 11.98
4/1/2021 8:45:00 AM 5.11 41.198 0.087 7.14 7.05 12.04
4/1/2021 9:00:00 AM 5.09 41.162 0.087 7.14 6.92 12.09
4/1/2021 9:15:00 AM 5.08 41.144 0.089 7.14 7.24 12.14
4/1/2021 9:30:00 AM 5.05 41.09 0.089 7.14 6.9 12.19
4/1/2021 9:45:00 AM 5.04 41.072 0.089 7.14 7.62 12.25
4/1/2021 10:00:00 AM 5.04 41.072 0.089 7.16 7.31 12.29
4/1/2021 10:15:00 AM 5.1 41.18 0.087 7.2 6.93 12.33
4/1/2021 10:30:00 AM 5.17 41.306 0.088 7.2 8.83 12.37
4/1/2021 10:45:00 AM 5.27 41.486 0.087 7.2 6.99 12.41
4/1/2021 11:00:00 AM 5.34 41.612 0.087 7.22 6.99 12.43
4/1/2021 11:15:00 AM 5.48 41.864 0.087 7.21 6.78 12.45
4/1/2021 11:30:00 AM 5.48 41.864 0.088 7.22 6.74 12.46
4/1/2021 11:45:00 AM 5.62 42.116 0.088 7.24 6.84 12.47
4/1/2021 12:00:00 PM 5.74 42.332 0.087 7.24 7.19 12.47
4/1/2021 12:15:00 PM 5.93 42.674 0.088 7.23 15.48 12.48
4/1/2021 12:30:00 PM 6.13 43.034 0.087 7.24 7.79 12.48
4/1/2021 12:45:00 PM 6.35 43.43 0.087 7.26 7.84 12.46
4/1/2021 1:00:00 PM 6.53 43.754 0.089 7.26 7.63 12.43
4/1/2021 1:15:00 PM 6.62 43.916 0.088 7.25 7.93 12.41
4/1/2021 1:30:00 PM 6.65 43.97 0.089 7.28 7.48 12.39
4/1/2021 1:45:00 PM 6.79 44.222 0.089 7.27 7.12 12.37
4/1/2021 2:00:00 PM 6.87 44.366 0.091 7.28 7.23 12.35
4/1/2021 2:15:00 PM 7.05 44.69 0.091 7.3 7.68 12.32
4/1/2021 2:30:00 PM 7.09 44.762 0.091 7.29 7.52 12.3
4/1/2021 2:45:00 PM 7.15 44.87 0.092 7.31 7.52 12.28
4/1/2021 3:00:00 PM 7.25 45.05 0.09 7.3 7.2 12.26
4/1/2021 3:15:00 PM 7.31 45.158 0.093 7.28 7.36 12.23
4/1/2021 3:30:00 PM 7.31 45.158 0.092 7.3 7.02 12.2
4/1/2021 3:45:00 PM 7.41 45.338 0.093 7.27 7.06 12.17
4/1/2021 4:00:00 PM 7.46 45.428 0.092 7.3 6.96 12.15
4/1/2021 4:15:00 PM 7.48 45.464 0.094 7.3 6.95 12.11
4/1/2021 4:30:00 PM 7.55 45.59 0.095 7.29 7.11 12.08
4/1/2021 4:45:00 PM 7.44 45.392 0.096 7.28 8.17 12.03
4/1/2021 5:00:00 PM 7.52 45.536 0.094 7.3 6.96 12.01
4/1/2021 5:15:00 PM 7.54 45.572 0.095 7.31 7.47 11.99
4/1/2021 5:30:00 PM 7.56 45.608 0.095 7.27 7.19 11.98
4/1/2021 5:45:00 PM 7.51 45.518 0.094 7.31 7.14 11.94
4/1/2021 6:00:00 PM 7.44 45.392 0.094 7.3 6.97 11.92
4/1/2021 6:15:00 PM 7.37 45.266 0.095 7.3 6.98 11.9
4/1/2021 6:30:00 PM 7.31 45.158 0.094 7.26 7.07 11.89
4/1/2021 6:45:00 PM 7.26 45.068 0.097 7.28 7.24 11.88
4/1/2021 7:00:00 PM 7.18 44.924 0.096 7.28 8 11.86
4/1/2021 7:15:00 PM 7.1 44.78 0.095 7.24 7.73 11.84
4/1/2021 7:30:00 PM 6.99 44.582 0.095 7.25 7.27 11.82
4/1/2021 7:45:00 PM 6.9 44.42 0.095 7.24 7.31 11.79
4/1/2021 8:00:00 PM 6.8 44.24 0.095 7.23 7.51 11.78
4/1/2021 8:15:00 PM 6.7 44.06 0.095 7.23 7.53 11.77
4/1/2021 8:30:00 PM 6.59 43.862 0.095 7.23 7.77 11.78
4/1/2021 8:45:00 PM 6.47 43.646 0.095 7.22 7.6 11.78
4/1/2021 9:00:00 PM 6.34 43.412 0.095 7.21 7.51 11.79
4/1/2021 9:15:00 PM 6.22 43.196 0.095 7.2 7.8 11.81
4/1/2021 9:30:00 PM 6.09 42.962 0.093 7.2 7.61 11.81
4/1/2021 9:45:00 PM 5.98 42.764 0.094 7.19 10.21 11.83
4/1/2021 10:00:00 PM 5.88 42.584 0.093 7.19 7.64 11.84
4/1/2021 10:15:00 PM 5.77 42.386 0.093 7.32 9.74 11.85
4/1/2021 10:30:00 PM 5.67 42.206 0.096 7.46 10.73 11.87
4/1/2021 10:45:00 PM 5.57 42.026 0.094 7.2 15.71 11.81
4/1/2021 11:00:00 PM 5.45 41.81 0.093 7.17 11.69 11.91
4/1/2021 11:15:00 PM 5.35 41.63 0.092 7.18 9.25 11.93
4/1/2021 11:30:00 PM 5.25 41.45 0.091 7.18 10.22 11.95
4/1/2021 11:45:00 PM 5.14 41.252 0.092 7.18 12.95 11.98
4/2/2021 12:00:00 AM 5.02 41.036 0.092 7.18 9.26 12
4/2/2021 12:15:00 AM 4.92 40.856 0.092 7.16 9.31 12.03
4/2/2021 12:30:00 AM 4.82 40.676 0.091 7.08 9.1 12.05
4/2/2021 12:45:00 AM 4.72 40.496 0.091 7.15 9.53 12.08
4/2/2021 1:00:00 AM 4.63 40.334 0.091 7.16 8.92 12.11
4/2/2021 1:15:00 AM 4.54 40.172 0.091 7.15 8.95 12.13
4/2/2021 1:30:00 AM 4.43 39.974 0.091 7.14 9.36 12.16
4/2/2021 1:45:00 AM 4.31 39.758 0.092 7.15 9.08 12.19
4/2/2021 2:00:00 AM 4.2 39.56 0.091 7.09 10.23 12.22
4/2/2021 2:15:00 AM 4.09 39.362 0.09 7.14 9.6 12.25
4/2/2021 2:30:00 AM 4.01 39.218 0.09 7.13 8.63 12.28
4/2/2021 2:45:00 AM 3.91 39.038 0.09 7.08 8.65 12.31
4/2/2021 3:00:00 AM 3.81 38.858 0.09 7.13 9.02 12.34
4/2/2021 3:15:00 AM 3.72 38.696 0.089 7.13 8.19 12.37
4/2/2021 3:30:00 AM 3.63 38.534 0.089 7.14 8.23 12.4
4/2/2021 3:45:00 AM 3.55 38.39 0.09 7.13 8.17 12.43
4/2/2021 4:00:00 AM 3.47 38.246 0.089 7.06 8 12.45
4/2/2021 4:15:00 AM 3.41 38.138 0.09 7.06 7.97 12.48
4/2/2021 4:30:00 AM 3.34 38.012 0.09 7.12 7.98 12.51
4/2/2021 4:45:00 AM 3.28 37.904 0.09 7.14 7.66 12.53
4/2/2021 5:00:00 AM 3.23 37.814 0.09 7.14 7.76 12.55
4/2/2021 5:15:00 AM 3.17 37.706 0.089 7.14 8.34 12.57
4/2/2021 5:30:00 AM 3.11 37.598 0.09 7.14 7.84 12.59
4/2/2021 5:45:00 AM 3.05 37.49 0.09 7.09 7.82 12.61
4/2/2021 6:00:00 AM 3 37.4 0.089 7.14 8.07 12.64
4/2/2021 6:15:00 AM 2.95 37.31 0.09 7.14 8.07 12.66
4/2/2021 6:30:00 AM 2.9 37.22 0.089 7.12 7.92 12.68
4/2/2021 6:45:00 AM 2.85 37.13 0.089 7.1 8.11 12.7
4/2/2021 7:00:00 AM 2.8 37.04 0.089 7.14 8.08 12.72
4/2/2021 7:15:00 AM 2.75 36.95 0.089 7.1 7.84 12.77
4/2/2021 7:30:00 AM 2.71 36.878 0.089 7.15 7.79 12.81
4/2/2021 7:45:00 AM 2.68 36.824 0.09 7.15 8.6 12.87
4/2/2021 8:00:00 AM 2.66 36.788 0.089 7.16 8.13 12.92
4/2/2021 8:15:00 AM 2.63 36.734 0.088 7.1 7.77 12.97
4/2/2021 8:30:00 AM 2.64 36.752 0.088 7.13 8.04 13.02
4/2/2021 8:45:00 AM 2.62 36.716 0.088 7.17 7.88 13.05
4/2/2021 9:00:00 AM 2.58 36.644 0.088 7.19 7.43 13.1
4/2/2021 9:15:00 AM 2.56 36.608 0.088 7.2 8.07 13.13
4/2/2021 9:30:00 AM 2.54 36.572 0.087 7.18 7.77 13.17
4/2/2021 9:45:00 AM 2.54 36.572 0.089 7.21 7.85 13.21
4/2/2021 10:00:00 AM 2.64 36.752 0.089 7.15 8.12 13.24
4/2/2021 10:15:00 AM 2.75 36.95 0.088 7.16 8.56 13.26
4/2/2021 10:30:00 AM 2.9 37.22 0.088 7.16 8.42 13.27
4/2/2021 10:45:00 AM 3.05 37.49 0.088 7.23 8.42 13.28
4/2/2021 11:00:00 AM 3.1 37.58 0.086 7.23 8.41 13.28
4/2/2021 11:15:00 AM 3.24 37.832 0.087 7.25 8.24 13.28
4/2/2021 11:30:00 AM 3.37 38.066 0.088 7.24 8.02 13.28
4/2/2021 11:45:00 AM 3.57 38.426 0.085 7.24 7.4 13.27
4/2/2021 12:00:00 PM 3.79 38.822 0.085 7.24 7.23 13.25
4/2/2021 12:15:00 PM 3.99 39.182 0.089 7.25 7.56 13.23
4/2/2021 12:30:00 PM 4.21 39.578 0.086 7.25 7.26 13.21
4/2/2021 12:45:00 PM 4.4 39.92 0.087 7.25 7.51 13.18
4/2/2021 1:00:00 PM 4.61 40.298 0.087 7.23 7.39 13.15
4/2/2021 1:15:00 PM 4.85 40.73 0.086 7.22 7.28 13.12
4/2/2021 1:30:00 PM 5.07 41.126 0.088 7.26 7.45 13.08
4/2/2021 1:45:00 PM 5.27 41.486 0.086 7.26 7.3 13.04
4/2/2021 2:00:00 PM 5.44 41.792 0.086 7.27 7.04 13
4/2/2021 2:15:00 PM 5.59 42.062 0.087 7.27 7.21 12.96
4/2/2021 2:30:00 PM 5.74 42.332 0.086 7.23 7.14 12.92
4/2/2021 2:45:00 PM 5.85 42.53 0.086 7.27 7.01 12.88
4/2/2021 3:00:00 PM 5.97 42.746 0.086 7.29 7.14 12.83
4/2/2021 3:15:00 PM 6.06 42.908 0.086 7.24 7.1 12.8
4/2/2021 3:30:00 PM 6.14 43.052 0.087 7.31 6.84 12.76
4/2/2021 3:45:00 PM 6.19 43.142 0.087 7.25 7.15 12.71
4/2/2021 4:00:00 PM 6.24 43.232 0.086 7.28 6.94 12.67
4/2/2021 4:15:00 PM 6.26 43.268 0.086 7.29 7.13 12.62
4/2/2021 4:30:00 PM 6.28 43.304 0.087 7.3 7.04 12.59
4/2/2021 4:45:00 PM 6.27 43.286 0.087 7.29 6.82 12.55
4/2/2021 5:00:00 PM 6.28 43.304 0.086 7.29 7.18 12.52
4/2/2021 5:15:00 PM 6.26 43.268 0.087 7.29 7.35 12.48
4/2/2021 5:30:00 PM 6.23 43.214 0.087 7.3 7.09 12.45
4/2/2021 5:45:00 PM 6.2 43.16 0.086 7.28 7.47 12.43
4/2/2021 6:00:00 PM 6.15 43.07 0.086 7.29 7.52 12.39
4/2/2021 6:15:00 PM 6.09 42.962 0.086 7.29 7.22 12.37
4/2/2021 6:30:00 PM 6.01 42.818 0.086 7.28 7.16 12.35
4/2/2021 6:45:00 PM 5.91 42.638 0.086 7.26 7.26 12.33
4/2/2021 7:00:00 PM 5.83 42.494 0.086 7.27 7.56 12.29
4/2/2021 7:15:00 PM 5.73 42.314 0.086 7.26 7.8 12.27
4/2/2021 7:30:00 PM 5.66 42.188 0.087 7.27 7.49 12.24
4/2/2021 7:45:00 PM 5.59 42.062 0.086 7.24 7.56 12.21
4/2/2021 8:00:00 PM 5.51 41.918 0.085 7.25 7.48 12.19
4/2/2021 8:15:00 PM 5.43 41.774 0.086 7.22 7.91 12.18
4/2/2021 8:30:00 PM 5.35 41.63 0.084 7.2 7.72 12.17
4/2/2021 8:45:00 PM 5.27 41.486 0.085 7.2 7.63 12.17
4/2/2021 9:00:00 PM 5.18 41.324 0.085 7.19 7.86 12.18
4/2/2021 9:15:00 PM 5.08 41.144 0.086 7.19 7.55 12.19
4/2/2021 9:30:00 PM 4.97 40.946 0.085 7.18 8.03 12.2
4/2/2021 9:45:00 PM 4.84 40.712 0.086 7.17 13.13 12.22
4/2/2021 10:00:00 PM 4.73 40.514 0.086 7.17 8.52 12.23
4/2/2021 10:15:00 PM 4.61 40.298 0.087 7.15 8.42 12.25
4/2/2021 10:30:00 PM 4.5 40.1 0.087 7.14 8.69 12.27
4/2/2021 10:45:00 PM 4.39 39.902 0.087 7.15 8.38 12.29
4/2/2021 11:00:00 PM 4.29 39.722 0.087 7.15 8.23 12.31
4/2/2021 11:15:00 PM 4.19 39.542 0.085 7.15 8.03 12.33
4/2/2021 11:30:00 PM 4.1 39.38 0.089 7.14 8.19 12.35
4/2/2021 11:45:00 PM 4.01 39.218 0.086 7.1 8.58 12.38
4/3/2021 12:00:00 AM 3.91 39.038 0.088 7.14 8.18 12.4
4/3/2021 12:15:00 AM 3.82 38.876 0.087 7.13 8.08 12.43
4/3/2021 12:30:00 AM 3.72 38.696 0.086 7.08 7.97 12.46
4/3/2021 12:45:00 AM 3.62 38.516 0.087 7.16 8.11 12.48
4/3/2021 1:00:00 AM 3.53 38.354 0.086 7.15 8.03 12.51
4/3/2021 1:15:00 AM 3.43 38.174 0.086 7.13 7.78 12.54
4/3/2021 1:30:00 AM 3.33 37.994 0.086 7.16 7.9 12.57
4/3/2021 1:45:00 AM 3.24 37.832 0.087 7.15 7.7 12.6
4/3/2021 2:00:00 AM 3.15 37.67 0.087 7.12 7.84 12.63
4/3/2021 2:15:00 AM 3.05 37.49 0.088 7.11 8.05 12.66
4/3/2021 2:30:00 AM 2.97 37.346 0.086 7.11 11.56 12.69
4/3/2021 2:45:00 AM 2.88 37.184 0.087 7.11 7.8 12.72
4/3/2021 3:00:00 AM 2.79 37.022 0.087 7.07 7.55 12.75
4/3/2021 3:15:00 AM 2.71 36.878 0.088 7.1 7.74 12.78
4/3/2021 3:30:00 AM 2.62 36.716 0.087 7.1 7.87 12.81
4/3/2021 3:45:00 AM 2.55 36.59 0.087 7.12 7.8 12.84
4/3/2021 4:00:00 AM 2.47 36.446 0.087 7.11 7.73 12.85
4/3/2021 4:15:00 AM 2.4 36.32 0.087 7.09 7.56 12.89
4/3/2021 4:30:00 AM 2.33 36.194 0.087 7.1 7.83 12.91
4/3/2021 4:45:00 AM 2.27 36.086 0.088 7.11 7.51 12.93
4/3/2021 5:00:00 AM 2.2 35.96 0.087 7.11 7.7 12.96
4/3/2021 5:15:00 AM 2.13 35.834 0.088 7.1 7.7 12.98
4/3/2021 5:30:00 AM 2.07 35.726 0.087 7.1 7.44 13.01
4/3/2021 5:45:00 AM 2 35.6 0.086 7.09 7.82 13.03
4/3/2021 6:00:00 AM 1.94 35.492 0.088 7.11 7.74 13.05
4/3/2021 6:15:00 AM 1.88 35.384 0.088 7.11 7.65 13.07
4/3/2021 6:30:00 AM 1.82 35.276 0.087 7.09 7.62 13.1
4/3/2021 6:45:00 AM 1.76 35.168 0.087 7.08 7.99 13.12
4/3/2021 7:00:00 AM 1.71 35.078 0.086 7.05 7.89 13.16
4/3/2021 7:15:00 AM 1.65 34.97 0.085 7.1 7.38 13.2
4/3/2021 7:30:00 AM 1.61 34.898 0.087 7.09 7.31 13.24
4/3/2021 7:45:00 AM 1.57 34.826 0.088 7.1 7.26 13.29
4/3/2021 8:00:00 AM 1.55 34.79 0.088 7.12 7.59 13.34
4/3/2021 8:15:00 AM 1.54 34.772 0.089 7.11 8 13.39
4/3/2021 8:30:00 AM 1.54 34.772 0.088 7.15 7.56 13.43
4/3/2021 8:45:00 AM 1.55 34.79 0.087 7.14 7.68 13.47
4/3/2021 9:00:00 AM 1.59 34.862 0.086 7.15 7.82 13.51
4/3/2021 9:15:00 AM 1.65 34.97 0.086 7.14 7.72 13.54
4/3/2021 9:30:00 AM 1.72 35.096 0.086 7.15 8.93 13.56
4/3/2021 9:45:00 AM 1.82 35.276 0.085 7.15 7.68 13.59
4/3/2021 10:00:00 AM 1.93 35.474 0.086 7.17 7.77 13.61
4/3/2021 10:15:00 AM 2.06 35.708 0.087 7.17 7.42 13.62
4/3/2021 10:30:00 AM 2.23 36.014 0.087 7.18 7.43 13.62
4/3/2021 10:45:00 AM 2.42 36.356 0.086 7.2 7.58 13.62
4/3/2021 11:00:00 AM 2.63 36.734 0.086 7.18 7.42 13.61
4/3/2021 11:15:00 AM 2.86 37.148 0.086 7.2 7.27 13.59
4/3/2021 11:30:00 AM 3.1 37.58 0.087 7.22 7.63 13.56
4/3/2021 11:45:00 AM 3.36 38.048 0.086 7.2 7.87 13.53
4/3/2021 12:00:00 PM 3.64 38.552 0.086 7.17 7.68 13.5
4/3/2021 12:15:00 PM 3.92 39.056 0.087 7.16 7.5 13.46
4/3/2021 12:30:00 PM 4.2 39.56 0.087 7.16 7.43 13.41
4/3/2021 12:45:00 PM 4.47 40.046 0.085 7.2 7.4 13.36
4/3/2021 1:00:00 PM 4.73 40.514 0.087 7.21 7.5 13.32
4/3/2021 1:15:00 PM 4.99 40.982 0.088 7.21 7.86 13.28
4/3/2021 1:30:00 PM 5.25 41.45 0.086 7.22 7.62 13.23
4/3/2021 1:45:00 PM 5.49 41.882 0.087 7.23 7.67 13.17
4/3/2021 2:00:00 PM 5.73 42.314 0.082 7.24 7.94 13.12
4/3/2021 2:15:00 PM 5.95 42.71 0.082 7.24 6.79 13.06
4/3/2021 2:30:00 PM 6.16 43.088 0.087 7.25 6.91 13
4/3/2021 2:45:00 PM 6.35 43.43 0.083 7.25 6.79 12.95
4/3/2021 3:00:00 PM 6.52 43.736 0.084 7.25 6.71 12.89
4/3/2021 3:15:00 PM 6.67 44.006 0.083 7.26 6.96 12.83
4/3/2021 3:30:00 PM 6.73 44.114 0.087 7.27 6.91 12.78
4/3/2021 3:45:00 PM 6.75 44.15 0.087 7.27 6.57 12.73
4/3/2021 4:00:00 PM 6.76 44.168 0.081 7.27 6.6 12.7
4/3/2021 4:15:00 PM 6.74 44.132 0.083 7.28 6.64 12.65
4/3/2021 4:30:00 PM 6.74 44.132 0.084 7.28 6.69 12.61
4/3/2021 4:45:00 PM 6.74 44.132 0.085 7.28 6.61 12.57
4/3/2021 5:00:00 PM 6.81 44.258 0.087 7.29 6.71 12.53
4/3/2021 5:15:00 PM 6.84 44.312 0.087 7.29 6.83 12.48
4/3/2021 5:30:00 PM 6.86 44.348 0.087 7.28 7.11 12.43
4/3/2021 5:45:00 PM 6.91 44.438 0.085 7.3 6.58 12.39
4/3/2021 6:00:00 PM 6.94 44.492 0.085 7.3 6.73 12.34
4/3/2021 6:15:00 PM 6.99 44.582 0.086 7.31 6.93 12.31
4/3/2021 6:30:00 PM 7.03 44.654 0.085 7.31 6.95 12.28
4/3/2021 6:45:00 PM 7.04 44.672 0.084 7.3 6.94 12.24
4/3/2021 7:00:00 PM 7.04 44.672 0.086 7.3 7.12 12.19
4/3/2021 7:15:00 PM 7 44.6 0.085 7.29 7.5 12.13
4/3/2021 7:30:00 PM 6.95 44.51 0.085 7.27 7.48 12.07
4/3/2021 7:45:00 PM 6.88 44.384 0.085 7.26 7.63 12.02
4/3/2021 8:00:00 PM 6.81 44.258 0.086 7.25 7.82 11.96
4/3/2021 8:15:00 PM 6.75 44.15 0.086 7.24 8.06 11.92
4/3/2021 8:30:00 PM 6.68 44.024 0.085 7.23 8.14 11.9
4/3/2021 8:45:00 PM 6.61 43.898 0.086 7.22 7.88 11.88
4/3/2021 9:00:00 PM 6.54 43.772 0.081 7.21 7.71 11.86
4/3/2021 9:15:00 PM 6.48 43.664 0.085 7.18 9.11 11.85
4/3/2021 9:30:00 PM 6.4 43.52 0.085 7.2 8.58 11.84
4/3/2021 9:45:00 PM 6.33 43.394 0.084 7.19 8.25 11.84
4/3/2021 10:00:00 PM 6.25 43.25 0.085 7.22 7.72 11.84
4/3/2021 10:15:00 PM 6.17 43.106 0.085 7.18 8.34 11.85
4/3/2021 10:30:00 PM 6.09 42.962 0.085 7.17 7.71 11.85
4/3/2021 10:45:00 PM 6.01 42.818 0.083 7.16 7.6 11.85
4/3/2021 11:00:00 PM 5.93 42.674 0.084 7.16 7.91 11.86
4/3/2021 11:15:00 PM 5.86 42.548 0.086 7.16 7.35 11.88
4/3/2021 11:30:00 PM 5.79 42.422 0.084 7.15 7.23 11.89
4/3/2021 11:45:00 PM 5.73 42.314 0.085 7.15 7.26 11.91
4/4/2021 12:00:00 AM 5.66 42.188 0.084 7.14 7.26 11.92
4/4/2021 12:15:00 AM 5.6 42.08 0.086 7.14 7.38 11.93
4/4/2021 12:30:00 AM 5.54 41.972 0.086 7.14 7.13 11.94
4/4/2021 12:45:00 AM 5.48 41.864 0.086 7.14 7.74 11.96
4/4/2021 1:00:00 AM 5.42 41.756 0.086 7.16 7.18 11.96
4/4/2021 1:15:00 AM 5.36 41.648 0.084 7.14 7.19 11.98
4/4/2021 1:30:00 AM 5.3 41.54 0.085 7.14 7.53 11.99
4/4/2021 1:45:00 AM 5.24 41.432 0.086 7.16 8.54 12
4/4/2021 2:00:00 AM 5.18 41.324 0.086 7.14 8.15 12.02
4/4/2021 2:15:00 AM 5.13 41.234 0.086 7.13 8.32 12.04
4/4/2021 2:30:00 AM 5.09 41.162 0.086 7.13 7.92 12.05
4/4/2021 2:45:00 AM 5.04 41.072 0.085 7.13 7.8 12.06
4/4/2021 3:00:00 AM 5 41 0.086 7.13 7.92 12.07
4/4/2021 3:15:00 AM 4.96 40.928 0.087 7.13 7.9 12.08
4/4/2021 3:30:00 AM 4.91 40.838 0.086 7.12 7.78 12.08
4/4/2021 3:45:00 AM 4.88 40.784 0.087 7.14 7.8 12.1
4/4/2021 4:00:00 AM 4.84 40.712 0.086 7.12 7.7 12.11
4/4/2021 4:15:00 AM 4.8 40.64 0.084 7.12 7.85 12.12
4/4/2021 4:30:00 AM 4.77 40.586 0.086 7.12 7.88 12.13
4/4/2021 4:45:00 AM 4.73 40.514 0.086 7.12 7.9 12.13
4/4/2021 5:00:00 AM 4.7 40.46 0.086 7.12 7.74 12.14
4/4/2021 5:15:00 AM 4.67 40.406 0.086 7.12 7.85 12.15
4/4/2021 5:30:00 AM 4.63 40.334 0.087 7.14 7.66 12.16
4/4/2021 5:45:00 AM 4.6 40.28 0.085 7.1 7.65 12.16
4/4/2021 6:00:00 AM 4.58 40.244 0.088 7.08 7.5 12.17
4/4/2021 6:15:00 AM 4.54 40.172 0.085 7.08 7.6 12.18
4/4/2021 6:30:00 AM 4.52 40.136 0.087 7.09 7.68 12.19
4/4/2021 6:45:00 AM 4.49 40.082 0.086 7.09 7.55 12.19
4/4/2021 7:00:00 AM 4.47 40.046 0.086 7.1 7.48 12.21
4/4/2021 7:15:00 AM 4.45 40.01 0.086 7.11 7.8 12.25
4/4/2021 7:30:00 AM 4.45 40.01 0.086 7.1 7.74 12.29
4/4/2021 7:45:00 AM 4.44 39.992 0.086 7.14 7.51 12.35
4/4/2021 8:00:00 AM 4.44 39.992 0.086 7.13 7.75 12.4
4/4/2021 8:15:00 AM 4.44 39.992 0.086 7.15 7.64 12.44
4/4/2021 8:30:00 AM 4.45 40.01 0.083 7.16 7.52 12.48
4/4/2021 8:45:00 AM 4.46 40.028 0.086 7.18 7.73 12.52
4/4/2021 9:00:00 AM 4.5 40.1 0.086 7.19 7.88 12.54
4/4/2021 9:15:00 AM 4.55 40.19 0.086 7.18 7.68 12.58
4/4/2021 9:30:00 AM 4.62 40.316 0.085 7.19 7.83 12.6
4/4/2021 9:45:00 AM 4.7 40.46 0.085 7.2 7.56 12.63
4/4/2021 10:00:00 AM 4.82 40.676 0.084 7.21 7.58 12.65
4/4/2021 10:15:00 AM 4.95 40.91 0.086 7.22 7.42 12.67
4/4/2021 10:30:00 AM 5.1 41.18 0.085 7.22 7.43 12.68
4/4/2021 10:45:00 AM 5.27 41.486 0.085 7.22 7.64 12.69
4/4/2021 11:00:00 AM 5.47 41.846 0.084 7.24 7.45 12.68
4/4/2021 11:15:00 AM 5.69 42.242 0.085 7.24 7.29 12.67
4/4/2021 11:30:00 AM 5.92 42.656 0.084 7.25 7.11 12.66
4/4/2021 11:45:00 AM 6.16 43.088 0.086 7.22 7.41 12.63
4/4/2021 12:00:00 PM 6.42 43.556 0.084 7.25 7.44 12.62
4/4/2021 12:15:00 PM 6.68 44.024 0.084 7.28 7.25 12.58
4/4/2021 12:30:00 PM 6.95 44.51 0.084 7.27 7.13 12.55
4/4/2021 12:45:00 PM 7.21 44.978 0.084 7.28 6.83 12.51
4/4/2021 1:00:00 PM 7.46 45.428 0.086 7.29 7.18 12.47
4/4/2021 1:15:00 PM 7.71 45.878 0.087 7.25 7.1 12.43
4/4/2021 1:30:00 PM 7.94 46.292 0.083 7.29 6.97 12.39
4/4/2021 1:45:00 PM 8.18 46.724 0.082 7.3 7.02 12.35
4/4/2021 2:00:00 PM 8.33 46.994 0.084 7.3 7.01 12.3
4/4/2021 2:15:00 PM 8.48 47.264 0.09 7.32 8.78 12.25
4/4/2021 2:30:00 PM 8.68 47.624 0.081 7.31 7.07 12.22
4/4/2021 2:45:00 PM 8.86 47.948 0.083 7.33 7.12 12.17
4/4/2021 3:00:00 PM 9.02 48.236 0.083 7.34 7.38 12.12
4/4/2021 3:15:00 PM 9.17 48.506 0.083 7.35 6.89 12.07
4/4/2021 3:30:00 PM 9.32 48.776 0.083 7.36 7.03 12.02
4/4/2021 3:45:00 PM 9.44 48.992 0.084 7.37 6.91 11.97
4/4/2021 4:00:00 PM 9.45 49.01 0.085 7.38 7.12 11.92
4/4/2021 4:15:00 PM 9.49 49.082 0.083 7.37 7.07 11.89
4/4/2021 4:30:00 PM 9.5 49.1 0.083 7.37 7.02 11.86
4/4/2021 4:45:00 PM 9.53 49.154 0.082 7.33 7.59 11.83
4/4/2021 5:00:00 PM 9.57 49.226 0.086 7.36 7.14 11.79
4/4/2021 5:15:00 PM 9.59 49.262 0.083 7.36 7.37 11.75
4/4/2021 5:30:00 PM 9.62 49.316 0.081 7.37 7.11 11.71
4/4/2021 5:45:00 PM 9.59 49.262 0.082 7.36 7.26 11.67
4/4/2021 6:00:00 PM 9.56 49.208 0.089 7.35 7.31 11.62
4/4/2021 6:15:00 PM 9.53 49.154 0.083 7.35 7.54 11.58
4/4/2021 6:30:00 PM 9.49 49.082 0.086 7.34 7.42 11.53
4/4/2021 6:45:00 PM 9.46 49.028 0.084 7.34 7.47 11.47
4/4/2021 7:00:00 PM 9.41 48.938 0.081 7.32 7.68 11.41
4/4/2021 7:15:00 PM 9.35 48.83 0.083 7.28 7.55 11.35
4/4/2021 7:30:00 PM 9.29 48.722 0.082 7.29 7.79 11.29
4/4/2021 7:45:00 PM 9.24 48.632 0.083 7.25 7.6 11.24
4/4/2021 8:00:00 PM 9.18 48.524 0.083 7.29 7.79 11.19
4/4/2021 8:15:00 PM 9.11 48.398 0.082 7.26 8.09 11.15
4/4/2021 8:30:00 PM 9.04 48.272 0.082 7.24 8.16 11.12
4/4/2021 8:45:00 PM 8.97 48.146 0.084 7.21 9.94 11.09
4/4/2021 9:00:00 PM 8.89 48.002 0.085 7.22 10.72 11.07
4/4/2021 9:15:00 PM 8.82 47.876 0.084 7.22 721.58 11.07
4/4/2021 9:30:00 PM 8.73 47.714 0.081 7.19 13.04 11.08
4/4/2021 9:45:00 PM 8.63 47.534 0.082 7.2 15.62 11.08
4/4/2021 10:00:00 PM 8.52 47.336 0.083 7.2 9.9 11.08
4/4/2021 10:15:00 PM 8.41 47.138 0.086 7.18 11.49 11.08
4/4/2021 10:30:00 PM 8.29 46.922 0.084 7.2 1452.54 11.01
4/4/2021 10:45:00 PM 8.16 46.688 0.085 7.17 19.66 11.11
4/4/2021 11:00:00 PM 8.04 46.472 0.085 7.17 14.99 11.13
4/4/2021 11:15:00 PM 7.92 46.256 0.082 7.16 17.64 11.15
4/4/2021 11:30:00 PM 7.8 46.04 0.077 7.16 297.15 11.16
4/4/2021 11:45:00 PM 7.69 45.842 0.059 7.18 15.68 11.04
4/5/2021 12:00:00 AM 7.57 45.626 0.052 7.17 17.86 10.92
4/5/2021 12:15:00 AM 7.45 45.41 0.085 7.16 24.85 11.22
4/5/2021 12:30:00 AM 7.34 45.212 0.087 7.16 13.23 11.25
4/5/2021 12:45:00 AM 7.24 45.032 0.087 7.16 13.83 11.28
4/5/2021 1:00:00 AM 7.13 44.834 0.085 7.16 11.5 11.3
4/5/2021 1:15:00 AM 7.02 44.636 0.086 7.17 13.49 11.33
4/5/2021 1:30:00 AM 6.91 44.438 0.087 7.15 8.1 11.35
4/5/2021 1:45:00 AM 6.8 44.24 0.088 7.13 6.94 11.38
4/5/2021 2:00:00 AM 6.69 44.042 0.086 7.14 9.86 11.4
4/5/2021 2:15:00 AM 6.58 43.844 0.087 7.14 14.78 11.43
4/5/2021 2:30:00 AM 6.47 43.646 0.086 7.1 8.33 11.45
4/5/2021 2:45:00 AM 6.37 43.466 0.086 7.13 9.39 11.49
4/5/2021 3:00:00 AM 6.26 43.268 0.087 7.12 8.54 11.52
4/5/2021 3:15:00 AM 6.16 43.088 0.087 7.12 9.99 11.54
4/5/2021 3:30:00 AM 6.05 42.89 0.083 7.07 9.83 11.56
4/5/2021 3:45:00 AM 5.95 42.71 0.087 7.12 8.37 11.61
4/5/2021 4:00:00 AM 5.85 42.53 0.086 7.12 8.73 11.63
4/5/2021 4:15:00 AM 5.75 42.35 0.084 7.11 8.17 11.66
4/5/2021 4:30:00 AM 5.65 42.17 0.086 7.13 8.1 11.69
4/5/2021 4:45:00 AM 5.56 42.008 0.087 7.12 7.78 11.71
4/5/2021 5:00:00 AM 5.47 41.846 0.087 7.12 7.38 11.74
4/5/2021 5:15:00 AM 5.38 41.684 0.087 7.09 7.59 11.77
4/5/2021 5:30:00 AM 5.29 41.522 0.083 7.11 8.16 11.8
4/5/2021 5:45:00 AM 5.2 41.36 0.086 7.11 7.89 11.82
4/5/2021 6:00:00 AM 5.12 41.216 0.087 7.13 7.77 11.85
4/5/2021 6:15:00 AM 5.04 41.072 0.086 7.14 7.59 11.88
4/5/2021 6:30:00 AM 4.96 40.928 0.085 7.12 7.7 11.91
4/5/2021 6:45:00 AM 4.89 40.802 0.088 7.14 8.05 11.94
4/5/2021 7:00:00 AM 4.82 40.676 0.087 7.13 8.26 11.98
4/5/2021 7:15:00 AM 4.75 40.55 0.087 7.13 8.37 12.02
4/5/2021 7:30:00 AM 4.69 40.442 0.087 7.15 8.1 12.08
4/5/2021 7:45:00 AM 4.64 40.352 0.087 7.13 8.42 12.14
4/5/2021 8:00:00 AM 4.6 40.28 0.087 7.15 7.89 12.2
4/5/2021 8:15:00 AM 4.58 40.244 0.087 7.17 7.98 12.26
4/5/2021 8:30:00 AM 4.57 40.226 0.087 7.17 8.16 12.32
4/5/2021 8:45:00 AM 4.57 40.226 0.087 7.16 11.14 12.37
4/5/2021 9:00:00 AM 4.6 40.28 0.086 7.17 8.67 12.41
4/5/2021 9:15:00 AM 4.65 40.37 0.086 7.16 8.47 12.46
4/5/2021 9:30:00 AM 4.72 40.496 0.085 7.2 8.13 12.5
4/5/2021 9:45:00 AM 4.81 40.658 0.088 7.21 8.13 12.53
4/5/2021 10:00:00 AM 4.91 40.838 0.087 7.22 8.17 12.56
4/5/2021 10:15:00 AM 5.04 41.072 0.086 7.21 7.57 12.59
4/5/2021 10:30:00 AM 5.2 41.36 0.086 7.24 8.05 12.61
4/5/2021 10:45:00 AM 5.39 41.702 0.085 7.24 8.07 12.61
4/5/2021 11:00:00 AM 5.6 42.08 0.086 7.25 8.25 12.61
4/5/2021 11:15:00 AM 5.83 42.494 0.087 7.26 7.59 12.61
4/5/2021 11:30:00 AM 6.06 42.908 0.084 7.27 8.02 12.6
4/5/2021 11:45:00 AM 6.32 43.376 0.084 7.27 7.77 12.57
4/5/2021 12:00:00 PM 6.6 43.88 0.085 7.27 8.14 12.56
4/5/2021 12:15:00 PM 6.88 44.384 0.086 7.28 8.24 12.53
4/5/2021 12:30:00 PM 7.16 44.888 0.082 7.29 8.19 12.5
4/5/2021 12:45:00 PM 7.42 45.356 0.087 7.3 10.53 12.47
4/5/2021 1:00:00 PM 7.68 45.824 0.085 7.3 8.61 12.43
4/5/2021 1:15:00 PM 7.92 46.256 0.085 7.31 8.29 12.39
4/5/2021 1:30:00 PM 8.18 46.724 0.084 7.31 8.28 12.34
4/5/2021 1:45:00 PM 8.42 47.156 0.084 7.32 7.94 12.3
4/5/2021 2:00:00 PM 8.64 47.552 0.085 7.32 7.62 12.25
4/5/2021 2:15:00 PM 8.85 47.93 0.087 7.33 7.99 12.2
4/5/2021 2:30:00 PM 9.04 48.272 0.086 7.34 8.02 12.16
4/5/2021 2:45:00 PM 9.21 48.578 0.084 7.35 7.19 12.11
4/5/2021 3:00:00 PM 9.37 48.866 0.083 7.35 5.89 12.06
4/5/2021 3:15:00 PM 9.5 49.1 0.09 7.36 5.94 12.01
4/5/2021 3:30:00 PM 9.59 49.262 0.083 7.36 5.85 11.97
4/5/2021 3:45:00 PM 9.68 49.424 0.082 7.36 5.73 11.93
4/5/2021 4:00:00 PM 9.73 49.514 0.086 7.37 6.12 11.88
4/5/2021 4:15:00 PM 9.74 49.532 0.087 7.38 5.28 11.85
4/5/2021 4:30:00 PM 9.74 49.532 0.083 7.37 5.56 11.81
4/5/2021 4:45:00 PM 9.72 49.496 0.085 7.37 7.17 11.78
4/5/2021 5:00:00 PM 9.71 49.478 0.083 7.36 16.15 11.74
4/5/2021 5:15:00 PM 9.69 49.442 0.083 7.37 6.26 11.69
4/5/2021 5:30:00 PM 9.66 49.388 0.084 7.37 5.75 11.67
4/5/2021 5:45:00 PM 9.61 49.298 0.086 7.37 6.03 11.64
4/5/2021 6:00:00 PM 9.58 49.244 0.084 7.37 5.97 11.59
4/5/2021 6:15:00 PM 9.53 49.154 0.086 7.37 5.78 11.56
4/5/2021 6:30:00 PM 9.5 49.1 0.085 7.33 5.93 11.52
4/5/2021 6:45:00 PM 9.46 49.028 0.084 7.32 6.89 11.47
4/5/2021 7:00:00 PM 9.43 48.974 0.083 7.33 5.73 11.42
4/5/2021 7:15:00 PM 9.39 48.902 0.083 7.33 6.12 11.36
4/5/2021 7:30:00 PM 9.35 48.83 0.084 7.31 6.35 11.29
4/5/2021 7:45:00 PM 9.31 48.758 0.083 7.3 6.75 11.22
4/5/2021 8:00:00 PM 9.27 48.686 0.083 7.27 7.44 11.16
4/5/2021 8:15:00 PM 9.22 48.596 0.084 7.28 7.17 11.12
4/5/2021 8:30:00 PM 9.18 48.524 0.084 7.27 6.13 11.08
4/5/2021 8:45:00 PM 9.13 48.434 0.08 7.25 5.7 11.05
4/5/2021 9:00:00 PM 9.07 48.326 0.085 7.24 5.96 11.03
4/5/2021 9:15:00 PM 9.01 48.218 0.085 7.23 6.36 11.02
4/5/2021 9:30:00 PM 8.94 48.092 0.088 7.23 6.65 11.01
4/5/2021 9:45:00 PM 8.85 47.93 0.086 7.22 6.2 11
4/5/2021 10:00:00 PM 8.76 47.768 0.083 7.22 6.52 11
4/5/2021 10:15:00 PM 8.66 47.588 0.086 7.2 6.06 10.99
4/5/2021 10:30:00 PM 8.56 47.408 0.083 7.19 6.71 11
4/5/2021 10:45:00 PM 8.45 47.21 0.083 7.19 6.06 11.01
4/5/2021 11:00:00 PM 8.33 46.994 0.085 7.18 6.66 11.03
4/5/2021 11:15:00 PM 8.2 46.76 0.086 7.16 5.8 11.04
4/5/2021 11:30:00 PM 8.09 46.562 0.086 7.17 6.6 11.05
4/5/2021 11:45:00 PM 7.97 46.346 0.086 7.17 5.92 11.08
4/6/2021 12:00:00 AM 7.84 46.112 0.087 7.16 6.15 11.1
4/6/2021 12:15:00 AM 7.73 45.914 0.086 7.17 6.39 11.12
4/6/2021 12:30:00 AM 7.61 45.698 0.089 7.16 6.56 11.15
4/6/2021 12:45:00 AM 7.51 45.518 0.087 7.16 6.74 11.17
4/6/2021 1:00:00 AM 7.39 45.302 0.085 7.14 6.01 11.19
4/6/2021 1:15:00 AM 7.28 45.104 0.086 7.15 6.07 11.21
4/6/2021 1:30:00 AM 7.17 44.906 0.088 7.11 6.02 11.24
4/6/2021 1:45:00 AM 7.06 44.708 0.087 7.13 6.04 11.26
4/6/2021 2:00:00 AM 6.95 44.51 0.087 7.14 5.94 11.28
4/6/2021 2:15:00 AM 6.84 44.312 0.087 7.14 7.06 11.31
4/6/2021 2:30:00 AM 6.73 44.114 0.085 7.11 6.01 11.34
4/6/2021 2:45:00 AM 6.62 43.916 0.083 7.13 6.02 11.37
4/6/2021 3:00:00 AM 6.51 43.718 0.085 7.13 5.88 11.39
4/6/2021 3:15:00 AM 6.4 43.52 0.084 7.12 6.21 11.41
4/6/2021 3:30:00 AM 6.29 43.322 0.086 7.11 5.75 11.46
4/6/2021 3:45:00 AM 6.18 43.124 0.083 7.12 5.96 11.47
4/6/2021 4:00:00 AM 6.08 42.944 0.088 7.12 5.84 11.5
4/6/2021 4:15:00 AM 5.98 42.764 0.085 7.13 5.89 11.54
4/6/2021 4:30:00 AM 5.88 42.584 0.086 7.13 5.92 11.56
4/6/2021 4:45:00 AM 5.78 42.404 0.087 7.13 5.76 11.59
4/6/2021 5:00:00 AM 5.68 42.224 0.088 7.13 5.56 11.62
4/6/2021 5:15:00 AM 5.59 42.062 0.088 7.11 6.14 11.65
4/6/2021 5:30:00 AM 5.49 41.882 0.087 7.11 5.78 11.67
4/6/2021 5:45:00 AM 5.4 41.72 0.086 7.13 5.75 11.7
4/6/2021 6:00:00 AM 5.31 41.558 0.088 7.13 5.89 11.73
4/6/2021 6:15:00 AM 5.23 41.414 0.088 7.13 5.71 11.76
4/6/2021 6:30:00 AM 5.14 41.252 0.088 7.08 5.75 11.79
4/6/2021 6:45:00 AM 5.06 41.108 0.087 7.12 6.32 11.83
4/6/2021 7:00:00 AM 4.98 40.964 0.086 7.13 7.48 11.87
4/6/2021 7:15:00 AM 4.91 40.838 0.088 7.13 6.57 11.92
4/6/2021 7:30:00 AM 4.85 40.73 0.089 7.14 6.04 11.97
4/6/2021 7:45:00 AM 4.79 40.622 0.088 7.14 6 12.04
4/6/2021 8:00:00 AM 4.75 40.55 0.088 7.16 6.04 12.1
4/6/2021 8:15:00 AM 4.72 40.496 0.087 7.15 5.74 12.17
4/6/2021 8:30:00 AM 4.71 40.478 0.087 7.16 5.79 12.22
4/6/2021 8:45:00 AM 4.71 40.478 0.086 7.16 5.71 12.28
4/6/2021 9:00:00 AM 4.73 40.514 0.087 7.18 5.48 12.33
4/6/2021 9:15:00 AM 4.78 40.604 0.087 7.19 5.3 12.38
4/6/2021 9:30:00 AM 4.85 40.73 0.087 7.2 5.59 12.42
4/6/2021 9:45:00 AM 4.94 40.892 0.087 7.21 5.36 12.45
4/6/2021 10:00:00 AM 5.03 41.054 0.088 7.22 5.83 12.49
4/6/2021 10:15:00 AM 5.16 41.288 0.086 7.22 6.58 12.52
4/6/2021 10:30:00 AM 5.31 41.558 0.088 7.21 6.56 12.54
4/6/2021 10:45:00 AM 5.5 41.9 0.088 7.24 6.33 12.55
4/6/2021 11:00:00 AM 5.73 42.314 0.084 7.24 6.26 12.56
4/6/2021 11:15:00 AM 5.97 42.746 0.088 7.26 6.08 12.55
4/6/2021 11:30:00 AM 6.22 43.196 0.088 7.27 6.12 12.55
4/6/2021 11:45:00 AM 6.5 43.7 0.087 7.27 6.62 12.53
4/6/2021 12:00:00 PM 6.79 44.222 0.085 7.28 5.37 12.5
4/6/2021 12:15:00 PM 7.09 44.762 0.085 7.28 5.43 12.48
4/6/2021 12:30:00 PM 7.38 45.284 0.087 7.29 5.44 12.45
4/6/2021 12:45:00 PM 7.67 45.806 0.087 7.3 6.05 12.41
4/6/2021 1:00:00 PM 7.95 46.31 0.087 7.28 5.99 12.37
4/6/2021 1:15:00 PM 8.19 46.742 0.086 7.31 5.71 12.33
4/6/2021 1:30:00 PM 8.45 47.21 0.084 7.32 5.72 12.3
4/6/2021 1:45:00 PM 8.64 47.552 0.083 7.33 5.69 12.25
4/6/2021 2:00:00 PM 8.77 47.786 0.087 7.33 5.38 12.21
4/6/2021 2:15:00 PM 8.98 48.164 0.087 7.34 5.73 12.17
4/6/2021 2:30:00 PM 9.14 48.452 0.086 7.34 6.45 12.13
4/6/2021 2:45:00 PM 9.22 48.596 0.084 7.35 6.28 12.09
4/6/2021 3:00:00 PM 9.37 48.866 0.085 7.36 8.17 12.05
4/6/2021 3:15:00 PM 9.48 49.064 0.085 7.37 5.93 12.01
4/6/2021 3:30:00 PM 9.56 49.208 0.087 7.37 6.55 11.98
4/6/2021 3:45:00 PM 9.68 49.424 0.086 7.37 6.41 11.94
4/6/2021 4:00:00 PM 9.78 49.604 0.087 7.37 6.03 11.89
4/6/2021 4:15:00 PM 9.83 49.694 0.087 7.38 5.6 11.85
4/6/2021 4:30:00 PM 9.86 49.748 0.085 7.38 5.52 11.81
4/6/2021 4:45:00 PM 9.87 49.766 0.084 7.38 5.34 11.78
4/6/2021 5:00:00 PM 9.86 49.748 0.089 7.38 5.27 11.75
4/6/2021 5:15:00 PM 9.83 49.694 0.085 7.36 5.4 11.71
4/6/2021 5:30:00 PM 9.8 49.64 0.084 7.39 5.39 11.68
4/6/2021 5:45:00 PM 9.78 49.604 0.088 7.38 5.43 11.64
4/6/2021 6:00:00 PM 9.75 49.55 0.085 7.38 5.57 11.6
4/6/2021 6:15:00 PM 9.71 49.478 0.083 7.34 5.39 11.56
4/6/2021 6:30:00 PM 9.67 49.406 0.085 7.36 5.33 11.51
4/6/2021 6:45:00 PM 9.61 49.298 0.086 7.36 5.4 11.44
4/6/2021 7:00:00 PM 9.56 49.208 0.085 7.33 5.36 11.38
4/6/2021 7:15:00 PM 9.52 49.136 0.085 7.34 5.87 11.31
4/6/2021 7:30:00 PM 9.48 49.064 0.084 7.32 5.4 11.24
4/6/2021 7:45:00 PM 9.45 49.01 0.081 7.3 5.5 11.17
4/6/2021 8:00:00 PM 9.43 48.974 0.083 7.28 5.8 11.11
4/6/2021 8:15:00 PM 9.41 48.938 0.085 7.27 5.75 11.05
4/6/2021 8:30:00 PM 9.39 48.902 0.086 7.26 5.77 11
4/6/2021 8:45:00 PM 9.37 48.866 0.084 7.25 5.66 10.96
4/6/2021 9:00:00 PM 9.34 48.812 0.088 7.24 5.62 10.93
4/6/2021 9:15:00 PM 9.31 48.758 0.083 7.23 5.96 10.9
4/6/2021 9:30:00 PM 9.27 48.686 0.083 7.22 6.32 10.89
4/6/2021 9:45:00 PM 9.23 48.614 0.081 7.21 7.33 10.87
4/6/2021 10:00:00 PM 9.18 48.524 0.085 7.2 7.12 10.86
4/6/2021 10:15:00 PM 9.12 48.416 0.087 7.16 6.83 10.86
4/6/2021 10:30:00 PM 9.05 48.29 0.084 7.18 6.13 10.85
4/6/2021 10:45:00 PM 8.98 48.164 0.086 7.18 6.34 10.85
4/6/2021 11:00:00 PM 8.91 48.038 0.088 7.14 6.46 10.86
4/6/2021 11:15:00 PM 8.83 47.894 0.087 7.16 6.68 10.86
4/6/2021 11:30:00 PM 8.75 47.75 0.087 7.16 6.71 10.87
4/6/2021 11:45:00 PM 8.67 47.606 0.087 7.16 6.79 10.89
4/7/2021 12:00:00 AM 8.58 47.444 0.081 7.15 6.65 10.9
4/7/2021 12:15:00 AM 8.5 47.3 0.081 7.14 6.42 10.91
4/7/2021 12:30:00 AM 8.42 47.156 0.087 7.15 6.54 10.93
4/7/2021 12:45:00 AM 8.34 47.012 0.079 7.13 6.42 10.94
4/7/2021 1:00:00 AM 8.26 46.868 0.084 7.14 6.46 10.95
4/7/2021 1:15:00 AM 8.19 46.742 0.085 7.14 6.29 10.97
4/7/2021 1:30:00 AM 8.12 46.616 0.083 7.12 7.01 10.98
4/7/2021 1:45:00 AM 8.05 46.49 0.079 7.1 7.98 11
4/7/2021 2:00:00 AM 7.98 46.364 0.089 7.11 7.23 11.01
4/7/2021 2:15:00 AM 7.92 46.256 0.082 7.13 7.07 11.03
4/7/2021 2:30:00 AM 7.86 46.148 0.087 7.13 7.1 11.04
4/7/2021 2:45:00 AM 7.79 46.022 0.084 7.13 7.43 11.05
4/7/2021 3:00:00 AM 7.73 45.914 0.089 7.12 6.71 11.07
4/7/2021 3:15:00 AM 7.67 45.806 0.09 7.13 7.15 11.09
4/7/2021 3:30:00 AM 7.61 45.698 0.089 7.1 6.78 11.11
4/7/2021 3:45:00 AM 7.55 45.59 0.086 7.13 6.62 11.12
4/7/2021 4:00:00 AM 7.5 45.5 0.088 7.13 6.66 11.13
4/7/2021 4:15:00 AM 7.44 45.392 0.086 7.11 6.93 11.15
4/7/2021 4:30:00 AM 7.39 45.302 0.084 7.12 6.91 11.17
4/7/2021 4:45:00 AM 7.34 45.212 0.092 7.11 7.02 11.19
4/7/2021 5:00:00 AM 7.29 45.122 0.087 7.13 7.1 11.2
4/7/2021 5:15:00 AM 7.24 45.032 0.087 7.12 6.96 11.21
4/7/2021 5:30:00 AM 7.2 44.96 0.089 7.11 7.72 11.23
4/7/2021 5:45:00 AM 7.15 44.87 0.085 7.11 6.98 11.25
4/7/2021 6:00:00 AM 7.11 44.798 0.088 7.13 6.81 11.26
4/7/2021 6:15:00 AM 7.07 44.726 0.088 7.13 7.14 11.27
4/7/2021 6:30:00 AM 7.03 44.654 0.086 7.13 6.92 11.29
4/7/2021 6:45:00 AM 6.98 44.564 0.09 7.11 7.29 11.3
4/7/2021 7:00:00 AM 6.95 44.51 0.087 7.13 6.63 11.33
4/7/2021 7:15:00 AM 6.93 44.474 0.089 7.13 7.05 11.36
4/7/2021 7:30:00 AM 6.9 44.42 0.086 7.12 6.63 11.4
4/7/2021 7:45:00 AM 6.89 44.402 0.089 7.15 6.91 11.44
4/7/2021 8:00:00 AM 6.88 44.384 0.087 7.14 7.12 11.52
4/7/2021 8:15:00 AM 6.89 44.402 0.089 7.16 6.75 11.59
4/7/2021 8:30:00 AM 6.89 44.402 0.09 7.21 6.85 11.65
4/7/2021 8:45:00 AM 6.93 44.474 0.09 7.21 6.83 11.72
4/7/2021 9:00:00 AM 6.94 44.492 0.089 7.18 6.67 11.77
4/7/2021 9:15:00 AM 7.03 44.654 0.085 7.18 6.59 11.82
4/7/2021 9:30:00 AM 7.07 44.726 0.087 7.18 6.59 11.86
4/7/2021 9:45:00 AM 7.09 44.762 0.088 7.24 6.34 11.89
4/7/2021 10:00:00 AM 7.16 44.888 0.084 7.24 6.39 11.93
4/7/2021 10:15:00 AM 7.33 45.194 0.09 7.22 6.45 11.95
4/7/2021 10:30:00 AM 7.43 45.374 0.087 7.24 6.41 11.97
4/7/2021 10:45:00 AM 7.53 45.554 0.088 7.26 6.21 11.99
4/7/2021 11:00:00 AM 7.66 45.788 0.084 7.27 8.85 12.02
4/7/2021 11:15:00 AM 7.83 46.094 0.083 7.29 10.31 12.03
4/7/2021 11:30:00 AM 8.09 46.562 0.086 7.3 6.44 12.03
4/7/2021 11:45:00 AM 8.33 46.994 0.088 7.32 6.69 12.02
4/7/2021 12:00:00 PM 8.59 47.462 0.104 7.32 6.62 12.01
4/7/2021 12:15:00 PM 8.82 47.876 0.087 7.3 6.4 12
4/7/2021 12:30:00 PM 9.13 48.434 0.087 7.33 6.58 11.97
4/7/2021 12:45:00 PM 9.4 48.92 0.088 7.33 6.55 11.94
4/7/2021 1:00:00 PM 9.63 49.334 0.091 7.36 6.38 11.9
4/7/2021 1:15:00 PM 9.87 49.766 0.089 7.35 6.38 11.87
4/7/2021 1:30:00 PM 10.02 50.036 0.086 7.34 6.2 11.85
4/7/2021 1:45:00 PM 10.25 50.45 0.084 7.36 6.19 11.81
4/7/2021 2:00:00 PM 10.49 50.882 0.083 7.34 6.16 11.76
4/7/2021 2:15:00 PM 10.7 51.26 0.086 7.35 6.19 11.72
4/7/2021 2:30:00 PM 10.9 51.62 0.079 7.37 6.12 11.69
4/7/2021 2:45:00 PM 11.09 51.962 0.09 7.39 6.34 11.65
4/7/2021 3:00:00 PM 11.28 52.304 0.086 7.37 6.31 11.6
4/7/2021 3:15:00 PM 11.45 52.61 0.082 7.41 7.14 11.56
4/7/2021 3:30:00 PM 11.58 52.844 0.083 7.4 7.56 11.52
4/7/2021 3:45:00 PM 11.69 53.042 0.088 7.41 7.16 11.48
4/7/2021 4:00:00 PM 11.77 53.186 0.087 7.42 6.68 11.44
4/7/2021 4:15:00 PM 11.82 53.276 0.089 7.42 6.35 11.4
4/7/2021 4:30:00 PM 11.84 53.312 0.084 7.41 6.29 11.36
4/7/2021 4:45:00 PM 11.84 53.312 0.082 7.43 6.35 11.32
4/7/2021 5:00:00 PM 11.84 53.312 0.09 7.42 6.61 11.28
4/7/2021 5:15:00 PM 11.84 53.312 0.086 7.42 6.21 11.24
4/7/2021 5:30:00 PM 11.84 53.312 0.083 7.38 6.23 11.19
4/7/2021 5:45:00 PM 11.82 53.276 0.088 7.42 6.18 11.15
4/7/2021 6:00:00 PM 11.8 53.24 0.091 7.42 6.23 11.1
4/7/2021 6:15:00 PM 11.78 53.204 0.087 7.4 6.1 11.05
4/7/2021 6:30:00 PM 11.75 53.15 0.087 7.4 6.31 11.01
4/7/2021 6:45:00 PM 11.7 53.06 0.1 7.39 6.14 10.95
4/7/2021 7:00:00 PM 11.66 52.988 0.099 7.38 6.29 10.88
4/7/2021 7:15:00 PM 11.61 52.898 0.087 7.35 6.34 10.81
4/7/2021 7:30:00 PM 11.56 52.808 0.086 7.32 6.17 10.73
4/7/2021 7:45:00 PM 11.5 52.7 0.087 7.32 6.3 10.65
4/7/2021 8:00:00 PM 11.45 52.61 0.088 7.27 6.48 10.58
4/7/2021 8:15:00 PM 11.4 52.52 0.087 7.28 6.89 10.52
4/7/2021 8:30:00 PM 11.35 52.43 0.089 7.26 6.9 10.48
4/7/2021 8:45:00 PM 11.3 52.34 0.088 7.22 6.79 10.44
4/7/2021 9:00:00 PM 11.25 52.25 0.088 7.23 6.55 10.4
4/7/2021 9:15:00 PM 11.2 52.16 0.086 7.19 6.66 10.38
4/7/2021 9:30:00 PM 11.15 52.07 0.083 7.22 7.13 10.36
4/7/2021 9:45:00 PM 11.1 51.98 0.091 7.21 7.59 10.34
4/7/2021 10:00:00 PM 11.04 51.872 0.085 7.21 7.18 10.33
4/7/2021 10:15:00 PM 10.97 51.746 0.087 7.19 7.04 10.32
4/7/2021 10:30:00 PM 10.89 51.602 0.086 7.18 8.25 10.32
4/7/2021 10:45:00 PM 10.8 51.44 0.085 7.16 7.37 10.32
4/7/2021 11:00:00 PM 10.71 51.278 0.089 7.15 7.55 10.32
4/7/2021 11:15:00 PM 10.62 51.116 0.087 7.17 7.09 10.33
4/7/2021 11:30:00 PM 10.52 50.936 0.088 7.14 7.51 10.34
4/7/2021 11:45:00 PM 10.41 50.738 0.087 7.16 8.04 10.35
4/8/2021 12:00:00 AM 10.3 50.54 0.085 7.17 12.19 10.36
4/8/2021 12:15:00 AM 10.19 50.342 0.087 7.13 9.59 10.38
4/8/2021 12:30:00 AM 10.08 50.144 0.088 7.12 9.03 10.4
4/8/2021 12:45:00 AM 9.96 49.928 0.087 7.13 7.71 10.43
4/8/2021 1:00:00 AM 9.85 49.73 0.088 7.14 7.78 10.45
4/8/2021 1:15:00 AM 9.73 49.514 0.087 7.16 7.83 10.47
4/8/2021 1:30:00 AM 9.62 49.316 0.086 7.16 8.49 10.49
4/8/2021 1:45:00 AM 9.51 49.118 0.087 7.13 9.99 10.52
4/8/2021 2:00:00 AM 9.41 48.938 0.088 7.11 8.18 10.54
4/8/2021 2:15:00 AM 9.3 48.74 0.089 7.13 8.4 10.56
4/8/2021 2:30:00 AM 9.19 48.542 0.087 7.1 10.31 10.58
4/8/2021 2:45:00 AM 9.09 48.362 0.088 7.12 8.62 10.61
4/8/2021 3:00:00 AM 8.99 48.182 0.089 7.13 15.55 10.63
4/8/2021 3:15:00 AM 8.9 48.02 0.088 7.12 8.53 10.66
4/8/2021 3:30:00 AM 8.8 47.84 0.086 7.13 10.16 10.68
4/8/2021 3:45:00 AM 8.7 47.66 0.083 7.1 8.42 10.71
4/8/2021 4:00:00 AM 8.6 47.48 0.087 7.13 9.1 10.73
4/8/2021 4:15:00 AM 8.5 47.3 0.095 7.14 8.48 10.76
4/8/2021 4:30:00 AM 8.41 47.138 0.09 7.14 8.22 10.78
4/8/2021 4:45:00 AM 8.31 46.958 0.089 7.14 8.01 10.82
4/8/2021 5:00:00 AM 8.21 46.778 0.09 7.12 8.2 10.84
4/8/2021 5:15:00 AM 8.12 46.616 0.088 7.14 7.95 10.87
4/8/2021 5:30:00 AM 8.02 46.436 0.09 7.11 8.42 10.89
4/8/2021 5:45:00 AM 7.93 46.274 0.084 7.09 8.09 10.92
4/8/2021 6:00:00 AM 7.84 46.112 0.083 7.12 7.61 10.95
4/8/2021 6:15:00 AM 7.75 45.95 0.087 7.13 7.99 10.97
4/8/2021 6:30:00 AM 7.66 45.788 0.091 7.12 8.15 11
4/8/2021 6:45:00 AM 7.58 45.644 0.09 7.13 7.87 11.04
4/8/2021 7:00:00 AM 7.5 45.5 0.09 7.12 8.04 11.09
4/8/2021 7:15:00 AM 7.42 45.356 0.087 7.14 7.65 11.13
4/8/2021 7:30:00 AM 7.36 45.248 0.086 7.16 7.97 11.21
4/8/2021 7:45:00 AM 7.3 45.14 0.086 7.16 7.71 11.28
4/8/2021 8:00:00 AM 7.26 45.068 0.087 7.17 7.48 11.35
4/8/2021 8:15:00 AM 7.24 45.032 0.09 7.17 7.64 11.42
4/8/2021 8:30:00 AM 7.25 45.05 0.087 7.19 7.65 11.49
4/8/2021 8:45:00 AM 7.27 45.086 0.085 7.18 7.79 11.55
4/8/2021 9:00:00 AM 7.31 45.158 0.085 7.21 7.68 11.6
4/8/2021 9:15:00 AM 7.38 45.284 0.09 7.22 7.61 11.66
4/8/2021 9:30:00 AM 7.46 45.428 0.09 7.22 7.69 11.7
4/8/2021 9:45:00 AM 7.57 45.626 0.091 7.25 7.64 11.74
4/8/2021 10:00:00 AM 7.68 45.824 0.089 7.25 7.67 11.77
4/8/2021 10:15:00 AM 7.8 46.04 0.09 7.28 7.32 11.8
4/8/2021 10:30:00 AM 7.95 46.31 0.088 7.28 7.49 11.83
4/8/2021 10:45:00 AM 8.14 46.652 0.086 7.3 7.06 11.85
4/8/2021 11:00:00 AM 8.37 47.066 0.085 7.27 7.21 11.86
4/8/2021 11:15:00 AM 8.62 47.516 0.084 7.32 7.39 11.87
4/8/2021 11:30:00 AM 8.88 47.984 0.085 7.32 7.34 11.86
4/8/2021 11:45:00 AM 9.19 48.542 0.09 7.32 8.04 11.82
4/8/2021 12:00:00 PM 9.5 49.1 0.093 7.31 7.6 11.79
4/8/2021 12:15:00 PM 9.82 49.676 0.095 7.33 7.89 11.76
4/8/2021 12:30:00 PM 10.13 50.234 0.093 7.34 7.65 11.74
4/8/2021 12:45:00 PM 10.44 50.792 0.094 7.33 7.48 11.71
4/8/2021 1:00:00 PM 10.74 51.332 0.094 7.37 7.4 11.67
4/8/2021 1:15:00 PM 11.03 51.854 0.095 7.36 7 11.64
4/8/2021 1:30:00 PM 11.3 52.34 0.092 7.39 6.97 11.59
4/8/2021 1:45:00 PM 11.56 52.808 0.094 7.38 7.15 11.55
4/8/2021 2:00:00 PM 11.81 53.258 0.094 7.38 7.1 11.52
4/8/2021 2:15:00 PM 12.04 53.672 0.089 7.43 7.58 11.48
4/8/2021 2:30:00 PM 12.25 54.05 0.089 7.43 7.02 11.44
4/8/2021 2:45:00 PM 12.45 54.41 0.082 7.43 7.29 11.4
4/8/2021 3:00:00 PM 12.63 54.734 0.089 7.43 7.59 11.34
4/8/2021 3:15:00 PM 12.79 55.022 0.088 7.45 7.52 11.3
4/8/2021 3:30:00 PM 12.94 55.292 0.085 7.45 7.36 11.25
4/8/2021 3:45:00 PM 13.05 55.49 0.086 7.43 7.36 11.21
4/8/2021 4:00:00 PM 13.14 55.652 0.113 7.48 7.18 11.17
4/8/2021 4:15:00 PM 13.19 55.742 0.114 7.48 7.15 11.13
4/8/2021 4:30:00 PM 13.21 55.778 0.113 7.48 7.15 11.09
4/8/2021 4:45:00 PM 13.21 55.778 0.089 7.46 7.19 11.04
4/8/2021 5:00:00 PM 13.19 55.742 0.09 7.44 7.18 11
4/8/2021 5:15:00 PM 13.17 55.706 0.102 7.46 7.31 10.96
4/8/2021 5:30:00 PM 13.14 55.652 0.114 7.47 7.23 10.92
4/8/2021 5:45:00 PM 13.11 55.598 0.084 7.46 7.05 10.88
4/8/2021 6:00:00 PM 13.08 55.544 0.091 7.46 7.11 10.83
4/8/2021 6:15:00 PM 13.05 55.49 0.088 7.45 6.99 10.78
4/8/2021 6:30:00 PM 13 55.4 0.084 7.45 7.15 10.74
4/8/2021 6:45:00 PM 12.95 55.31 0.078 7.43 7.27 10.68
4/8/2021 7:00:00 PM 12.89 55.202 0.113 7.41 7.21 10.6
4/8/2021 7:15:00 PM 12.83 55.094 0.086 7.39 7.04 10.53
4/8/2021 7:30:00 PM 12.77 54.986 0.113 7.37 7.65 10.45
4/8/2021 7:45:00 PM 12.72 54.896 0.086 7.37 7.16 10.37
4/8/2021 8:00:00 PM 12.66 54.788 0.085 7.35 7.29 10.29
4/8/2021 8:15:00 PM 12.61 54.698 0.093 7.32 7.44 10.23
4/8/2021 8:30:00 PM 12.57 54.626 0.085 7.3 8.06 10.17
4/8/2021 8:45:00 PM 12.53 54.554 0.089 7.27 8.08 10.12
4/8/2021 9:00:00 PM 12.49 54.482 0.093 7.27 8.97 10.08
4/8/2021 9:15:00 PM 12.45 54.41 0.089 7.25 11.96 10.05
4/8/2021 9:30:00 PM 12.41 54.338 0.089 7.24 14.03 10.02
4/8/2021 9:45:00 PM 12.37 54.266 0.091 7.23 11.99 10
4/8/2021 10:00:00 PM 12.33 54.194 0.09 7.23 12.57 9.98
4/8/2021 10:15:00 PM 12.29 54.122 0.089 7.23 9.05 9.97
4/8/2021 10:30:00 PM 12.24 54.032 0.09 7.22 8.75 9.95
4/8/2021 10:45:00 PM 12.19 53.942 0.088 7.21 9.3 9.95
4/8/2021 11:00:00 PM 12.13 53.834 0.086 7.18 17.11 9.94
4/8/2021 11:15:00 PM 12.07 53.726 0.089 7.19 15.32 9.94
4/8/2021 11:30:00 PM 12 53.6 0.089 7.16 14.42 9.95
4/8/2021 11:45:00 PM 11.93 53.474 0.087 7.19 10.12 9.95
4/9/2021 12:00:00 AM 11.85 53.33 0.088 7.17 10.07 9.95
4/9/2021 12:15:00 AM 11.76 53.168 0.087 7.17 16.96 9.97
4/9/2021 12:30:00 AM 11.67 53.006 0.092 7.17 9.22 9.98
4/9/2021 12:45:00 AM 11.57 52.826 0.09 7.17 8.82 9.99
4/9/2021 1:00:00 AM 11.48 52.664 0.09 7.15 11.14 10.01
4/9/2021 1:15:00 AM 11.39 52.502 0.09 7.16 8.78 10.03
4/9/2021 1:30:00 AM 11.29 52.322 0.088 7.16 8.23 10.04
4/9/2021 1:45:00 AM 11.2 52.16 0.091 7.14 11.04 10.07
4/9/2021 2:00:00 AM 11.11 51.998 0.091 7.14 13.73 10.08
4/9/2021 2:15:00 AM 11.02 51.836 0.088 7.16 9.24 10.1
4/9/2021 2:30:00 AM 10.93 51.674 0.092 7.17 12.13 10.12
4/9/2021 2:45:00 AM 10.84 51.512 0.088 7.16 13.9 10.15
4/9/2021 3:00:00 AM 10.76 51.368 0.091 7.16 13.85 10.17
4/9/2021 3:15:00 AM 10.68 51.224 0.09 7.13 10.85 10.19
4/9/2021 3:30:00 AM 10.59 51.062 0.09 7.14 7.11 10.21
4/9/2021 3:45:00 AM 10.51 50.918 0.09 7.16 8.36 10.23
4/9/2021 4:00:00 AM 10.42 50.756 0.088 7.15 8.02 10.25
4/9/2021 4:15:00 AM 10.34 50.612 0.091 7.16 7.24 10.27
4/9/2021 4:30:00 AM 10.26 50.468 0.09 7.15 15.85 10.29
4/9/2021 4:45:00 AM 10.19 50.342 0.091 7.16 8.5 10.31
4/9/2021 5:00:00 AM 10.11 50.198 0.089 7.16 8.26 10.33
4/9/2021 5:15:00 AM 10.03 50.054 0.091 7.16 11.67 10.35
4/9/2021 5:30:00 AM 9.96 49.928 0.09 7.16 7.52 10.37
4/9/2021 5:45:00 AM 9.89 49.802 0.094 7.17 7.41 10.4
4/9/2021 6:00:00 AM 9.81 49.658 0.089 7.13 6.1 10.42
4/9/2021 6:15:00 AM 9.73 49.514 0.088 7.16 9.88 10.44
4/9/2021 6:30:00 AM 9.66 49.388 0.089 7.17 12.72 10.47
4/9/2021 6:45:00 AM 9.6 49.28 0.091 7.17 8.85 10.49
4/9/2021 7:00:00 AM 9.53 49.154 0.09 7.13 7.81 10.53
4/9/2021 7:15:00 AM 9.47 49.046 0.09 7.16 8.62 10.58
4/9/2021 7:30:00 AM 9.41 48.938 0.09 7.18 6.79 10.65
4/9/2021 7:45:00 AM 9.36 48.848 0.088 7.19 7.39 10.73
4/9/2021 8:00:00 AM 9.32 48.776 0.088 7.2 6.34 10.81
4/9/2021 8:15:00 AM 9.3 48.74 0.089 7.2 6.5 10.88
4/9/2021 8:30:00 AM 9.29 48.722 0.091 7.21 8.75 10.96
4/9/2021 8:45:00 AM 9.29 48.722 0.091 7.23 9.3 11.03
4/9/2021 9:00:00 AM 9.32 48.776 0.09 7.26 7.52 11.1
4/9/2021 9:15:00 AM 9.38 48.884 0.091 7.28 8.23 11.17
4/9/2021 9:30:00 AM 9.33 48.794 0.088 7.28 7.3 11.21
4/9/2021 9:45:00 AM 9.38 48.884 0.089 7.27 8.06 11.26
4/9/2021 10:00:00 AM 9.42 48.956 0.091 7.29 5.59 11.28
4/9/2021 10:15:00 AM 9.43 48.974 0.089 7.31 5.93 11.3
4/9/2021 10:30:00 AM 9.45 49.01 0.09 7.31 5.79 11.31
4/9/2021 10:45:00 AM 9.46 49.028 0.089 7.31 6.09 11.32
4/9/2021 11:00:00 AM 9.47 49.046 0.091 7.32 12.41 11.33
4/9/2021 11:15:00 AM 9.47 49.046 0.091 7.32 6.66 11.34
4/9/2021 11:30:00 AM 9.47 49.046 0.09 7.33 6.86 11.35
4/9/2021 11:45:00 AM 9.48 49.064 0.089 7.31 5.38 11.37
4/9/2021 12:00:00 PM 9.52 49.136 0.091 7.31 9.73 11.4
4/9/2021 12:15:00 PM 9.57 49.226 0.091 7.34 7.58 11.41
4/9/2021 12:30:00 PM 9.62 49.316 0.092 7.35 6.84 11.44
4/9/2021 12:45:00 PM 9.73 49.514 0.092 7.37 6.39 11.47
4/9/2021 1:00:00 PM 9.86 49.748 0.09 7.36 8.31 11.49
4/9/2021 1:15:00 PM 9.93 49.874 0.091 7.38 8.77 11.49
4/9/2021 1:30:00 PM 9.99 49.982 0.09 7.37 10.19 11.51
4/9/2021 1:45:00 PM 10.17 50.306 0.09 7.38 6.44 11.53
4/9/2021 2:00:00 PM 10.28 50.504 0.09 7.41 6.46 11.53
4/9/2021 2:15:00 PM 10.39 50.702 0.09 7.39 6.78 11.53
4/9/2021 2:30:00 PM 10.45 50.81 0.088 7.42 6.21 11.52
4/9/2021 2:45:00 PM 10.49 50.882 0.087 7.42 6.46 11.52
4/9/2021 3:00:00 PM 10.58 51.044 0.089 7.43 6.53 11.51
4/9/2021 3:15:00 PM 10.63 51.134 0.09 7.45 6.29 11.5
4/9/2021 3:30:00 PM 10.63 51.134 0.09 7.44 6.3 11.49
4/9/2021 3:45:00 PM 10.62 51.116 0.088 7.44 6.42 11.46
4/9/2021 4:00:00 PM 10.61 51.098 0.091 7.44 8.93 11.44
4/9/2021 4:15:00 PM 10.66 51.188 0.093 7.45 7.86 11.44
4/9/2021 4:30:00 PM 10.74 51.332 0.089 7.45 8.06 11.43
4/9/2021 4:45:00 PM 10.77 51.386 0.089 7.45 4.9 11.41
4/9/2021 5:00:00 PM 10.81 51.458 0.092 7.46 5.01 11.4
4/9/2021 5:15:00 PM 10.84 51.512 0.087 7.44 5.28 11.37
4/9/2021 5:30:00 PM 10.85 51.53 0.088 7.46 4.75 11.35
4/9/2021 5:45:00 PM 10.85 51.53 0.089 7.46 4.75 11.32
4/9/2021 6:00:00 PM 10.87 51.566 0.091 7.45 4.73 11.31
4/9/2021 6:15:00 PM 10.85 51.53 0.088 7.44 4.78 11.26
4/9/2021 6:30:00 PM 10.8 51.44 0.088 7.42 4.73 11.21
4/9/2021 6:45:00 PM 10.78 51.404 0.089 7.43 4.26 11.19
4/9/2021 7:00:00 PM 10.74 51.332 0.089 7.42 4.22 11.14
4/9/2021 7:15:00 PM 10.69 51.242 0.092 7.41 4.74 11.08
4/9/2021 7:30:00 PM 10.64 51.152 0.089 7.38 4.5 11.02
4/9/2021 7:45:00 PM 10.58 51.044 0.092 7.36 4.85 10.94
4/9/2021 8:00:00 PM 10.53 50.954 0.092 7.34 5.1 10.89
4/9/2021 8:15:00 PM 10.48 50.864 0.089 7.32 5.76 10.83
4/9/2021 8:30:00 PM 10.45 50.81 0.091 7.32 5.95 10.77
4/9/2021 8:45:00 PM 10.43 50.774 0.092 7.29 4.61 10.72
4/9/2021 9:00:00 PM 10.4 50.72 0.092 7.29 5.3 10.69
4/9/2021 9:15:00 PM 10.38 50.684 0.089 7.26 22.66 10.65
4/9/2021 9:30:00 PM 10.36 50.648 0.09 7.24 45.34 10.63
4/9/2021 9:45:00 PM 10.32 50.576 0.09 7.24 30.67 10.6
4/9/2021 10:00:00 PM 10.28 50.504 0.093 7.24 18.78 10.59
4/9/2021 10:15:00 PM 10.23 50.414 0.09 7.22 16.79 10.57
4/9/2021 10:30:00 PM 10.19 50.342 0.091 7.23 15.82 10.57
4/9/2021 10:45:00 PM 10.13 50.234 0.089 7.23 16.44 10.55
4/9/2021 11:00:00 PM 10.09 50.162 0.089 7.21 9.75 10.53
4/9/2021 11:15:00 PM 10.04 50.072 0.091 7.2 10.41 10.52
4/9/2021 11:30:00 PM 10.02 50.036 0.095 7.2 11.12 10.52
4/9/2021 11:45:00 PM 10 50 0.091 7.2 14.64 10.51
4/10/2021 12:00:00 AM 9.99 49.982 0.091 7.2 8.41 10.49
4/10/2021 12:15:00 AM 9.97 49.946 0.086 7.2 8.86 10.49
4/10/2021 12:30:00 AM 9.96 49.928 0.093 7.19 10.58 10.48
4/10/2021 12:45:00 AM 9.95 49.91 0.092 7.19 10.09 10.48
4/10/2021 1:00:00 AM 9.94 49.892 0.091 7.2 10.11 10.48
4/10/2021 1:15:00 AM 9.92 49.856 0.091 7.19 14.38 10.48
4/10/2021 1:30:00 AM 9.89 49.802 0.09 7.19 11.12 10.48
4/10/2021 1:45:00 AM 9.86 49.748 0.09 7.19 8.42 10.48
4/10/2021 2:00:00 AM 9.83 49.694 0.092 7.18 9.77 10.49
4/10/2021 2:15:00 AM 9.81 49.658 0.104 7.19 7.61 10.49
4/10/2021 2:30:00 AM 9.78 49.604 0.09 7.18 8.67 10.49
4/10/2021 2:45:00 AM 9.75 49.55 0.093 7.18 6.61 10.5
4/10/2021 3:00:00 AM 9.73 49.514 0.091 7.18 9.15 10.5
4/10/2021 3:15:00 AM 9.71 49.478 0.09 7.18 9.55 10.5
4/10/2021 3:30:00 AM 9.69 49.442 0.094 7.18 6.85 10.5
4/10/2021 3:45:00 AM 9.67 49.406 0.092 7.16 6.88 10.51
4/10/2021 4:00:00 AM 9.65 49.37 0.092 7.18 9.24 10.51
4/10/2021 4:15:00 AM 9.63 49.334 0.092 7.16 8.73 10.51
4/10/2021 4:30:00 AM 9.61 49.298 0.089 7.18 10.17 10.51
4/10/2021 4:45:00 AM 9.59 49.262 0.09 7.17 8.91 10.51
4/10/2021 5:00:00 AM 9.57 49.226 0.09 7.17 9.3 10.52
4/10/2021 5:15:00 AM 9.55 49.19 0.091 7.17 9.63 10.52
4/10/2021 5:30:00 AM 9.53 49.154 0.089 7.17 5.65 10.53
4/10/2021 5:45:00 AM 9.51 49.118 0.092 7.18 7.32 10.53
4/10/2021 6:00:00 AM 9.49 49.082 0.091 7.17 6.43 10.53
4/10/2021 6:15:00 AM 9.47 49.046 0.091 7.17 5.81 10.54
4/10/2021 6:30:00 AM 9.45 49.01 0.09 7.19 6.14 10.54
4/10/2021 6:45:00 AM 9.44 48.992 0.092 7.19 7.31 10.55
4/10/2021 7:00:00 AM 9.43 48.974 0.095 7.19 7.85 10.56
4/10/2021 7:15:00 AM 9.41 48.938 0.092 7.19 6.88 10.59
4/10/2021 7:30:00 AM 9.4 48.92 0.091 7.19 5.32 10.62
4/10/2021 7:45:00 AM 9.4 48.92 0.09 7.19 7.1 10.66
4/10/2021 8:00:00 AM 9.4 48.92 0.094 7.2 6.86 10.72
4/10/2021 8:15:00 AM 9.4 48.92 0.092 7.21 5.78 10.77
4/10/2021 8:30:00 AM 9.41 48.938 0.093 7.22 7.29 10.83
4/10/2021 8:45:00 AM 9.43 48.974 0.093 7.24 8.83 10.9
4/10/2021 9:00:00 AM 9.46 49.028 0.093 7.26 5.8 10.95
4/10/2021 9:15:00 AM 9.49 49.082 0.092 7.26 7.92 11.01
4/10/2021 9:30:00 AM 9.54 49.172 0.093 7.28 4.99 11.06
4/10/2021 9:45:00 AM 9.59 49.262 0.093 7.29 5.62 11.11
4/10/2021 10:00:00 AM 9.65 49.37 0.094 7.31 5.63 11.15
4/10/2021 10:15:00 AM 9.72 49.496 0.092 7.31 9.59 11.19
4/10/2021 10:30:00 AM 9.82 49.676 0.09 7.32 5.24 11.23
4/10/2021 10:45:00 AM 9.98 49.964 0.092 7.32 5.28 11.26
4/10/2021 11:00:00 AM 10.23 50.414 0.093 7.34 5.87 11.28
4/10/2021 11:15:00 AM 10.43 50.774 0.091 7.35 5.76 11.28
4/10/2021 11:30:00 AM 10.63 51.134 0.093 7.35 5.63 11.29
4/10/2021 11:45:00 AM 10.85 51.53 0.092 7.37 5.46 11.29
4/10/2021 12:00:00 PM 11.14 52.052 0.091 7.35 7.75 11.29
4/10/2021 12:15:00 PM 11.44 52.592 0.091 7.39 13.27 11.27
4/10/2021 12:30:00 PM 11.75 53.15 0.093 7.37 5.86 11.25
4/10/2021 12:45:00 PM 12.03 53.654 0.092 7.4 5.37 11.22
4/10/2021 1:00:00 PM 12.26 54.068 0.09 7.43 5.02 11.2
4/10/2021 1:15:00 PM 12.48 54.464 0.096 7.41 5.39 11.18
4/10/2021 1:30:00 PM 12.69 54.842 0.091 7.41 4.66 11.16
4/10/2021 1:45:00 PM 12.9 55.22 0.115 7.44 4.97 11.13
4/10/2021 2:00:00 PM 13.1 55.58 0.095 7.44 4.67 11.11
4/10/2021 2:15:00 PM 13.27 55.886 0.093 7.45 5.49 11.08
4/10/2021 2:30:00 PM 13.44 56.192 0.095 7.46 5.24 11.05
4/10/2021 2:45:00 PM 13.61 56.498 0.093 7.46 4.72 11.01
4/10/2021 3:00:00 PM 13.76 56.768 0.097 7.48 7.82 10.98
4/10/2021 3:15:00 PM 13.9 57.02 0.093 7.49 8.51 10.94
4/10/2021 3:30:00 PM 14.02 57.236 0.094 7.5 7.85 10.92
4/10/2021 3:45:00 PM 14.12 57.416 0.095 7.48 5.47 10.88
4/10/2021 4:00:00 PM 14.19 57.542 0.09 7.5 10.82 10.85
4/10/2021 4:15:00 PM 14.25 57.65 0.093 7.51 6.66 10.82
4/10/2021 4:30:00 PM 14.26 57.668 0.094 7.5 13.35 10.79
4/10/2021 4:45:00 PM 14.24 57.632 0.095 7.49 5.07 10.76
4/10/2021 5:00:00 PM 14.22 57.596 0.093 7.5 5.52 10.72
4/10/2021 5:15:00 PM 14.2 57.56 0.096 7.51 5.37 10.71
4/10/2021 5:30:00 PM 14.18 57.524 0.103 7.51 5.49 10.67
4/10/2021 5:45:00 PM 14.16 57.488 0.093 7.49 4.94 10.64
4/10/2021 6:00:00 PM 14.12 57.416 0.091 7.49 5.66 10.6
4/10/2021 6:15:00 PM 14.08 57.344 0.095 7.48 9.17 10.56
4/10/2021 6:30:00 PM 14.05 57.29 0.097 7.48 5.1 10.5
4/10/2021 6:45:00 PM 14.01 57.218 0.103 7.46 5.53 10.44
4/10/2021 7:00:00 PM 13.96 57.128 0.105 7.45 5.51 10.37
4/10/2021 7:15:00 PM 13.91 57.038 0.085 7.41 5.44 10.29
4/10/2021 7:30:00 PM 13.86 56.948 0.091 7.4 5.31 10.2
4/10/2021 7:45:00 PM 13.81 56.858 0.119 7.37 4.84 10.11
4/10/2021 8:00:00 PM 13.76 56.768 0.098 7.34 6.16 10.04
4/10/2021 8:15:00 PM 13.71 56.678 0.095 7.33 7.91 9.96
4/10/2021 8:30:00 PM 13.67 56.606 0.086 7.3 7.02 9.9
4/10/2021 8:45:00 PM 13.62 56.516 0.12 7.31 9.42 9.85
4/10/2021 9:00:00 PM 13.57 56.426 0.104 7.28 6.35 9.8
4/10/2021 9:15:00 PM 13.54 56.372 0.095 7.28 4.86 9.76
4/10/2021 9:30:00 PM 13.5 56.3 0.118 7.27 8.74 9.73
4/10/2021 9:45:00 PM 13.46 56.228 0.119 7.26 4.29 9.7
4/10/2021 10:00:00 PM 13.42 56.156 0.096 7.25 9.27 9.68
4/10/2021 10:15:00 PM 13.38 56.084 0.093 7.25 4.69 9.66
4/10/2021 10:30:00 PM 13.33 55.994 0.089 7.24 4.39 9.63
4/10/2021 10:45:00 PM 13.28 55.904 0.09 7.24 14.51 9.62
4/10/2021 11:00:00 PM 13.23 55.814 0.071 7.23 4.38 9.6
4/10/2021 11:15:00 PM 13.17 55.706 0.087 7.22 15.1 9.59
4/10/2021 11:30:00 PM 13.1 55.58 0.092 7.21 14.22 9.58
4/10/2021 11:45:00 PM 13.03 55.454 0.11 7.21 13.07 9.58
4/11/2021 12:00:00 AM 12.95 55.31 0.095 7.2 14.24 9.58
4/11/2021 12:15:00 AM 12.88 55.184 0.106 7.19 14.22 9.58
4/11/2021 12:30:00 AM 12.81 55.058 0.094 7.18 12.58 9.59
4/11/2021 12:45:00 AM 12.74 54.932 0.093 7.18 11.8 9.59
4/11/2021 1:00:00 AM 12.67 54.806 0.117 7.18 15.6 9.6
4/11/2021 1:15:00 AM 12.6 54.68 0.115 7.17 14.66 9.61
4/11/2021 1:30:00 AM 12.53 54.554 0.091 7.18 12.87 9.61
4/11/2021 1:45:00 AM 12.46 54.428 0.091 7.17 14.44 9.62
4/11/2021 2:00:00 AM 12.39 54.302 0.11 7.17 14.24 9.64
4/11/2021 2:15:00 AM 12.32 54.176 0.09 7.16 11.13 9.65
4/11/2021 2:30:00 AM 12.25 54.05 0.096 7.16 4.89 9.66
4/11/2021 2:45:00 AM 12.18 53.924 0.094 7.16 12.62 9.68
4/11/2021 3:00:00 AM 12.1 53.78 0.095 7.15 12.19 9.69
4/11/2021 3:15:00 AM 12.02 53.636 0.113 7.16 5.83 9.71
4/11/2021 3:30:00 AM 11.94 53.492 0.095 7.15 10.08 9.72
4/11/2021 3:45:00 AM 11.88 53.384 0.097 7.15 13.56 9.73
4/11/2021 4:00:00 AM 11.81 53.258 0.092 7.14 4.72 9.75
4/11/2021 4:15:00 AM 11.74 53.132 0.093 7.15 5.61 9.76
4/11/2021 4:30:00 AM 11.67 53.006 0.09 7.16 14.1 9.78
4/11/2021 4:45:00 AM 11.6 52.88 0.093 7.16 14.99 9.79
4/11/2021 5:00:00 AM 11.54 52.772 0.098 7.15 15.08 9.8
4/11/2021 5:15:00 AM 11.48 52.664 0.092 7.16 10.08 9.82
4/11/2021 5:30:00 AM 11.42 52.556 0.095 7.16 7.55 9.83
4/11/2021 5:45:00 AM 11.36 52.448 0.095 7.15 12.24 9.85
4/11/2021 6:00:00 AM 11.3 52.34 0.117 7.16 5.25 9.86
4/11/2021 6:15:00 AM 11.24 52.232 0.109 7.15 5.48 9.87
4/11/2021 6:30:00 AM 11.18 52.124 0.092 7.15 5.06 9.89
4/11/2021 6:45:00 AM 11.13 52.034 0.089 7.15 5.3 9.91
4/11/2021 7:00:00 AM 11.07 51.926 0.094 7.16 5.58 9.94
4/11/2021 7:15:00 AM 11.02 51.836 0.091 7.16 5.26 9.98
4/11/2021 7:30:00 AM 10.98 51.764 0.096 7.16 6.31 10.04
4/11/2021 7:45:00 AM 10.95 51.71 0.109 7.16 5.17 10.09
4/11/2021 8:00:00 AM 10.92 51.656 0.094 7.18 4.71 10.15
4/11/2021 8:15:00 AM 10.91 51.638 0.096 7.19 5.69 10.24
4/11/2021 8:30:00 AM 10.91 51.638 0.088 7.22 5.06 10.32
4/11/2021 8:45:00 AM 10.9 51.62 0.119 7.22 5.07 10.38
4/11/2021 9:00:00 AM 10.9 51.62 0.105 7.24 5.23 10.44
4/11/2021 9:15:00 AM 10.91 51.638 0.09 7.24 5.31 10.5
4/11/2021 9:30:00 AM 10.91 51.638 0.096 7.26 5 10.54
4/11/2021 9:45:00 AM 10.91 51.638 0.084 7.26 4.84 10.58
4/11/2021 10:00:00 AM 10.91 51.638 0.093 7.27 5.02 10.61
4/11/2021 10:15:00 AM 10.9 51.62 0.095 7.27 5.16 10.62
4/11/2021 10:30:00 AM 10.9 51.62 0.107 7.29 5.32 10.64
4/11/2021 10:45:00 AM 10.9 51.62 0.094 7.28 5.35 10.67
4/11/2021 11:00:00 AM 10.9 51.62 0.108 7.3 5.48 10.7
4/11/2021 11:15:00 AM 10.92 51.656 0.119 7.31 5.09 10.73
4/11/2021 11:30:00 AM 10.94 51.692 0.095 7.31 4.74 10.76
4/11/2021 11:45:00 AM 10.97 51.746 0.092 7.32 4.7 10.79
4/11/2021 12:00:00 PM 11.02 51.836 0.094 7.33 4.82 10.82
4/11/2021 12:15:00 PM 11.09 51.962 0.093 7.34 4.66 10.86
4/11/2021 12:30:00 PM 11.17 52.106 0.091 7.35 5.09 10.88
4/11/2021 12:45:00 PM 11.23 52.214 0.092 7.36 4.8 10.9
4/11/2021 1:00:00 PM 11.36 52.448 0.087 7.37 5.1 10.92
4/11/2021 1:15:00 PM 11.4 52.52 0.09 7.38 4.52 10.91
4/11/2021 1:30:00 PM 11.42 52.556 0.093 7.36 4.63 10.91
4/11/2021 1:45:00 PM 11.49 52.682 0.115 7.39 4.79 10.92
4/11/2021 2:00:00 PM 11.58 52.844 0.096 7.39 4.58 10.92
4/11/2021 2:15:00 PM 11.64 52.952 0.105 7.4 5.87 10.92
4/11/2021 2:30:00 PM 11.67 53.006 0.107 7.41 4.72 10.92
4/11/2021 2:45:00 PM 11.72 53.096 0.11 7.4 4.66 10.91
4/11/2021 3:00:00 PM 11.79 53.222 0.091 7.41 4.71 10.91
4/11/2021 3:15:00 PM 11.87 53.366 0.113 7.41 6.44 10.9
4/11/2021 3:30:00 PM 11.95 53.51 0.115 7.42 5.23 10.89
4/11/2021 3:45:00 PM 12 53.6 0.102 7.41 5.32 10.87
4/11/2021 4:00:00 PM 12.03 53.654 0.094 7.43 5.17 10.84
4/11/2021 4:15:00 PM 12.07 53.726 0.113 7.43 7.1 10.81
4/11/2021 4:30:00 PM 12.11 53.798 0.093 7.44 6.37 10.78
4/11/2021 4:45:00 PM 12.13 53.834 0.098 7.44 6.22 10.75
4/11/2021 5:00:00 PM 12.15 53.87 0.099 7.44 6.31 10.72
4/11/2021 5:15:00 PM 12.18 53.924 0.094 7.43 7.09 10.7
4/11/2021 5:30:00 PM 12.2 53.96 0.095 7.43 8.5 10.66
4/11/2021 5:45:00 PM 12.21 53.978 0.096 7.41 9.02 10.61
4/11/2021 6:00:00 PM 12.21 53.978 0.101 7.41 8.3 10.54
4/11/2021 6:15:00 PM 12.21 53.978 0.117 7.4 8.13 10.49
4/11/2021 6:30:00 PM 12.2 53.96 0.119 7.39 11.66 10.43
4/11/2021 6:45:00 PM 12.18 53.924 0.114 7.38 10.36 10.36
4/11/2021 7:00:00 PM 12.16 53.888 0.111 7.37 10.04 10.31
4/11/2021 7:15:00 PM 12.14 53.852 0.119 7.36 13.61 10.25
4/11/2021 7:30:00 PM 12.1 53.78 0.115 7.34 12.96 10.21
4/11/2021 7:45:00 PM 12.06 53.708 0.117 7.35 12.93 10.17
4/11/2021 8:00:00 PM 12.03 53.654 0.123 7.33 16.9 10.13
4/11/2021 8:15:00 PM 11.97 53.546 0.123 7.33 16.47 10.1
4/11/2021 8:30:00 PM 11.96 53.528 0.134 7.32 15.21 10.07
4/11/2021 8:45:00 PM 11.94 53.492 0.139 7.32 20.74 10.05
4/11/2021 9:00:00 PM 11.93 53.474 0.147 7.31 22.86 10.04
4/11/2021 9:15:00 PM 11.9 53.42 0.132 7.29 22.3 10.03
4/11/2021 9:30:00 PM 11.87 53.366 0.126 7.29 31.43 10.02
4/11/2021 9:45:00 PM 11.85 53.33 0.134 7.29 26.85 10.01
4/11/2021 10:00:00 PM 11.83 53.294 0.124 7.28 23.55 10.01
4/11/2021 10:15:00 PM 11.81 53.258 0.111 7.27 26.21 10
4/11/2021 10:30:00 PM 11.79 53.222 0.12 7.26 24.72 9.99
4/11/2021 10:45:00 PM 11.76 53.168 0.109 7.26 23.29 9.99
4/11/2021 11:00:00 PM 11.72 53.096 0.106 7.25 27.79 9.99
4/11/2021 11:15:00 PM 11.68 53.024 0.104 7.24 27.81 9.99
4/11/2021 11:30:00 PM 11.65 52.97 0.102 7.23 33.44 10
4/11/2021 11:45:00 PM 11.61 52.898 0.105 7.24 22.42 10
4/12/2021 12:00:00 AM 11.57 52.826 0.107 7.23 24.59 10.01
4/12/2021 12:15:00 AM 11.53 52.754 0.097 7.23 22.3 10.01
4/12/2021 12:30:00 AM 11.49 52.682 0.101 7.23 26.91 10.02
4/12/2021 12:45:00 AM 11.44 52.592 0.101 7.23 20.16 10.03
4/12/2021 1:00:00 AM 11.39 52.502 0.104 7.21 18.88 10.03
4/12/2021 1:15:00 AM 11.34 52.412 0.107 7.21 15.59 10.05
4/12/2021 1:30:00 AM 11.29 52.322 0.102 7.21 19.6 10.06
4/12/2021 1:45:00 AM 11.24 52.232 0.103 7.21 18.18 10.07
4/12/2021 2:00:00 AM 11.19 52.142 0.1 7.2 15.57 10.09
4/12/2021 2:15:00 AM 11.14 52.052 0.099 7.2 17.18 10.1
4/12/2021 2:30:00 AM 11.09 51.962 0.1 7.2 15.94 10.11
4/12/2021 2:45:00 AM 11.04 51.872 0.099 7.2 15.1 10.13
4/12/2021 3:00:00 AM 11 51.8 0.097 7.19 16.42 10.13
4/12/2021 3:15:00 AM 10.95 51.71 0.099 7.21 15.85 10.15
4/12/2021 3:30:00 AM 10.91 51.638 0.098 7.18 14.26 10.15
4/12/2021 3:45:00 AM 10.86 51.548 0.097 7.2 14.71 10.16
4/12/2021 4:00:00 AM 10.82 51.476 0.096 7.19 13.84 10.17
4/12/2021 4:15:00 AM 10.78 51.404 0.097 7.16 13.85 10.18
4/12/2021 4:30:00 AM 10.73 51.314 0.097 7.18 13.71 10.19
4/12/2021 4:45:00 AM 10.69 51.242 0.094 7.19 13.58 10.2
4/12/2021 5:00:00 AM 10.64 51.152 0.101 7.18 13.87 10.2
4/12/2021 5:15:00 AM 10.6 51.08 0.093 7.17 13.49 10.22
4/12/2021 5:30:00 AM 10.56 51.008 0.095 7.18 12.39 10.23
4/12/2021 5:45:00 AM 10.53 50.954 0.087 7.18 11.84 10.24
4/12/2021 6:00:00 AM 10.49 50.882 0.088 7.16 12.05 10.25
4/12/2021 6:15:00 AM 10.45 50.81 0.093 7.15 11.81 10.25
4/12/2021 6:30:00 AM 10.41 50.738 0.107 7.16 11.21 10.26
4/12/2021 6:45:00 AM 10.37 50.666 0.091 7.16 11.06 10.28
4/12/2021 7:00:00 AM 10.32 50.576 0.093 7.14 11.43 10.29
4/12/2021 7:15:00 AM 10.29 50.522 0.094 7.16 10.2 10.3
4/12/2021 7:30:00 AM 10.25 50.45 0.092 7.16 9.86 10.32
4/12/2021 7:45:00 AM 10.21 50.378 0.089 7.14 10.06 10.34
4/12/2021 8:00:00 AM 10.17 50.306 0.09 7.16 8.85 10.36
4/12/2021 8:15:00 AM 10.12 50.216 0.091 7.15 9.15 10.38
4/12/2021 8:30:00 AM 10.08 50.144 0.092 7.17 8.31 10.41
4/12/2021 8:45:00 AM 10.04 50.072 0.089 7.16 8.39 10.44
4/12/2021 9:00:00 AM 10 50 0.094 7.18 8.17 10.46
4/12/2021 9:15:00 AM 9.95 49.91 0.09 7.19 8.19 10.48
4/12/2021 9:30:00 AM 9.91 49.838 0.092 7.18 7.81 10.51
4/12/2021 9:45:00 AM 9.88 49.784 0.092 7.16 8.14 10.55
4/12/2021 10:00:00 AM 9.86 49.748 0.092 7.19 7.8 10.59
4/12/2021 10:15:00 AM 9.83 49.694 0.091 7.2 10.98 10.63
4/12/2021 10:30:00 AM 9.81 49.658 0.091 7.21 7.49 10.67
4/12/2021 10:45:00 AM 9.78 49.604 0.091 7.22 7.17 10.7
4/12/2021 11:00:00 AM 9.75 49.55 0.09 7.22 7.82 10.72
4/12/2021 11:15:00 AM 9.72 49.496 0.089 7.2 7.17 10.74
4/12/2021 11:30:00 AM 9.69 49.442 0.09 7.21 7.23 10.77
4/12/2021 11:45:00 AM 9.67 49.406 0.088 7.22 7.45 10.8
4/12/2021 12:00:00 PM 9.66 49.388 0.09 7.21 6.7 10.83
4/12/2021 12:15:00 PM 9.66 49.388 0.091 7.25 7.1 10.87
4/12/2021 12:30:00 PM 9.65 49.37 0.097 7.25 7.13 10.9
4/12/2021 12:45:00 PM 9.66 49.388 0.088 7.24 6.66 10.93
4/12/2021 1:00:00 PM 9.67 49.406 0.092 7.27 6.57 10.96
4/12/2021 1:15:00 PM 9.67 49.406 0.091 7.27 6.52 10.98
4/12/2021 1:30:00 PM 9.68 49.424 0.089 7.25 6.37 11.01
4/12/2021 1:45:00 PM 9.68 49.424 0.088 7.29 6.54 11.01
4/12/2021 2:00:00 PM 9.67 49.406 0.088 7.29 7.2 11.02
4/12/2021 2:15:00 PM 9.65 49.37 0.09 7.29 6.99 11.03
4/12/2021 2:30:00 PM 9.65 49.37 0.09 7.31 6.66 11.04
4/12/2021 2:45:00 PM 9.65 49.37 0.089 7.29 6.55 11.06
4/12/2021 3:00:00 PM 9.65 49.37 0.089 7.28 6.21 11.06
4/12/2021 3:15:00 PM 9.65 49.37 0.091 7.31 6.67 11.08
4/12/2021 3:30:00 PM 9.65 49.37 0.089 7.28 6.28 11.09
4/12/2021 3:45:00 PM 9.65 49.37 0.089 7.31 6.11 11.09
4/12/2021 4:00:00 PM 9.66 49.388 0.087 7.3 6.28 11.1
4/12/2021 4:15:00 PM 9.67 49.406 0.089 7.29 5.98 11.11
4/12/2021 4:30:00 PM 9.67 49.406 0.089 7.3 5.92 11.11
4/12/2021 4:45:00 PM 9.65 49.37 0.089 7.3 6.39 11.08
4/12/2021 5:00:00 PM 9.63 49.334 0.088 7.3 5.96 11.07
4/12/2021 5:15:00 PM 9.6 49.28 0.087 7.27 6 11.04
4/12/2021 5:30:00 PM 9.58 49.244 0.089 7.28 5.91 11.02
4/12/2021 5:45:00 PM 9.56 49.208 0.088 7.26 6 11.01
4/12/2021 6:00:00 PM 9.54 49.172 0.089 7.27 5.57 10.99
4/12/2021 6:15:00 PM 9.52 49.136 0.088 7.26 5.95 10.98
4/12/2021 6:30:00 PM 9.5 49.1 0.088 7.24 6.27 10.97
4/12/2021 6:45:00 PM 9.47 49.046 0.086 7.27 5.93 10.94
4/12/2021 7:00:00 PM 9.45 49.01 0.087 7.24 6.13 10.92
4/12/2021 7:15:00 PM 9.42 48.956 0.086 7.24 6.56 10.9
4/12/2021 7:30:00 PM 9.39 48.902 0.088 7.23 5.99 10.88
4/12/2021 7:45:00 PM 9.37 48.866 0.086 7.23 6.31 10.85
4/12/2021 8:00:00 PM 9.34 48.812 0.09 7.22 5.96 10.83
4/12/2021 8:15:00 PM 9.31 48.758 0.088 7.22 6.17 10.82
4/12/2021 8:30:00 PM 9.28 48.704 0.086 7.21 6.07 10.8
4/12/2021 8:45:00 PM 9.25 48.65 0.089 7.19 6.03 10.79
4/12/2021 9:00:00 PM 9.23 48.614 0.088 7.2 6.69 10.78
4/12/2021 9:15:00 PM 9.2 48.56 0.089 7.2 6.71 10.77
4/12/2021 9:30:00 PM 9.17 48.506 0.09 7.19 6.89 10.77
4/12/2021 9:45:00 PM 9.14 48.452 0.091 7.19 6.54 10.77
4/12/2021 10:00:00 PM 9.11 48.398 0.09 7.18 6.24 10.76
4/12/2021 10:15:00 PM 9.08 48.344 0.091 7.17 7.09 10.76
4/12/2021 10:30:00 PM 9.05 48.29 0.09 7.15 7.63 10.76
4/12/2021 10:45:00 PM 9.02 48.236 0.088 7.16 8.21 10.77
4/12/2021 11:00:00 PM 8.99 48.182 0.087 7.16 8.41 10.77
4/12/2021 11:15:00 PM 8.96 48.128 0.085 7.15 7.11 10.77
4/12/2021 11:30:00 PM 8.93 48.074 0.091 7.15 7.14 10.77
4/12/2021 11:45:00 PM 8.9 48.02 0.086 7.16 6.71 10.78
4/13/2021 12:00:00 AM 8.88 47.984 0.09 7.14 6.35 10.78
4/13/2021 12:15:00 AM 8.85 47.93 0.086 7.16 6.85 10.79
4/13/2021 12:30:00 AM 8.82 47.876 0.088 7.14 7.02 10.79
4/13/2021 12:45:00 AM 8.79 47.822 0.086 7.17 6.52 10.79
4/13/2021 1:00:00 AM 8.75 47.75 0.095 7.15 6.86 10.81
4/13/2021 1:15:00 AM 8.73 47.714 0.087 7.16 6.73 10.81
4/13/2021 1:30:00 AM 8.7 47.66 0.089 7.12 6.8 10.82
4/13/2021 1:45:00 AM 8.68 47.624 0.089 7.14 6.56 10.83
4/13/2021 2:00:00 AM 8.65 47.57 0.092 7.16 6.92 10.84
4/13/2021 2:15:00 AM 8.63 47.534 0.09 7.16 7.17 10.85
4/13/2021 2:30:00 AM 8.6 47.48 0.092 7.15 6.79 10.85
4/13/2021 2:45:00 AM 8.57 47.426 0.094 7.16 8.35 10.86
4/13/2021 3:00:00 AM 8.55 47.39 0.096 7.16 7.23 10.87
4/13/2021 3:15:00 AM 8.53 47.354 0.093 7.15 7.36 10.88
4/13/2021 3:30:00 AM 8.5 47.3 0.092 7.16 7.23 10.89
4/13/2021 3:45:00 AM 8.48 47.264 0.096 7.17 6.81 10.89
4/13/2021 4:00:00 AM 8.45 47.21 0.095 7.16 6.62 10.9
4/13/2021 4:15:00 AM 8.43 47.174 0.096 7.16 6.65 10.91
4/13/2021 4:30:00 AM 8.4 47.12 0.092 7.16 6.46 10.91
4/13/2021 4:45:00 AM 8.38 47.084 0.093 7.13 7.38 10.92
4/13/2021 5:00:00 AM 8.34 47.012 0.093 7.15 9.22 10.93
4/13/2021 5:15:00 AM 8.3 46.94 0.094 7.16 4.59 10.94
4/13/2021 5:30:00 AM 8.28 46.904 0.094 7.15 9.37 10.95
4/13/2021 5:45:00 AM 8.25 46.85 0.096 7.17 8.83 10.95
4/13/2021 6:00:00 AM 8.22 46.796 0.099 7.15 6.97 10.96
4/13/2021 6:15:00 AM 8.2 46.76 0.092 7.14 7.25 10.97
4/13/2021 6:30:00 AM 8.18 46.724 0.093 7.15 6.83 10.97
4/13/2021 6:45:00 AM 8.16 46.688 0.09 7.15 6.91 10.99
4/13/2021 7:00:00 AM 8.14 46.652 0.093 7.16 6.24 11.01
4/13/2021 7:15:00 AM 8.13 46.634 0.093 7.16 6.48 11.05
4/13/2021 7:30:00 AM 8.13 46.634 0.092 7.17 6.2 11.1
4/13/2021 7:45:00 AM 8.12 46.616 0.097 7.18 5.88 11.13
4/13/2021 8:00:00 AM 8.12 46.616 0.089 7.18 6.15 11.18
4/13/2021 8:15:00 AM 8.14 46.652 0.091 7.2 5.89 11.22
4/13/2021 8:30:00 AM 8.16 46.688 0.092 7.21 5.74 11.25
4/13/2021 8:45:00 AM 8.19 46.742 0.092 7.18 5.59 11.29
4/13/2021 9:00:00 AM 8.22 46.796 0.093 7.22 5.59 11.33
4/13/2021 9:15:00 AM 8.28 46.904 0.09 7.23 5.43 11.36
4/13/2021 9:30:00 AM 8.34 47.012 0.092 7.22 5.51 11.38
4/13/2021 9:45:00 AM 8.43 47.174 0.092 7.23 5.31 11.41
4/13/2021 10:00:00 AM 8.55 47.39 0.09 7.23 5.29 11.43
4/13/2021 10:15:00 AM 8.7 47.66 0.091 7.26 5.27 11.44
4/13/2021 10:30:00 AM 8.88 47.984 0.091 7.28 5.41 11.45
4/13/2021 10:45:00 AM 9.1 48.38 0.09 7.28 5.68 11.44
4/13/2021 11:00:00 AM 9.33 48.794 0.088 7.26 5.26 11.45
4/13/2021 11:15:00 AM 9.55 49.19 0.091 7.28 5.33 11.44
4/13/2021 11:30:00 AM 9.78 49.604 0.091 7.3 5.3 11.42
4/13/2021 11:45:00 AM 10.01 50.018 0.09 7.31 5.33 11.4
4/13/2021 12:00:00 PM 10.25 50.45 0.087 7.3 5.25 11.38
4/13/2021 12:15:00 PM 10.5 50.9 0.089 7.32 5.26 11.35
4/13/2021 12:30:00 PM 10.76 51.368 0.092 7.32 5.15 11.32
4/13/2021 12:45:00 PM 11.01 51.818 0.089 7.34 5.52 11.29
4/13/2021 1:00:00 PM 11.27 52.286 0.089 7.34 5.17 11.25
4/13/2021 1:15:00 PM 11.5 52.7 0.091 7.35 5.19 11.21
4/13/2021 1:30:00 PM 11.72 53.096 0.092 7.35 5.01 11.18
4/13/2021 1:45:00 PM 11.94 53.492 0.092 7.35 5.28 11.13
4/13/2021 2:00:00 PM 12.15 53.87 0.09 7.35 4.95 11.09
4/13/2021 2:15:00 PM 12.35 54.23 0.091 7.35 5.13 11.05
4/13/2021 2:30:00 PM 12.55 54.59 0.09 7.37 4.95 11
4/13/2021 2:45:00 PM 12.72 54.896 0.089 7.38 5.09 10.96
4/13/2021 3:00:00 PM 12.86 55.148 0.088 7.37 5.26 10.92
4/13/2021 3:15:00 PM 12.99 55.382 0.088 7.38 4.89 10.87
4/13/2021 3:30:00 PM 13.09 55.562 0.089 7.38 5.11 10.83
4/13/2021 3:45:00 PM 13.17 55.706 0.089 7.38 4.95 10.79
4/13/2021 4:00:00 PM 13.23 55.814 0.087 7.38 5.04 10.75
4/13/2021 4:15:00 PM 13.28 55.904 0.088 7.39 4.97 10.71
4/13/2021 4:30:00 PM 13.32 55.976 0.087 7.38 4.95 10.66
4/13/2021 4:45:00 PM 13.34 56.012 0.088 7.38 5.52 10.62
4/13/2021 5:00:00 PM 13.36 56.048 0.088 7.38 5.11 10.57
4/13/2021 5:15:00 PM 13.37 56.066 0.087 7.39 5 10.53
4/13/2021 5:30:00 PM 13.38 56.084 0.089 7.37 4.96 10.49
4/13/2021 5:45:00 PM 13.37 56.066 0.093 7.37 4.89 10.45
4/13/2021 6:00:00 PM 13.34 56.012 0.09 7.37 5.04 10.42
4/13/2021 6:15:00 PM 13.31 55.958 0.086 7.35 5.14 10.38
4/13/2021 6:30:00 PM 13.26 55.868 0.09 7.34 4.89 10.34
4/13/2021 6:45:00 PM 13.21 55.778 0.088 7.34 4.97 10.3
4/13/2021 7:00:00 PM 13.15 55.67 0.087 7.33 5.08 10.25
4/13/2021 7:15:00 PM 13.08 55.544 0.09 7.32 5.44 10.2
4/13/2021 7:30:00 PM 13.01 55.418 0.087 7.3 5.33 10.16
4/13/2021 7:45:00 PM 12.93 55.274 0.086 7.28 5.12 10.12
4/13/2021 8:00:00 PM 12.86 55.148 0.088 7.27 5.48 10.08
4/13/2021 8:15:00 PM 12.77 54.986 0.087 7.26 5.52 10.06
4/13/2021 8:30:00 PM 12.68 54.824 0.089 7.25 5.86 10.04
4/13/2021 8:45:00 PM 12.58 54.644 0.087 7.24 5.87 10.02
4/13/2021 9:00:00 PM 12.48 54.464 0.088 7.23 5.48 10.02
4/13/2021 9:15:00 PM 12.37 54.266 0.09 7.23 8.43 10.01
4/13/2021 9:30:00 PM 12.25 54.05 0.085 7.22 5.76 10.02
4/13/2021 9:45:00 PM 12.14 53.852 0.09 7.21 6.01 10.02
4/13/2021 10:00:00 PM 12.01 53.618 0.089 7.21 6.04 10.03
4/13/2021 10:15:00 PM 11.88 53.384 0.089 7.2 6.06 10.04
4/13/2021 10:30:00 PM 11.75 53.15 0.086 7.19 7.18 10.05
4/13/2021 10:45:00 PM 11.62 52.916 0.089 7.19 6.5 10.07
4/13/2021 11:00:00 PM 11.5 52.7 0.09 7.18 5.93 10.09
4/13/2021 11:15:00 PM 11.37 52.466 0.088 7.17 5.79 10.1
4/13/2021 11:30:00 PM 11.25 52.25 0.088 7.17 6.2 10.13
4/13/2021 11:45:00 PM 11.13 52.034 0.09 7.16 6.91 10.15
4/14/2021 12:00:00 AM 11.02 51.836 0.089 7.18 6.32 10.17
4/14/2021 12:15:00 AM 10.9 51.62 0.089 7.16 7.26 10.19
4/14/2021 12:30:00 AM 10.78 51.404 0.088 7.16 6.33 10.21
4/14/2021 12:45:00 AM 10.67 51.206 0.089 7.15 6.36 10.24
4/14/2021 1:00:00 AM 10.56 51.008 0.089 7.16 6.47 10.26
4/14/2021 1:15:00 AM 10.45 50.81 0.09 7.15 5.68 10.29
4/14/2021 1:30:00 AM 10.33 50.594 0.087 7.15 6.12 10.32
4/14/2021 1:45:00 AM 10.22 50.396 0.089 7.15 7.63 10.34
4/14/2021 2:00:00 AM 10.1 50.18 0.088 7.15 8.93 10.36
4/14/2021 2:15:00 AM 9.99 49.982 0.088 7.13 6.73 10.39
4/14/2021 2:30:00 AM 9.89 49.802 0.09 7.14 6.51 10.41
4/14/2021 2:45:00 AM 9.78 49.604 0.087 7.15 6.43 10.44
4/14/2021 3:00:00 AM 9.68 49.424 0.086 7.15 6.08 10.48
4/14/2021 3:15:00 AM 9.58 49.244 0.09 7.15 7.46 10.5
4/14/2021 3:30:00 AM 9.48 49.064 0.088 7.15 6.27 10.52
4/14/2021 3:45:00 AM 9.39 48.902 0.088 7.15 6.25 10.55
4/14/2021 4:00:00 AM 9.31 48.758 0.087 7.13 6.88 10.57
4/14/2021 4:15:00 AM 9.23 48.614 0.086 7.15 6.17 10.59
4/14/2021 4:30:00 AM 9.16 48.488 0.085 7.14 6.48 10.62
4/14/2021 4:45:00 AM 9.08 48.344 0.09 7.14 7.14 10.64
4/14/2021 5:00:00 AM 9.01 48.218 0.09 7.15 6.54 10.65
4/14/2021 5:15:00 AM 8.94 48.092 0.089 7.15 5.71 10.68
4/14/2021 5:30:00 AM 8.88 47.984 0.088 7.14 5.57 10.7
4/14/2021 5:45:00 AM 8.81 47.858 0.088 7.14 5.6 10.72
4/14/2021 6:00:00 AM 8.75 47.75 0.087 7.14 5.52 10.74
4/14/2021 6:15:00 AM 8.68 47.624 0.089 7.14 5.43 10.75
4/14/2021 6:30:00 AM 8.62 47.516 0.089 7.15 5.39 10.78
4/14/2021 6:45:00 AM 8.56 47.408 0.089 7.14 5.27 10.8
4/14/2021 7:00:00 AM 8.51 47.318 0.089 7.15 5.49 10.84
4/14/2021 7:15:00 AM 8.46 47.228 0.088 7.15 5.62 10.88
4/14/2021 7:30:00 AM 8.42 47.156 0.091 7.14 5.36 10.94
4/14/2021 7:45:00 AM 8.39 47.102 0.088 7.14 5.27 11
4/14/2021 8:00:00 AM 8.39 47.102 0.086 7.14 5.52 11.05
4/14/2021 8:15:00 AM 8.38 47.084 0.093 7.18 5.07 11.11
4/14/2021 8:30:00 AM 8.37 47.066 0.086 7.2 5.22 11.16
4/14/2021 8:45:00 AM 8.38 47.084 0.087 7.2 5.2 11.2
4/14/2021 9:00:00 AM 8.42 47.156 0.087 7.21 4.99 11.25
4/14/2021 9:15:00 AM 8.49 47.282 0.085 7.22 4.99 11.28
4/14/2021 9:30:00 AM 8.58 47.444 0.086 7.19 5.01 11.31
4/14/2021 9:45:00 AM 8.68 47.624 0.088 7.22 5.2 11.35
4/14/2021 10:00:00 AM 8.81 47.858 0.088 7.25 5.01 11.38
4/14/2021 10:15:00 AM 8.95 48.11 0.087 7.25 4.9 11.39
4/14/2021 10:30:00 AM 9.08 48.344 0.088 7.27 5.24 11.41
4/14/2021 10:45:00 AM 9.23 48.614 0.087 7.24 5.2 11.42
4/14/2021 11:00:00 AM 9.42 48.956 0.088 7.28 5.02 11.42
4/14/2021 11:15:00 AM 9.48 49.064 0.089 7.29 4.81 11.4
4/14/2021 11:30:00 AM 9.58 49.244 0.087 7.3 4.92 11.39
4/14/2021 11:45:00 AM 9.68 49.424 0.089 7.3 4.98 11.39
4/14/2021 12:00:00 PM 9.75 49.55 0.086 7.31 5.15 11.38
4/14/2021 12:15:00 PM 9.82 49.676 0.084 7.28 4.54 11.37
4/14/2021 12:30:00 PM 9.9 49.82 0.091 7.31 4.62 11.36
4/14/2021 12:45:00 PM 9.98 49.964 0.088 7.32 4.48 11.36
4/14/2021 1:00:00 PM 10.08 50.144 0.084 7.31 4.75 11.34
4/14/2021 1:15:00 PM 10.14 50.252 0.083 7.33 4.33 11.31
4/14/2021 1:30:00 PM 10.14 50.252 0.087 7.32 5.02 11.27
4/14/2021 1:45:00 PM 10.16 50.288 0.088 7.32 4.59 11.22
4/14/2021 2:00:00 PM 10.19 50.342 0.088 7.28 4.82 11.19
4/14/2021 2:15:00 PM 10.28 50.504 0.089 7.31 4.71 11.19
4/14/2021 2:30:00 PM 10.35 50.63 0.088 7.32 4.6 11.17
4/14/2021 2:45:00 PM 10.4 50.72 0.088 7.32 4.49 11.13
4/14/2021 3:00:00 PM 10.46 50.828 0.088 7.32 4.9 11.11
4/14/2021 3:15:00 PM 10.5 50.9 0.086 7.31 4.51 11.06
4/14/2021 3:30:00 PM 10.51 50.918 0.087 7.31 4.57 10.99
4/14/2021 3:45:00 PM 10.52 50.936 0.085 7.29 4.47 10.93
4/14/2021 4:00:00 PM 10.55 50.99 0.085 7.29 5.79 10.89
4/14/2021 4:15:00 PM 10.59 51.062 0.086 7.29 59.92 10.83
4/14/2021 4:30:00 PM 10.62 51.116 0.089 7.29 34.41 10.8
4/14/2021 4:45:00 PM 10.69 51.242 0.089 7.29 41.53 10.79
4/14/2021 5:00:00 PM 10.8 51.44 0.093 7.3 27.32 10.78
4/14/2021 5:15:00 PM 10.84 51.512 0.098 7.3 32.05 10.73
4/14/2021 5:30:00 PM 10.9 51.62 0.099 7.33 18.1 10.72
4/14/2021 5:45:00 PM 10.96 51.728 0.1 7.35 23.14 10.7
4/14/2021 6:00:00 PM 10.97 51.746 0.12 7.35 19.82 10.7
4/14/2021 6:15:00 PM 10.94 51.692 0.102 7.35 16.55 10.69
4/14/2021 6:30:00 PM 10.92 51.656 0.105 7.33 14.18 10.69
4/14/2021 6:45:00 PM 10.89 51.602 0.104 7.32 12.83 10.67
4/14/2021 7:00:00 PM 10.88 51.584 0.101 7.31 10.6 10.65
4/14/2021 7:15:00 PM 10.85 51.53 0.119 7.3 10.07 10.62
4/14/2021 7:30:00 PM 10.83 51.494 0.098 7.27 10.32 10.59
4/14/2021 7:45:00 PM 10.8 51.44 0.101 7.28 10.58 10.55
4/14/2021 8:00:00 PM 10.78 51.404 0.1 7.27 11.66 10.52
4/14/2021 8:15:00 PM 10.75 51.35 0.099 7.25 8.9 10.49
4/14/2021 8:30:00 PM 10.71 51.278 0.1 7.23 11.69 10.47
4/14/2021 8:45:00 PM 10.67 51.206 0.114 7.23 8.01 10.45
4/14/2021 9:00:00 PM 10.62 51.116 0.098 7.22 8.15 10.43
4/14/2021 9:15:00 PM 10.56 51.008 0.096 7.18 7.22 10.42
4/14/2021 9:30:00 PM 10.5 50.9 0.094 7.21 7.43 10.41
4/14/2021 9:45:00 PM 10.44 50.792 0.097 7.19 7.01 10.41
4/14/2021 10:00:00 PM 10.37 50.666 0.099 7.18 7.01 10.41
4/14/2021 10:15:00 PM 10.31 50.558 0.096 7.17 7.93 10.41
4/14/2021 10:30:00 PM 10.24 50.432 0.095 7.16 7.78 10.41
4/14/2021 10:45:00 PM 10.18 50.324 0.099 7.17 6.86 10.42
4/14/2021 11:00:00 PM 10.12 50.216 0.096 7.17 6.42 10.42
4/14/2021 11:15:00 PM 10.05 50.09 0.096 7.16 6.65 10.43
4/14/2021 11:30:00 PM 9.99 49.982 0.095 7.16 6.98 10.43
4/14/2021 11:45:00 PM 9.92 49.856 0.097 7.14 6.43 10.44
4/15/2021 12:00:00 AM 9.86 49.748 0.094 7.16 7.17 10.45
4/15/2021 12:15:00 AM 9.8 49.64 0.096 7.16 7.11 10.45
4/15/2021 12:30:00 AM 9.74 49.532 0.096 7.16 6.57 10.47
4/15/2021 12:45:00 AM 9.68 49.424 0.094 7.15 6.64 10.47
4/15/2021 1:00:00 AM 9.62 49.316 0.095 7.15 9.17 10.48
4/15/2021 1:15:00 AM 9.56 49.208 0.097 7.15 6.2 10.49
4/15/2021 1:30:00 AM 9.51 49.118 0.094 7.12 11.63 10.5
4/15/2021 1:45:00 AM 9.45 49.01 0.095 7.15 9.3 10.51
4/15/2021 2:00:00 AM 9.41 48.938 0.094 7.16 16.42 10.52
4/15/2021 2:15:00 AM 9.36 48.848 0.095 7.15 7.18 10.53
4/15/2021 2:30:00 AM 9.31 48.758 0.096 7.15 7.7 10.54
4/15/2021 2:45:00 AM 9.26 48.668 0.095 7.15 5.95 10.55
4/15/2021 3:00:00 AM 9.22 48.596 0.095 7.15 5.88 10.56
4/15/2021 3:15:00 AM 9.17 48.506 0.096 7.15 5.99 10.57
4/15/2021 3:30:00 AM 9.13 48.434 0.093 7.15 6.03 10.58
4/15/2021 3:45:00 AM 9.09 48.362 0.092 7.15 6.49 10.59
4/15/2021 4:00:00 AM 9.05 48.29 0.094 7.16 6.58 10.6
4/15/2021 4:15:00 AM 9 48.2 0.095 7.16 5.97 10.61
4/15/2021 4:30:00 AM 8.96 48.128 0.096 7.15 6.47 10.62
4/15/2021 4:45:00 AM 8.92 48.056 0.095 7.15 6.86 10.63
4/15/2021 5:00:00 AM 8.87 47.966 0.093 7.15 5.77 10.64
4/15/2021 5:15:00 AM 8.83 47.894 0.091 7.15 5.89 10.65
4/15/2021 5:30:00 AM 8.79 47.822 0.095 7.15 5.96 10.66
4/15/2021 5:45:00 AM 8.76 47.768 0.093 7.15 5.82 10.67
4/15/2021 6:00:00 AM 8.72 47.696 0.094 7.11 5.28 10.67
4/15/2021 6:15:00 AM 8.69 47.642 0.093 7.14 5.36 10.68
4/15/2021 6:30:00 AM 8.65 47.57 0.088 7.15 5.35 10.69
4/15/2021 6:45:00 AM 8.62 47.516 0.093 7.15 5.88 10.71
4/15/2021 7:00:00 AM 8.59 47.462 0.096 7.15 5.38 10.73
4/15/2021 7:15:00 AM 8.56 47.408 0.092 7.15 5.07 10.75
4/15/2021 7:30:00 AM 8.54 47.372 0.092 7.15 7.45 10.79
4/15/2021 7:45:00 AM 8.53 47.354 0.095 7.17 5.33 10.82
4/15/2021 8:00:00 AM 8.52 47.336 0.095 7.17 4.83 10.87
4/15/2021 8:15:00 AM 8.51 47.318 0.088 7.17 5.11 10.9
4/15/2021 8:30:00 AM 8.5 47.3 0.09 7.18 4.97 10.92
4/15/2021 8:45:00 AM 8.49 47.282 0.098 7.18 5.14 10.94
4/15/2021 9:00:00 AM 8.5 47.3 0.094 7.19 4.86 10.98
4/15/2021 9:15:00 AM 8.5 47.3 0.088 7.2 4.8 10.99
4/15/2021 9:30:00 AM 8.51 47.318 0.093 7.19 5.18 11.05
4/15/2021 9:45:00 AM 8.55 47.39 0.094 7.21 6.38 11.09
4/15/2021 10:00:00 AM 8.64 47.552 0.092 7.25 5.12 11.14
4/15/2021 10:15:00 AM 8.71 47.678 0.09 7.23 4.79 11.19
4/15/2021 10:30:00 AM 8.75 47.75 0.092 7.25 4.76 11.2
4/15/2021 10:45:00 AM 8.77 47.786 0.092 7.25 4.94 11.2
4/15/2021 11:00:00 AM 8.79 47.822 0.093 7.26 5.97 11.21
4/15/2021 11:15:00 AM 8.8 47.84 0.089 7.28 4.66 11.23
4/15/2021 11:30:00 AM 8.83 47.894 0.091 7.27 4.73 11.24
4/15/2021 11:45:00 AM 8.91 48.038 0.091 7.28 4.67 11.27
4/15/2021 12:00:00 PM 8.92 48.056 0.112 7.29 4.76 11.26
4/15/2021 12:15:00 PM 8.96 48.128 0.094 7.29 4.37 11.25
4/15/2021 12:30:00 PM 8.97 48.146 0.087 7.29 4.49 11.24
4/15/2021 12:45:00 PM 8.95 48.11 0.092 7.29 4.74 11.24
4/15/2021 1:00:00 PM 8.95 48.11 0.091 7.3 4.85 11.26
4/15/2021 1:15:00 PM 8.95 48.11 0.09 7.29 4.78 11.26
4/15/2021 1:30:00 PM 8.96 48.128 0.095 7.3 4.48 11.26
4/15/2021 1:45:00 PM 8.97 48.146 0.087 7.27 5.8 11.26
4/15/2021 2:00:00 PM 8.98 48.164 0.093 7.3 6.25 11.26
4/15/2021 2:15:00 PM 9 48.2 0.092 7.3 5.92 11.28
4/15/2021 2:30:00 PM 9 48.2 0.093 7.32 5.53 11.28
4/15/2021 2:45:00 PM 9.02 48.236 0.09 7.33 5.2 11.29
4/15/2021 3:00:00 PM 9.08 48.344 0.092 7.33 4.94 11.31
4/15/2021 3:15:00 PM 9.16 48.488 0.095 7.32 4.64 11.32
4/15/2021 3:30:00 PM 9.21 48.578 0.093 7.32 4.87 11.32
4/15/2021 3:45:00 PM 9.34 48.812 0.093 7.35 4.66 11.31
4/15/2021 4:00:00 PM 9.29 48.722 0.092 7.35 4.66 11.27
4/15/2021 4:15:00 PM 9.29 48.722 0.094 7.34 4.67 11.22
4/15/2021 4:30:00 PM 9.23 48.614 0.092 7.32 4.73 11.18
4/15/2021 4:45:00 PM 9.17 48.506 0.091 7.32 4.83 11.17
4/15/2021 5:00:00 PM 9.15 48.47 0.094 7.3 4.78 11.17
4/15/2021 5:15:00 PM 9.14 48.452 0.094 7.32 5.21 11.17
4/15/2021 5:30:00 PM 9.15 48.47 0.092 7.34 4.67 11.17
4/15/2021 5:45:00 PM 9.13 48.434 0.093 7.32 4.64 11.16
4/15/2021 6:00:00 PM 9.1 48.38 0.098 7.32 5.65 11.13
4/15/2021 6:15:00 PM 9.06 48.308 0.094 7.31 4.69 11.1
4/15/2021 6:30:00 PM 9.02 48.236 0.103 7.29 5.24 11.06
4/15/2021 6:45:00 PM 8.98 48.164 0.088 7.28 5.31 11.03
4/15/2021 7:00:00 PM 8.94 48.092 0.092 7.29 7.59 11
4/15/2021 7:15:00 PM 8.89 48.002 0.092 7.28 5.37 10.97
4/15/2021 7:30:00 PM 8.85 47.93 0.095 7.28 5.69 10.95
4/15/2021 7:45:00 PM 8.81 47.858 0.095 7.26 5.53 10.93
4/15/2021 8:00:00 PM 8.77 47.786 0.094 7.25 5.39 10.92
4/15/2021 8:15:00 PM 8.73 47.714 0.09 7.26 5.76 10.9
4/15/2021 8:30:00 PM 8.67 47.606 0.088 7.24 7.71 10.9
4/15/2021 8:45:00 PM 8.62 47.516 0.091 7.24 6.74 10.88
4/15/2021 9:00:00 PM 8.58 47.444 0.094 7.24 5.64 10.87
4/15/2021 9:15:00 PM 8.54 47.372 0.092 7.23 5.6 10.87
4/15/2021 9:30:00 PM 8.49 47.282 0.092 7.22 5.56 10.87
4/15/2021 9:45:00 PM 8.45 47.21 0.089 7.21 5.65 10.86
4/15/2021 10:00:00 PM 8.39 47.102 0.094 7.21 5.48 10.86
4/15/2021 10:15:00 PM 8.34 47.012 0.093 7.21 5.59 10.86
4/15/2021 10:30:00 PM 8.28 46.904 0.095 7.18 5.64 10.86
4/15/2021 10:45:00 PM 8.23 46.814 0.095 7.16 5.43 10.87
4/15/2021 11:00:00 PM 8.19 46.742 0.09 7.19 6.09 10.87
4/15/2021 11:15:00 PM 8.12 46.616 0.093 7.19 6.43 10.88
4/15/2021 11:30:00 PM 8.06 46.508 0.093 7.21 6.03 10.89
4/15/2021 11:45:00 PM 8 46.4 0.092 7.2 5.55 10.89
4/16/2021 12:00:00 AM 7.96 46.328 0.092 7.19 5.51 10.91
4/16/2021 12:15:00 AM 7.91 46.238 0.094 7.17 5.43 10.91
4/16/2021 12:30:00 AM 7.87 46.166 0.093 7.15 5.66 10.92
4/16/2021 12:45:00 AM 7.83 46.094 0.091 7.16 5.43 10.93
4/16/2021 1:00:00 AM 7.77 45.986 0.095 7.18 5.47 10.94
4/16/2021 1:15:00 AM 7.71 45.878 0.094 7.17 6.15 10.95
4/16/2021 1:30:00 AM 7.66 45.788 0.095 7.17 5.51 10.95
4/16/2021 1:45:00 AM 7.6 45.68 0.093 7.17 6.06 10.97
4/16/2021 2:00:00 AM 7.55 45.59 0.093 7.18 5.81 10.98
4/16/2021 2:15:00 AM 7.5 45.5 0.091 7.17 6.76 11
4/16/2021 2:30:00 AM 7.44 45.392 0.093 7.14 5.44 11.01
4/16/2021 2:45:00 AM 7.39 45.302 0.094 7.16 5.39 11.02
4/16/2021 3:00:00 AM 7.34 45.212 0.092 7.17 5.44 11.04
4/16/2021 3:15:00 AM 7.29 45.122 0.093 7.18 6.29 11.04
4/16/2021 3:30:00 AM 7.25 45.05 0.094 7.15 5.38 11.06
4/16/2021 3:45:00 AM 7.21 44.978 0.091 7.12 5.72 11.07
4/16/2021 4:00:00 AM 7.17 44.906 0.091 7.13 5.61 11.08
4/16/2021 4:15:00 AM 7.14 44.852 0.096 7.16 5.15 11.08
4/16/2021 4:30:00 AM 7.11 44.798 0.095 7.13 6.24 11.1
4/16/2021 4:45:00 AM 7.07 44.726 0.094 7.16 5.39 11.11
4/16/2021 5:00:00 AM 7.04 44.672 0.096 7.16 5.54 11.11
4/16/2021 5:15:00 AM 7.01 44.618 0.092 7.15 5.22 11.12
4/16/2021 5:30:00 AM 6.98 44.564 0.095 7.16 5.01 11.13
4/16/2021 5:45:00 AM 6.95 44.51 0.093 7.16 5.43 11.14
4/16/2021 6:00:00 AM 6.92 44.456 0.095 7.15 5.19 11.15
4/16/2021 6:15:00 AM 6.89 44.402 0.094 7.15 5.74 11.16
4/16/2021 6:30:00 AM 6.85 44.33 0.093 7.15 5.97 11.17
4/16/2021 6:45:00 AM 6.81 44.258 0.099 7.15 5.87 11.18
4/16/2021 7:00:00 AM 6.77 44.186 0.099 7.15 5.17 11.2
4/16/2021 7:15:00 AM 6.74 44.132 0.094 7.16 5.3 11.22
4/16/2021 7:30:00 AM 6.71 44.078 0.093 7.13 5.71 11.25
4/16/2021 7:45:00 AM 6.68 44.024 0.093 7.16 5.58 11.28
4/16/2021 8:00:00 AM 6.66 43.988 0.094 7.17 5.69 11.31
4/16/2021 8:15:00 AM 6.63 43.934 0.093 7.17 5.59 11.35
4/16/2021 8:30:00 AM 6.61 43.898 0.09 7.18 5.63 11.4
4/16/2021 8:45:00 AM 6.62 43.916 0.097 7.19 5.76 11.45
4/16/2021 9:00:00 AM 6.65 43.97 0.096 7.18 5.98 11.5
4/16/2021 9:15:00 AM 6.67 44.006 0.095 7.21 5.4 11.55
4/16/2021 9:30:00 AM 6.71 44.078 0.093 7.22 5.48 11.6
4/16/2021 9:45:00 AM 6.74 44.132 0.091 7.25 5.92 11.63
4/16/2021 10:00:00 AM 6.77 44.186 0.099 7.24 5.61 11.66
4/16/2021 10:15:00 AM